<?xml version="1.0" encoding="UTF-8" standalone="no" ?>
<gpx xmlns="http://www.topografix.com/GPX/1/1" xmlns:xsi="http://www.w3.org/2001/XMLSchema-instance" xsi:schemaLocation="http://www.topografix.com/GPX/1/1 http://www.topografix.com/GPX/1/1/gpx.xsd" version="1.1" creator="VisuGPX - https://www.visugpx.com">
  <metadata>
    <name>petite balade de Thoucindre</name>
    <desc><![CDATA[Fait le 3/11/12]]></desc>
  </metadata>
  <trk>
    <name><![CDATA[2012-11-03T08:56:28Z]]></name>
    <trkseg>
      <trkpt lat="45.80345" lon="4.83388">
        <ele>219</ele>
        <time>2012-11-03T08:56:28Z</time>
      </trkpt>
      <trkpt lat="45.80348" lon="4.83372">
        <ele>220</ele>
        <time>2012-11-03T08:56:31Z</time>
      </trkpt>
      <trkpt lat="45.80347" lon="4.83361">
        <ele>221</ele>
        <time>2012-11-03T08:56:34Z</time>
      </trkpt>
      <trkpt lat="45.80353" lon="4.83343">
        <ele>222</ele>
        <time>2012-11-03T08:56:39Z</time>
      </trkpt>
      <trkpt lat="45.8036" lon="4.8332">
        <ele>227</ele>
        <time>2012-11-03T08:56:42Z</time>
      </trkpt>
      <trkpt lat="45.80364" lon="4.83309">
        <ele>228</ele>
        <time>2012-11-03T08:56:45Z</time>
      </trkpt>
      <trkpt lat="45.80374" lon="4.8327">
        <ele>229</ele>
        <time>2012-11-03T08:56:53Z</time>
      </trkpt>
      <trkpt lat="45.80382" lon="4.83245">
        <ele>234</ele>
        <time>2012-11-03T08:56:59Z</time>
      </trkpt>
      <trkpt lat="45.80387" lon="4.83219">
        <ele>234</ele>
        <time>2012-11-03T08:57:04Z</time>
      </trkpt>
      <trkpt lat="45.80393" lon="4.83191">
        <ele>235</ele>
        <time>2012-11-03T08:57:08Z</time>
      </trkpt>
      <trkpt lat="45.804" lon="4.83167">
        <ele>236</ele>
        <time>2012-11-03T08:57:11Z</time>
      </trkpt>
      <trkpt lat="45.80405" lon="4.83141">
        <ele>238</ele>
        <time>2012-11-03T08:57:16Z</time>
      </trkpt>
      <trkpt lat="45.80411" lon="4.83114">
        <ele>238</ele>
        <time>2012-11-03T08:57:21Z</time>
      </trkpt>
      <trkpt lat="45.80416" lon="4.83105">
        <ele>238</ele>
        <time>2012-11-03T08:57:23Z</time>
      </trkpt>
      <trkpt lat="45.80432" lon="4.83085">
        <ele>240</ele>
        <time>2012-11-03T08:57:27Z</time>
      </trkpt>
      <trkpt lat="45.80443" lon="4.83053">
        <ele>242</ele>
        <time>2012-11-03T08:57:29Z</time>
      </trkpt>
      <trkpt lat="45.8046" lon="4.83032">
        <ele>243</ele>
        <time>2012-11-03T08:57:32Z</time>
      </trkpt>
      <trkpt lat="45.8048" lon="4.83017">
        <ele>243</ele>
        <time>2012-11-03T08:57:35Z</time>
      </trkpt>
      <trkpt lat="45.80495" lon="4.83004">
        <ele>244</ele>
        <time>2012-11-03T08:57:37Z</time>
      </trkpt>
      <trkpt lat="45.80517" lon="4.82991">
        <ele>242</ele>
        <time>2012-11-03T08:57:40Z</time>
      </trkpt>
      <trkpt lat="45.80538" lon="4.8298">
        <ele>242</ele>
        <time>2012-11-03T08:57:43Z</time>
      </trkpt>
      <trkpt lat="45.8055" lon="4.82973">
        <ele>241</ele>
        <time>2012-11-03T08:57:45Z</time>
      </trkpt>
      <trkpt lat="45.80556" lon="4.82969">
        <ele>241</ele>
        <time>2012-11-03T08:57:46Z</time>
      </trkpt>
      <trkpt lat="45.80568" lon="4.8296">
        <ele>241</ele>
        <time>2012-11-03T08:57:48Z</time>
      </trkpt>
      <trkpt lat="45.80591" lon="4.82946">
        <ele>241</ele>
        <time>2012-11-03T08:57:52Z</time>
      </trkpt>
      <trkpt lat="45.80616" lon="4.8293">
        <ele>241</ele>
        <time>2012-11-03T08:57:56Z</time>
      </trkpt>
      <trkpt lat="45.8063" lon="4.82923">
        <ele>242</ele>
        <time>2012-11-03T08:57:58Z</time>
      </trkpt>
      <trkpt lat="45.80645" lon="4.82911">
        <ele>239</ele>
        <time>2012-11-03T08:58:00Z</time>
      </trkpt>
      <trkpt lat="45.80655" lon="4.82909">
        <ele>240</ele>
        <time>2012-11-03T08:58:01Z</time>
      </trkpt>
      <trkpt lat="45.8067" lon="4.82903">
        <ele>241</ele>
        <time>2012-11-03T08:58:03Z</time>
      </trkpt>
      <trkpt lat="45.80677" lon="4.82903">
        <ele>241</ele>
        <time>2012-11-03T08:58:04Z</time>
      </trkpt>
      <trkpt lat="45.80706" lon="4.82909">
        <ele>241</ele>
        <time>2012-11-03T08:58:08Z</time>
      </trkpt>
      <trkpt lat="45.80712" lon="4.8291">
        <ele>241</ele>
        <time>2012-11-03T08:58:09Z</time>
      </trkpt>
      <trkpt lat="45.80718" lon="4.82912">
        <ele>241</ele>
        <time>2012-11-03T08:58:10Z</time>
      </trkpt>
      <trkpt lat="45.8074" lon="4.82921">
        <ele>243</ele>
        <time>2012-11-03T08:58:14Z</time>
      </trkpt>
      <trkpt lat="45.80746" lon="4.82923">
        <ele>243</ele>
        <time>2012-11-03T08:58:15Z</time>
      </trkpt>
      <trkpt lat="45.80763" lon="4.82933">
        <ele>243</ele>
        <time>2012-11-03T08:58:18Z</time>
      </trkpt>
      <trkpt lat="45.80769" lon="4.82937">
        <ele>244</ele>
        <time>2012-11-03T08:58:19Z</time>
      </trkpt>
      <trkpt lat="45.80782" lon="4.82944">
        <ele>244</ele>
        <time>2012-11-03T08:58:21Z</time>
      </trkpt>
      <trkpt lat="45.80794" lon="4.82948">
        <ele>244</ele>
        <time>2012-11-03T08:58:23Z</time>
      </trkpt>
      <trkpt lat="45.80818" lon="4.82958">
        <ele>244</ele>
        <time>2012-11-03T08:58:27Z</time>
      </trkpt>
      <trkpt lat="45.80842" lon="4.82963">
        <ele>246</ele>
        <time>2012-11-03T08:58:31Z</time>
      </trkpt>
      <trkpt lat="45.80854" lon="4.82966">
        <ele>246</ele>
        <time>2012-11-03T08:58:33Z</time>
      </trkpt>
      <trkpt lat="45.80887" lon="4.82977">
        <ele>247</ele>
        <time>2012-11-03T08:58:39Z</time>
      </trkpt>
      <trkpt lat="45.80891" lon="4.8298">
        <ele>247</ele>
        <time>2012-11-03T08:58:40Z</time>
      </trkpt>
      <trkpt lat="45.80915" lon="4.82985">
        <ele>248</ele>
        <time>2012-11-03T08:58:45Z</time>
      </trkpt>
      <trkpt lat="45.80929" lon="4.82988">
        <ele>249</ele>
        <time>2012-11-03T08:58:48Z</time>
      </trkpt>
      <trkpt lat="45.80933" lon="4.82988">
        <ele>249</ele>
        <time>2012-11-03T08:58:49Z</time>
      </trkpt>
      <trkpt lat="45.80938" lon="4.82987">
        <ele>249</ele>
        <time>2012-11-03T08:58:50Z</time>
      </trkpt>
      <trkpt lat="45.80969" lon="4.82986">
        <ele>249</ele>
        <time>2012-11-03T08:58:57Z</time>
      </trkpt>
      <trkpt lat="45.81007" lon="4.82987">
        <ele>250</ele>
        <time>2012-11-03T08:59:05Z</time>
      </trkpt>
      <trkpt lat="45.81011" lon="4.82986">
        <ele>250</ele>
        <time>2012-11-03T08:59:06Z</time>
      </trkpt>
      <trkpt lat="45.81026" lon="4.82996">
        <ele>250</ele>
        <time>2012-11-03T08:59:11Z</time>
      </trkpt>
      <trkpt lat="45.81025" lon="4.83015">
        <ele>250</ele>
        <time>2012-11-03T08:59:14Z</time>
      </trkpt>
      <trkpt lat="45.81025" lon="4.8306">
        <ele>250</ele>
        <time>2012-11-03T08:59:21Z</time>
      </trkpt>
      <trkpt lat="45.81026" lon="4.83069">
        <ele>250</ele>
        <time>2012-11-03T08:59:23Z</time>
      </trkpt>
      <trkpt lat="45.8103" lon="4.83072">
        <ele>251</ele>
        <time>2012-11-03T08:59:25Z</time>
      </trkpt>
      <trkpt lat="45.81043" lon="4.83073">
        <ele>251</ele>
        <time>2012-11-03T08:59:29Z</time>
      </trkpt>
      <trkpt lat="45.81047" lon="4.83072">
        <ele>251</ele>
        <time>2012-11-03T08:59:30Z</time>
      </trkpt>
      <trkpt lat="45.81055" lon="4.8307">
        <ele>251</ele>
        <time>2012-11-03T08:59:32Z</time>
      </trkpt>
      <trkpt lat="45.81065" lon="4.83069">
        <ele>251</ele>
        <time>2012-11-03T08:59:34Z</time>
      </trkpt>
      <trkpt lat="45.81069" lon="4.83068">
        <ele>251</ele>
        <time>2012-11-03T08:59:35Z</time>
      </trkpt>
      <trkpt lat="45.81101" lon="4.83059">
        <ele>252</ele>
        <time>2012-11-03T08:59:42Z</time>
      </trkpt>
      <trkpt lat="45.81106" lon="4.83058">
        <ele>253</ele>
        <time>2012-11-03T08:59:43Z</time>
      </trkpt>
      <trkpt lat="45.81127" lon="4.83051">
        <ele>253</ele>
        <time>2012-11-03T08:59:48Z</time>
      </trkpt>
      <trkpt lat="45.8114" lon="4.83048">
        <ele>253</ele>
        <time>2012-11-03T08:59:51Z</time>
      </trkpt>
      <trkpt lat="45.81172" lon="4.83041">
        <ele>256</ele>
        <time>2012-11-03T08:59:59Z</time>
      </trkpt>
      <trkpt lat="45.81176" lon="4.83041">
        <ele>256</ele>
        <time>2012-11-03T09:00:00Z</time>
      </trkpt>
      <trkpt lat="45.812" lon="4.83037">
        <ele>257</ele>
        <time>2012-11-03T09:00:06Z</time>
      </trkpt>
      <trkpt lat="45.81216" lon="4.83031">
        <ele>258</ele>
        <time>2012-11-03T09:00:10Z</time>
      </trkpt>
      <trkpt lat="45.81221" lon="4.8303">
        <ele>258</ele>
        <time>2012-11-03T09:00:11Z</time>
      </trkpt>
      <trkpt lat="45.81252" lon="4.83023">
        <ele>261</ele>
        <time>2012-11-03T09:00:18Z</time>
      </trkpt>
      <trkpt lat="45.81262" lon="4.8302">
        <ele>261</ele>
        <time>2012-11-03T09:00:20Z</time>
      </trkpt>
      <trkpt lat="45.8129" lon="4.8301">
        <ele>262</ele>
        <time>2012-11-03T09:00:26Z</time>
      </trkpt>
      <trkpt lat="45.81295" lon="4.83009">
        <ele>262</ele>
        <time>2012-11-03T09:00:27Z</time>
      </trkpt>
      <trkpt lat="45.81327" lon="4.82997">
        <ele>262</ele>
        <time>2012-11-03T09:00:34Z</time>
      </trkpt>
      <trkpt lat="45.8135" lon="4.8299">
        <ele>263</ele>
        <time>2012-11-03T09:00:39Z</time>
      </trkpt>
      <trkpt lat="45.81358" lon="4.82989">
        <ele>263</ele>
        <time>2012-11-03T09:00:41Z</time>
      </trkpt>
      <trkpt lat="45.81367" lon="4.82987">
        <ele>263</ele>
        <time>2012-11-03T09:00:43Z</time>
      </trkpt>
      <trkpt lat="45.81384" lon="4.82984">
        <ele>263</ele>
        <time>2012-11-03T09:00:47Z</time>
      </trkpt>
      <trkpt lat="45.81404" lon="4.82979">
        <ele>263</ele>
        <time>2012-11-03T09:00:51Z</time>
      </trkpt>
      <trkpt lat="45.8142" lon="4.82977">
        <ele>264</ele>
        <time>2012-11-03T09:00:54Z</time>
      </trkpt>
      <trkpt lat="45.81445" lon="4.82975">
        <ele>264</ele>
        <time>2012-11-03T09:00:59Z</time>
      </trkpt>
      <trkpt lat="45.81459" lon="4.82973">
        <ele>264</ele>
        <time>2012-11-03T09:01:02Z</time>
      </trkpt>
      <trkpt lat="45.81468" lon="4.82973">
        <ele>264</ele>
        <time>2012-11-03T09:01:04Z</time>
      </trkpt>
      <trkpt lat="45.81482" lon="4.82971">
        <ele>264</ele>
        <time>2012-11-03T09:01:07Z</time>
      </trkpt>
      <trkpt lat="45.81495" lon="4.82967">
        <ele>265</ele>
        <time>2012-11-03T09:01:10Z</time>
      </trkpt>
      <trkpt lat="45.81521" lon="4.82964">
        <ele>267</ele>
        <time>2012-11-03T09:01:16Z</time>
      </trkpt>
      <trkpt lat="45.81546" lon="4.82953">
        <ele>268</ele>
        <time>2012-11-03T09:01:23Z</time>
      </trkpt>
      <trkpt lat="45.81555" lon="4.82947">
        <ele>268</ele>
        <time>2012-11-03T09:01:26Z</time>
      </trkpt>
      <trkpt lat="45.81565" lon="4.82941">
        <ele>269</ele>
        <time>2012-11-03T09:01:29Z</time>
      </trkpt>
      <trkpt lat="45.81584" lon="4.82935">
        <ele>271</ele>
        <time>2012-11-03T09:01:35Z</time>
      </trkpt>
      <trkpt lat="45.81591" lon="4.82931">
        <ele>271</ele>
        <time>2012-11-03T09:01:37Z</time>
      </trkpt>
      <trkpt lat="45.81601" lon="4.82927">
        <ele>272</ele>
        <time>2012-11-03T09:01:41Z</time>
      </trkpt>
      <trkpt lat="45.81623" lon="4.82914">
        <ele>274</ele>
        <time>2012-11-03T09:01:49Z</time>
      </trkpt>
      <trkpt lat="45.81626" lon="4.82915">
        <ele>274</ele>
        <time>2012-11-03T09:01:50Z</time>
      </trkpt>
      <trkpt lat="45.81635" lon="4.82922">
        <ele>273</ele>
        <time>2012-11-03T09:01:53Z</time>
      </trkpt>
      <trkpt lat="45.8164" lon="4.8293">
        <ele>273</ele>
        <time>2012-11-03T09:01:55Z</time>
      </trkpt>
      <trkpt lat="45.8165" lon="4.8295">
        <ele>273</ele>
        <time>2012-11-03T09:01:59Z</time>
      </trkpt>
      <trkpt lat="45.81653" lon="4.82955">
        <ele>273</ele>
        <time>2012-11-03T09:02:00Z</time>
      </trkpt>
      <trkpt lat="45.8166" lon="4.82965">
        <ele>272</ele>
        <time>2012-11-03T09:02:02Z</time>
      </trkpt>
      <trkpt lat="45.8167" lon="4.8297">
        <ele>274</ele>
        <time>2012-11-03T09:02:04Z</time>
      </trkpt>
      <trkpt lat="45.81685" lon="4.82972">
        <ele>274</ele>
        <time>2012-11-03T09:02:07Z</time>
      </trkpt>
      <trkpt lat="45.81691" lon="4.82972">
        <ele>274</ele>
        <time>2012-11-03T09:02:08Z</time>
      </trkpt>
      <trkpt lat="45.81711" lon="4.82972">
        <ele>274</ele>
        <time>2012-11-03T09:02:12Z</time>
      </trkpt>
      <trkpt lat="45.81722" lon="4.82972">
        <ele>274</ele>
        <time>2012-11-03T09:02:14Z</time>
      </trkpt>
      <trkpt lat="45.8176" lon="4.82972">
        <ele>275</ele>
        <time>2012-11-03T09:02:21Z</time>
      </trkpt>
      <trkpt lat="45.81772" lon="4.82972">
        <ele>276</ele>
        <time>2012-11-03T09:02:23Z</time>
      </trkpt>
      <trkpt lat="45.81798" lon="4.82975">
        <ele>276</ele>
        <time>2012-11-03T09:02:28Z</time>
      </trkpt>
      <trkpt lat="45.81807" lon="4.82977">
        <ele>276</ele>
        <time>2012-11-03T09:02:30Z</time>
      </trkpt>
      <trkpt lat="45.8182" lon="4.82976">
        <ele>277</ele>
        <time>2012-11-03T09:02:33Z</time>
      </trkpt>
      <trkpt lat="45.81825" lon="4.82971">
        <ele>277</ele>
        <time>2012-11-03T09:02:34Z</time>
      </trkpt>
      <trkpt lat="45.81831" lon="4.82961">
        <ele>278</ele>
        <time>2012-11-03T09:02:36Z</time>
      </trkpt>
      <trkpt lat="45.81832" lon="4.82957">
        <ele>278</ele>
        <time>2012-11-03T09:02:37Z</time>
      </trkpt>
      <trkpt lat="45.81833" lon="4.82953">
        <ele>278</ele>
        <time>2012-11-03T09:02:38Z</time>
      </trkpt>
      <trkpt lat="45.81842" lon="4.82934">
        <ele>281</ele>
        <time>2012-11-03T09:02:44Z</time>
      </trkpt>
      <trkpt lat="45.8185" lon="4.82923">
        <ele>281</ele>
        <time>2012-11-03T09:02:49Z</time>
      </trkpt>
      <trkpt lat="45.81852" lon="4.82921">
        <ele>281</ele>
        <time>2012-11-03T09:02:50Z</time>
      </trkpt>
      <trkpt lat="45.81854" lon="4.82919">
        <ele>281</ele>
        <time>2012-11-03T09:02:51Z</time>
      </trkpt>
      <trkpt lat="45.81863" lon="4.82908">
        <ele>286</ele>
        <time>2012-11-03T09:02:56Z</time>
      </trkpt>
      <trkpt lat="45.8187" lon="4.82888">
        <ele>286</ele>
        <time>2012-11-03T09:03:03Z</time>
      </trkpt>
      <trkpt lat="45.81875" lon="4.82875">
        <ele>287</ele>
        <time>2012-11-03T09:03:07Z</time>
      </trkpt>
      <trkpt lat="45.81877" lon="4.82868">
        <ele>287</ele>
        <time>2012-11-03T09:03:09Z</time>
      </trkpt>
      <trkpt lat="45.81887" lon="4.82857">
        <ele>288</ele>
        <time>2012-11-03T09:03:15Z</time>
      </trkpt>
      <trkpt lat="45.81896" lon="4.82859">
        <ele>288</ele>
        <time>2012-11-03T09:03:20Z</time>
      </trkpt>
      <trkpt lat="45.81906" lon="4.82861">
        <ele>288</ele>
        <time>2012-11-03T09:03:24Z</time>
      </trkpt>
      <trkpt lat="45.81909" lon="4.82861">
        <ele>288</ele>
        <time>2012-11-03T09:03:25Z</time>
      </trkpt>
      <trkpt lat="45.81926" lon="4.82869">
        <ele>289</ele>
        <time>2012-11-03T09:03:32Z</time>
      </trkpt>
      <trkpt lat="45.81943" lon="4.82869">
        <ele>290</ele>
        <time>2012-11-03T09:03:38Z</time>
      </trkpt>
      <trkpt lat="45.81949" lon="4.82868">
        <ele>290</ele>
        <time>2012-11-03T09:03:40Z</time>
      </trkpt>
      <trkpt lat="45.81966" lon="4.82866">
        <ele>291</ele>
        <time>2012-11-03T09:03:46Z</time>
      </trkpt>
      <trkpt lat="45.81981" lon="4.82865">
        <ele>292</ele>
        <time>2012-11-03T09:03:52Z</time>
      </trkpt>
      <trkpt lat="45.81987" lon="4.82866">
        <ele>292</ele>
        <time>2012-11-03T09:03:55Z</time>
      </trkpt>
      <trkpt lat="45.82002" lon="4.82865">
        <ele>297</ele>
        <time>2012-11-03T09:04:01Z</time>
      </trkpt>
      <trkpt lat="45.82017" lon="4.82863">
        <ele>298</ele>
        <time>2012-11-03T09:04:07Z</time>
      </trkpt>
      <trkpt lat="45.82022" lon="4.82863">
        <ele>298</ele>
        <time>2012-11-03T09:04:09Z</time>
      </trkpt>
      <trkpt lat="45.82042" lon="4.82862">
        <ele>299</ele>
        <time>2012-11-03T09:04:18Z</time>
      </trkpt>
      <trkpt lat="45.82054" lon="4.82866">
        <ele>299</ele>
        <time>2012-11-03T09:04:24Z</time>
      </trkpt>
      <trkpt lat="45.82056" lon="4.82867">
        <ele>299</ele>
        <time>2012-11-03T09:04:25Z</time>
      </trkpt>
      <trkpt lat="45.8207" lon="4.82875">
        <ele>299</ele>
        <time>2012-11-03T09:04:32Z</time>
      </trkpt>
      <trkpt lat="45.82078" lon="4.82879">
        <ele>299</ele>
        <time>2012-11-03T09:04:37Z</time>
      </trkpt>
      <trkpt lat="45.82089" lon="4.82881">
        <ele>305</ele>
        <time>2012-11-03T09:04:43Z</time>
      </trkpt>
      <trkpt lat="45.82091" lon="4.82882">
        <ele>305</ele>
        <time>2012-11-03T09:04:44Z</time>
      </trkpt>
      <trkpt lat="45.82104" lon="4.82887">
        <ele>305</ele>
        <time>2012-11-03T09:04:50Z</time>
      </trkpt>
      <trkpt lat="45.82118" lon="4.82887">
        <ele>306</ele>
        <time>2012-11-03T09:04:56Z</time>
      </trkpt>
      <trkpt lat="45.82124" lon="4.8289">
        <ele>306</ele>
        <time>2012-11-03T09:04:59Z</time>
      </trkpt>
      <trkpt lat="45.82136" lon="4.82893">
        <ele>307</ele>
        <time>2012-11-03T09:05:04Z</time>
      </trkpt>
      <trkpt lat="45.82154" lon="4.829">
        <ele>306</ele>
        <time>2012-11-03T09:05:11Z</time>
      </trkpt>
      <trkpt lat="45.8216" lon="4.829">
        <ele>306</ele>
        <time>2012-11-03T09:05:13Z</time>
      </trkpt>
      <trkpt lat="45.82174" lon="4.82904">
        <ele>309</ele>
        <time>2012-11-03T09:05:18Z</time>
      </trkpt>
      <trkpt lat="45.82193" lon="4.8291">
        <ele>311</ele>
        <time>2012-11-03T09:05:24Z</time>
      </trkpt>
      <trkpt lat="45.82196" lon="4.82911">
        <ele>311</ele>
        <time>2012-11-03T09:05:25Z</time>
      </trkpt>
      <trkpt lat="45.82213" lon="4.82915">
        <ele>312</ele>
        <time>2012-11-03T09:05:29Z</time>
      </trkpt>
      <trkpt lat="45.82231" lon="4.82919">
        <ele>305</ele>
        <time>2012-11-03T09:05:34Z</time>
      </trkpt>
      <trkpt lat="45.82255" lon="4.82911">
        <ele>312</ele>
        <time>2012-11-03T09:05:39Z</time>
      </trkpt>
      <trkpt lat="45.82268" lon="4.82904">
        <ele>313</ele>
        <time>2012-11-03T09:05:41Z</time>
      </trkpt>
      <trkpt lat="45.82288" lon="4.82894">
        <ele>314</ele>
        <time>2012-11-03T09:05:45Z</time>
      </trkpt>
      <trkpt lat="45.82304" lon="4.82896">
        <ele>314</ele>
        <time>2012-11-03T09:05:50Z</time>
      </trkpt>
      <trkpt lat="45.82336" lon="4.82902">
        <ele>312</ele>
        <time>2012-11-03T09:05:58Z</time>
      </trkpt>
      <trkpt lat="45.8234" lon="4.82903">
        <ele>312</ele>
        <time>2012-11-03T09:05:59Z</time>
      </trkpt>
      <trkpt lat="45.82363" lon="4.82904">
        <ele>314</ele>
        <time>2012-11-03T09:06:05Z</time>
      </trkpt>
      <trkpt lat="45.82376" lon="4.82909">
        <ele>314</ele>
        <time>2012-11-03T09:06:08Z</time>
      </trkpt>
      <trkpt lat="45.82381" lon="4.82912">
        <ele>314</ele>
        <time>2012-11-03T09:06:09Z</time>
      </trkpt>
      <trkpt lat="45.82391" lon="4.82918">
        <ele>305</ele>
        <time>2012-11-03T09:06:11Z</time>
      </trkpt>
      <trkpt lat="45.82411" lon="4.82931">
        <ele>306</ele>
        <time>2012-11-03T09:06:14Z</time>
      </trkpt>
      <trkpt lat="45.82423" lon="4.82932">
        <ele>307</ele>
        <time>2012-11-03T09:06:16Z</time>
      </trkpt>
      <trkpt lat="45.8244" lon="4.82924">
        <ele>307</ele>
        <time>2012-11-03T09:06:19Z</time>
      </trkpt>
      <trkpt lat="45.82446" lon="4.8292">
        <ele>307</ele>
        <time>2012-11-03T09:06:20Z</time>
      </trkpt>
      <trkpt lat="45.8246" lon="4.82912">
        <ele>318</ele>
        <time>2012-11-03T09:06:24Z</time>
      </trkpt>
      <trkpt lat="45.82477" lon="4.82905">
        <ele>319</ele>
        <time>2012-11-03T09:06:30Z</time>
      </trkpt>
      <trkpt lat="45.8248" lon="4.82904">
        <ele>318</ele>
        <time>2012-11-03T09:06:31Z</time>
      </trkpt>
      <trkpt lat="45.82501" lon="4.82898">
        <ele>321</ele>
        <time>2012-11-03T09:06:38Z</time>
      </trkpt>
      <trkpt lat="45.82512" lon="4.82898">
        <ele>322</ele>
        <time>2012-11-03T09:06:43Z</time>
      </trkpt>
      <trkpt lat="45.82517" lon="4.82898">
        <ele>323</ele>
        <time>2012-11-03T09:06:46Z</time>
      </trkpt>
      <trkpt lat="45.82521" lon="4.82903">
        <ele>322</ele>
        <time>2012-11-03T09:06:49Z</time>
      </trkpt>
      <trkpt lat="45.82529" lon="4.82915">
        <ele>323</ele>
        <time>2012-11-03T09:06:55Z</time>
      </trkpt>
      <trkpt lat="45.82533" lon="4.82925">
        <ele>313</ele>
        <time>2012-11-03T09:07:00Z</time>
      </trkpt>
      <trkpt lat="45.82534" lon="4.82929">
        <ele>313</ele>
        <time>2012-11-03T09:07:01Z</time>
      </trkpt>
      <trkpt lat="45.82536" lon="4.82933">
        <ele>313</ele>
        <time>2012-11-03T09:07:02Z</time>
      </trkpt>
      <trkpt lat="45.82539" lon="4.82937">
        <ele>313</ele>
        <time>2012-11-03T09:07:03Z</time>
      </trkpt>
      <trkpt lat="45.82545" lon="4.82945">
        <ele>312</ele>
        <time>2012-11-03T09:07:05Z</time>
      </trkpt>
      <trkpt lat="45.82551" lon="4.82949">
        <ele>312</ele>
        <time>2012-11-03T09:07:06Z</time>
      </trkpt>
      <trkpt lat="45.82565" lon="4.82954">
        <ele>313</ele>
        <time>2012-11-03T09:07:08Z</time>
      </trkpt>
      <trkpt lat="45.82577" lon="4.8296">
        <ele>312</ele>
        <time>2012-11-03T09:07:09Z</time>
      </trkpt>
      <trkpt lat="45.82597" lon="4.82972">
        <ele>318</ele>
        <time>2012-11-03T09:07:12Z</time>
      </trkpt>
      <trkpt lat="45.82607" lon="4.8299">
        <ele>316</ele>
        <time>2012-11-03T09:07:15Z</time>
      </trkpt>
      <trkpt lat="45.82608" lon="4.82998">
        <ele>316</ele>
        <time>2012-11-03T09:07:16Z</time>
      </trkpt>
      <trkpt lat="45.82594" lon="4.8301">
        <ele>307</ele>
        <time>2012-11-03T09:07:19Z</time>
      </trkpt>
      <trkpt lat="45.82578" lon="4.83007">
        <ele>304</ele>
        <time>2012-11-03T09:07:21Z</time>
      </trkpt>
      <trkpt lat="45.82569" lon="4.83005">
        <ele>302</ele>
        <time>2012-11-03T09:07:22Z</time>
      </trkpt>
      <trkpt lat="45.82549" lon="4.83019">
        <ele>299</ele>
        <time>2012-11-03T09:07:25Z</time>
      </trkpt>
      <trkpt lat="45.82548" lon="4.83027">
        <ele>298</ele>
        <time>2012-11-03T09:07:26Z</time>
      </trkpt>
      <trkpt lat="45.82551" lon="4.83039">
        <ele>297</ele>
        <time>2012-11-03T09:07:27Z</time>
      </trkpt>
      <trkpt lat="45.82566" lon="4.83058">
        <ele>296</ele>
        <time>2012-11-03T09:07:29Z</time>
      </trkpt>
      <trkpt lat="45.82574" lon="4.83066">
        <ele>296</ele>
        <time>2012-11-03T09:07:30Z</time>
      </trkpt>
      <trkpt lat="45.82582" lon="4.83072">
        <ele>295</ele>
        <time>2012-11-03T09:07:31Z</time>
      </trkpt>
      <trkpt lat="45.82599" lon="4.83086">
        <ele>294</ele>
        <time>2012-11-03T09:07:33Z</time>
      </trkpt>
      <trkpt lat="45.82607" lon="4.83094">
        <ele>294</ele>
        <time>2012-11-03T09:07:34Z</time>
      </trkpt>
      <trkpt lat="45.82628" lon="4.83107">
        <ele>295</ele>
        <time>2012-11-03T09:07:37Z</time>
      </trkpt>
      <trkpt lat="45.82644" lon="4.8311">
        <ele>296</ele>
        <time>2012-11-03T09:07:39Z</time>
      </trkpt>
      <trkpt lat="45.82667" lon="4.83117">
        <ele>301</ele>
        <time>2012-11-03T09:07:42Z</time>
      </trkpt>
      <trkpt lat="45.82682" lon="4.83124">
        <ele>300</ele>
        <time>2012-11-03T09:07:44Z</time>
      </trkpt>
      <trkpt lat="45.827" lon="4.83134">
        <ele>300</ele>
        <time>2012-11-03T09:07:47Z</time>
      </trkpt>
      <trkpt lat="45.82716" lon="4.83145">
        <ele>300</ele>
        <time>2012-11-03T09:07:50Z</time>
      </trkpt>
      <trkpt lat="45.82722" lon="4.8315">
        <ele>300</ele>
        <time>2012-11-03T09:07:51Z</time>
      </trkpt>
      <trkpt lat="45.82734" lon="4.83158">
        <ele>299</ele>
        <time>2012-11-03T09:07:53Z</time>
      </trkpt>
      <trkpt lat="45.82747" lon="4.83161">
        <ele>298</ele>
        <time>2012-11-03T09:07:55Z</time>
      </trkpt>
      <trkpt lat="45.82752" lon="4.83161">
        <ele>299</ele>
        <time>2012-11-03T09:07:56Z</time>
      </trkpt>
      <trkpt lat="45.82763" lon="4.83155">
        <ele>301</ele>
        <time>2012-11-03T09:07:59Z</time>
      </trkpt>
      <trkpt lat="45.82767" lon="4.83145">
        <ele>303</ele>
        <time>2012-11-03T09:08:02Z</time>
      </trkpt>
      <trkpt lat="45.82767" lon="4.83143">
        <ele>303</ele>
        <time>2012-11-03T09:08:03Z</time>
      </trkpt>
      <trkpt lat="45.82769" lon="4.83121">
        <ele>306</ele>
        <time>2012-11-03T09:08:11Z</time>
      </trkpt>
      <trkpt lat="45.82773" lon="4.83112">
        <ele>307</ele>
        <time>2012-11-03T09:08:15Z</time>
      </trkpt>
      <trkpt lat="45.82775" lon="4.83112">
        <ele>307</ele>
        <time>2012-11-03T09:08:16Z</time>
      </trkpt>
      <trkpt lat="45.82786" lon="4.8311">
        <ele>307</ele>
        <time>2012-11-03T09:08:22Z</time>
      </trkpt>
      <trkpt lat="45.82797" lon="4.83108">
        <ele>307</ele>
        <time>2012-11-03T09:08:28Z</time>
      </trkpt>
      <trkpt lat="45.82803" lon="4.83109">
        <ele>308</ele>
        <time>2012-11-03T09:08:31Z</time>
      </trkpt>
      <trkpt lat="45.82811" lon="4.8311">
        <ele>308</ele>
        <time>2012-11-03T09:08:35Z</time>
      </trkpt>
      <trkpt lat="45.82824" lon="4.83111">
        <ele>309</ele>
        <time>2012-11-03T09:08:41Z</time>
      </trkpt>
      <trkpt lat="45.82837" lon="4.83111">
        <ele>310</ele>
        <time>2012-11-03T09:08:46Z</time>
      </trkpt>
      <trkpt lat="45.82839" lon="4.83111">
        <ele>310</ele>
        <time>2012-11-03T09:08:47Z</time>
      </trkpt>
      <trkpt lat="45.82855" lon="4.83113">
        <ele>310</ele>
        <time>2012-11-03T09:08:53Z</time>
      </trkpt>
      <trkpt lat="45.82875" lon="4.83118">
        <ele>309</ele>
        <time>2012-11-03T09:09:00Z</time>
      </trkpt>
      <trkpt lat="45.82882" lon="4.83119">
        <ele>309</ele>
        <time>2012-11-03T09:09:02Z</time>
      </trkpt>
      <trkpt lat="45.82908" lon="4.8312">
        <ele>309</ele>
        <time>2012-11-03T09:09:09Z</time>
      </trkpt>
      <trkpt lat="45.82912" lon="4.8312">
        <ele>309</ele>
        <time>2012-11-03T09:09:10Z</time>
      </trkpt>
      <trkpt lat="45.8294" lon="4.83118">
        <ele>309</ele>
        <time>2012-11-03T09:09:17Z</time>
      </trkpt>
      <trkpt lat="45.82948" lon="4.83116">
        <ele>309</ele>
        <time>2012-11-03T09:09:19Z</time>
      </trkpt>
      <trkpt lat="45.82961" lon="4.83113">
        <ele>310</ele>
        <time>2012-11-03T09:09:22Z</time>
      </trkpt>
      <trkpt lat="45.82982" lon="4.83107">
        <ele>310</ele>
        <time>2012-11-03T09:09:27Z</time>
      </trkpt>
      <trkpt lat="45.82986" lon="4.83106">
        <ele>311</ele>
        <time>2012-11-03T09:09:28Z</time>
      </trkpt>
      <trkpt lat="45.83002" lon="4.83097">
        <ele>311</ele>
        <time>2012-11-03T09:09:32Z</time>
      </trkpt>
      <trkpt lat="45.8301" lon="4.83088">
        <ele>311</ele>
        <time>2012-11-03T09:09:36Z</time>
      </trkpt>
      <trkpt lat="45.83018" lon="4.83081">
        <ele>313</ele>
        <time>2012-11-03T09:09:41Z</time>
      </trkpt>
      <trkpt lat="45.83019" lon="4.8308">
        <ele>313</ele>
        <time>2012-11-03T09:09:42Z</time>
      </trkpt>
      <trkpt lat="45.83027" lon="4.83071">
        <ele>312</ele>
        <time>2012-11-03T09:09:48Z</time>
      </trkpt>
      <trkpt lat="45.8303" lon="4.83063">
        <ele>312</ele>
        <time>2012-11-03T09:09:53Z</time>
      </trkpt>
      <trkpt lat="45.83032" lon="4.83048">
        <ele>312</ele>
        <time>2012-11-03T09:10:00Z</time>
      </trkpt>
      <trkpt lat="45.83026" lon="4.83042">
        <ele>313</ele>
        <time>2012-11-03T09:10:04Z</time>
      </trkpt>
      <trkpt lat="45.83015" lon="4.8304">
        <ele>313</ele>
        <time>2012-11-03T09:10:09Z</time>
      </trkpt>
      <trkpt lat="45.83011" lon="4.83038">
        <ele>313</ele>
        <time>2012-11-03T09:10:11Z</time>
      </trkpt>
      <trkpt lat="45.83003" lon="4.83036">
        <ele>314</ele>
        <time>2012-11-03T09:10:16Z</time>
      </trkpt>
      <trkpt lat="45.82991" lon="4.83029">
        <ele>319</ele>
        <time>2012-11-03T09:10:24Z</time>
      </trkpt>
      <trkpt lat="45.8299" lon="4.83027">
        <ele>319</ele>
        <time>2012-11-03T09:10:25Z</time>
      </trkpt>
      <trkpt lat="45.82974" lon="4.83017">
        <ele>320</ele>
        <time>2012-11-03T09:10:35Z</time>
      </trkpt>
      <trkpt lat="45.82966" lon="4.83012">
        <ele>320</ele>
        <time>2012-11-03T09:10:41Z</time>
      </trkpt>
      <trkpt lat="45.82958" lon="4.83006">
        <ele>321</ele>
        <time>2012-11-03T09:10:46Z</time>
      </trkpt>
      <trkpt lat="45.82956" lon="4.83006">
        <ele>321</ele>
        <time>2012-11-03T09:10:47Z</time>
      </trkpt>
      <trkpt lat="45.82954" lon="4.83006">
        <ele>321</ele>
        <time>2012-11-03T09:10:48Z</time>
      </trkpt>
      <trkpt lat="45.82946" lon="4.83003">
        <ele>322</ele>
        <time>2012-11-03T09:10:52Z</time>
      </trkpt>
      <trkpt lat="45.82939" lon="4.83001">
        <ele>323</ele>
        <time>2012-11-03T09:10:57Z</time>
      </trkpt>
      <trkpt lat="45.82936" lon="4.83">
        <ele>327</ele>
        <time>2012-11-03T09:10:59Z</time>
      </trkpt>
      <trkpt lat="45.82935" lon="4.82999">
        <ele>327</ele>
        <time>2012-11-03T09:11:00Z</time>
      </trkpt>
      <trkpt lat="45.82932" lon="4.82993">
        <ele>328</ele>
        <time>2012-11-03T09:11:04Z</time>
      </trkpt>
      <trkpt lat="45.82928" lon="4.82983">
        <ele>328</ele>
        <time>2012-11-03T09:11:09Z</time>
      </trkpt>
      <trkpt lat="45.82927" lon="4.8298">
        <ele>328</ele>
        <time>2012-11-03T09:11:11Z</time>
      </trkpt>
      <trkpt lat="45.82928" lon="4.82963">
        <ele>329</ele>
        <time>2012-11-03T09:11:20Z</time>
      </trkpt>
      <trkpt lat="45.8293" lon="4.82947">
        <ele>330</ele>
        <time>2012-11-03T09:11:27Z</time>
      </trkpt>
      <trkpt lat="45.82935" lon="4.82934">
        <ele>331</ele>
        <time>2012-11-03T09:11:33Z</time>
      </trkpt>
      <trkpt lat="45.82937" lon="4.82916">
        <ele>338</ele>
        <time>2012-11-03T09:11:40Z</time>
      </trkpt>
      <trkpt lat="45.8294" lon="4.82899">
        <ele>339</ele>
        <time>2012-11-03T09:11:48Z</time>
      </trkpt>
      <trkpt lat="45.82942" lon="4.82882">
        <ele>341</ele>
        <time>2012-11-03T09:11:55Z</time>
      </trkpt>
      <trkpt lat="45.82942" lon="4.82879">
        <ele>341</ele>
        <time>2012-11-03T09:11:56Z</time>
      </trkpt>
      <trkpt lat="45.82945" lon="4.82865">
        <ele>343</ele>
        <time>2012-11-03T09:12:02Z</time>
      </trkpt>
      <trkpt lat="45.8295" lon="4.82851">
        <ele>344</ele>
        <time>2012-11-03T09:12:08Z</time>
      </trkpt>
      <trkpt lat="45.82955" lon="4.82841">
        <ele>344</ele>
        <time>2012-11-03T09:12:14Z</time>
      </trkpt>
      <trkpt lat="45.82955" lon="4.82836">
        <ele>344</ele>
        <time>2012-11-03T09:12:19Z</time>
      </trkpt>
      <trkpt lat="45.82954" lon="4.82836">
        <ele>344</ele>
        <time>2012-11-03T09:12:20Z</time>
      </trkpt>
      <trkpt lat="45.82949" lon="4.8284">
        <ele>345</ele>
        <time>2012-11-03T09:12:25Z</time>
      </trkpt>
      <trkpt lat="45.82947" lon="4.8284">
        <ele>345</ele>
        <time>2012-11-03T09:12:26Z</time>
      </trkpt>
      <trkpt lat="45.82936" lon="4.82846">
        <ele>348</ele>
        <time>2012-11-03T09:12:33Z</time>
      </trkpt>
      <trkpt lat="45.82927" lon="4.82852">
        <ele>348</ele>
        <time>2012-11-03T09:12:39Z</time>
      </trkpt>
      <trkpt lat="45.82919" lon="4.82855">
        <ele>348</ele>
        <time>2012-11-03T09:12:42Z</time>
      </trkpt>
      <trkpt lat="45.82916" lon="4.82857">
        <ele>356</ele>
        <time>2012-11-03T09:12:44Z</time>
      </trkpt>
      <trkpt lat="45.82902" lon="4.82865">
        <ele>355</ele>
        <time>2012-11-03T09:12:50Z</time>
      </trkpt>
      <trkpt lat="45.82887" lon="4.82873">
        <ele>354</ele>
        <time>2012-11-03T09:12:56Z</time>
      </trkpt>
      <trkpt lat="45.82884" lon="4.82874">
        <ele>354</ele>
        <time>2012-11-03T09:12:57Z</time>
      </trkpt>
      <trkpt lat="45.82871" lon="4.82874">
        <ele>355</ele>
        <time>2012-11-03T09:13:01Z</time>
      </trkpt>
      <trkpt lat="45.82858" lon="4.82877">
        <ele>356</ele>
        <time>2012-11-03T09:13:07Z</time>
      </trkpt>
      <trkpt lat="45.82847" lon="4.82878">
        <ele>356</ele>
        <time>2012-11-03T09:13:13Z</time>
      </trkpt>
      <trkpt lat="45.82836" lon="4.8288">
        <ele>356</ele>
        <time>2012-11-03T09:13:18Z</time>
      </trkpt>
      <trkpt lat="45.8283" lon="4.82884">
        <ele>358</ele>
        <time>2012-11-03T09:13:21Z</time>
      </trkpt>
      <trkpt lat="45.82824" lon="4.82884">
        <ele>358</ele>
        <time>2012-11-03T09:13:23Z</time>
      </trkpt>
      <trkpt lat="45.8281" lon="4.82883">
        <ele>359</ele>
        <time>2012-11-03T09:13:28Z</time>
      </trkpt>
      <trkpt lat="45.82804" lon="4.82882">
        <ele>359</ele>
        <time>2012-11-03T09:13:30Z</time>
      </trkpt>
      <trkpt lat="45.82792" lon="4.82879">
        <ele>359</ele>
        <time>2012-11-03T09:13:34Z</time>
      </trkpt>
      <trkpt lat="45.8279" lon="4.82881">
        <ele>359</ele>
        <time>2012-11-03T09:13:35Z</time>
      </trkpt>
      <trkpt lat="45.82779" lon="4.82881">
        <ele>358</ele>
        <time>2012-11-03T09:13:39Z</time>
      </trkpt>
      <trkpt lat="45.82776" lon="4.82881">
        <ele>358</ele>
        <time>2012-11-03T09:13:40Z</time>
      </trkpt>
      <trkpt lat="45.82773" lon="4.8288">
        <ele>359</ele>
        <time>2012-11-03T09:13:41Z</time>
      </trkpt>
      <trkpt lat="45.82746" lon="4.82874">
        <ele>354</ele>
        <time>2012-11-03T09:13:49Z</time>
      </trkpt>
      <trkpt lat="45.82735" lon="4.82872">
        <ele>354</ele>
        <time>2012-11-03T09:13:52Z</time>
      </trkpt>
      <trkpt lat="45.82723" lon="4.82868">
        <ele>353</ele>
        <time>2012-11-03T09:13:56Z</time>
      </trkpt>
      <trkpt lat="45.82706" lon="4.82851">
        <ele>353</ele>
        <time>2012-11-03T09:14:02Z</time>
      </trkpt>
      <trkpt lat="45.82703" lon="4.82848">
        <ele>353</ele>
        <time>2012-11-03T09:14:03Z</time>
      </trkpt>
      <trkpt lat="45.8269" lon="4.82828">
        <ele>361</ele>
        <time>2012-11-03T09:14:08Z</time>
      </trkpt>
      <trkpt lat="45.82678" lon="4.82808">
        <ele>362</ele>
        <time>2012-11-03T09:14:14Z</time>
      </trkpt>
      <trkpt lat="45.82674" lon="4.828">
        <ele>363</ele>
        <time>2012-11-03T09:14:16Z</time>
      </trkpt>
      <trkpt lat="45.82656" lon="4.82771">
        <ele>355</ele>
        <time>2012-11-03T09:14:23Z</time>
      </trkpt>
      <trkpt lat="45.82653" lon="4.82766">
        <ele>355</ele>
        <time>2012-11-03T09:14:24Z</time>
      </trkpt>
      <trkpt lat="45.82637" lon="4.82746">
        <ele>363</ele>
        <time>2012-11-03T09:14:28Z</time>
      </trkpt>
      <trkpt lat="45.82629" lon="4.82737">
        <ele>362</ele>
        <time>2012-11-03T09:14:30Z</time>
      </trkpt>
      <trkpt lat="45.82624" lon="4.82733">
        <ele>362</ele>
        <time>2012-11-03T09:14:31Z</time>
      </trkpt>
      <trkpt lat="45.82619" lon="4.8273">
        <ele>362</ele>
        <time>2012-11-03T09:14:32Z</time>
      </trkpt>
      <trkpt lat="45.82603" lon="4.82721">
        <ele>361</ele>
        <time>2012-11-03T09:14:35Z</time>
      </trkpt>
      <trkpt lat="45.82597" lon="4.8272">
        <ele>360</ele>
        <time>2012-11-03T09:14:36Z</time>
      </trkpt>
      <trkpt lat="45.8259" lon="4.82719">
        <ele>360</ele>
        <time>2012-11-03T09:14:37Z</time>
      </trkpt>
      <trkpt lat="45.82564" lon="4.82713">
        <ele>354</ele>
        <time>2012-11-03T09:14:41Z</time>
      </trkpt>
      <trkpt lat="45.82553" lon="4.82708">
        <ele>355</ele>
        <time>2012-11-03T09:14:43Z</time>
      </trkpt>
      <trkpt lat="45.82542" lon="4.82704">
        <ele>355</ele>
        <time>2012-11-03T09:14:45Z</time>
      </trkpt>
      <trkpt lat="45.82533" lon="4.82702">
        <ele>355</ele>
        <time>2012-11-03T09:14:47Z</time>
      </trkpt>
      <trkpt lat="45.82527" lon="4.82703">
        <ele>355</ele>
        <time>2012-11-03T09:14:48Z</time>
      </trkpt>
      <trkpt lat="45.82515" lon="4.82708">
        <ele>354</ele>
        <time>2012-11-03T09:14:50Z</time>
      </trkpt>
      <trkpt lat="45.82503" lon="4.8271">
        <ele>354</ele>
        <time>2012-11-03T09:14:52Z</time>
      </trkpt>
      <trkpt lat="45.82492" lon="4.82708">
        <ele>351</ele>
        <time>2012-11-03T09:14:54Z</time>
      </trkpt>
      <trkpt lat="45.82479" lon="4.82705">
        <ele>351</ele>
        <time>2012-11-03T09:14:57Z</time>
      </trkpt>
      <trkpt lat="45.82446" lon="4.82702">
        <ele>350</ele>
        <time>2012-11-03T09:15:04Z</time>
      </trkpt>
      <trkpt lat="45.82442" lon="4.82701">
        <ele>350</ele>
        <time>2012-11-03T09:15:05Z</time>
      </trkpt>
      <trkpt lat="45.82437" lon="4.82701">
        <ele>350</ele>
        <time>2012-11-03T09:15:06Z</time>
      </trkpt>
      <trkpt lat="45.82423" lon="4.82696">
        <ele>350</ele>
        <time>2012-11-03T09:15:09Z</time>
      </trkpt>
      <trkpt lat="45.82403" lon="4.82692">
        <ele>348</ele>
        <time>2012-11-03T09:15:14Z</time>
      </trkpt>
      <trkpt lat="45.82392" lon="4.82691">
        <ele>347</ele>
        <time>2012-11-03T09:15:16Z</time>
      </trkpt>
      <trkpt lat="45.82377" lon="4.8269">
        <ele>347</ele>
        <time>2012-11-03T09:15:19Z</time>
      </trkpt>
      <trkpt lat="45.82366" lon="4.82692">
        <ele>347</ele>
        <time>2012-11-03T09:15:21Z</time>
      </trkpt>
      <trkpt lat="45.82361" lon="4.82692">
        <ele>346</ele>
        <time>2012-11-03T09:15:22Z</time>
      </trkpt>
      <trkpt lat="45.82345" lon="4.82694">
        <ele>346</ele>
        <time>2012-11-03T09:15:25Z</time>
      </trkpt>
      <trkpt lat="45.82334" lon="4.82695">
        <ele>346</ele>
        <time>2012-11-03T09:15:27Z</time>
      </trkpt>
      <trkpt lat="45.82328" lon="4.82696">
        <ele>344</ele>
        <time>2012-11-03T09:15:28Z</time>
      </trkpt>
      <trkpt lat="45.82323" lon="4.82699">
        <ele>344</ele>
        <time>2012-11-03T09:15:29Z</time>
      </trkpt>
      <trkpt lat="45.82319" lon="4.82702">
        <ele>343</ele>
        <time>2012-11-03T09:15:30Z</time>
      </trkpt>
      <trkpt lat="45.82307" lon="4.82715">
        <ele>342</ele>
        <time>2012-11-03T09:15:33Z</time>
      </trkpt>
      <trkpt lat="45.82301" lon="4.82736">
        <ele>341</ele>
        <time>2012-11-03T09:15:36Z</time>
      </trkpt>
      <trkpt lat="45.823" lon="4.82743">
        <ele>340</ele>
        <time>2012-11-03T09:15:37Z</time>
      </trkpt>
      <trkpt lat="45.82292" lon="4.82752">
        <ele>332</ele>
        <time>2012-11-03T09:15:40Z</time>
      </trkpt>
      <trkpt lat="45.82282" lon="4.82755">
        <ele>332</ele>
        <time>2012-11-03T09:15:42Z</time>
      </trkpt>
      <trkpt lat="45.82276" lon="4.82755">
        <ele>332</ele>
        <time>2012-11-03T09:15:43Z</time>
      </trkpt>
      <trkpt lat="45.8227" lon="4.82757">
        <ele>332</ele>
        <time>2012-11-03T09:15:44Z</time>
      </trkpt>
      <trkpt lat="45.82249" lon="4.82762">
        <ele>332</ele>
        <time>2012-11-03T09:15:47Z</time>
      </trkpt>
      <trkpt lat="45.82234" lon="4.82771">
        <ele>330</ele>
        <time>2012-11-03T09:15:49Z</time>
      </trkpt>
      <trkpt lat="45.8222" lon="4.82784">
        <ele>329</ele>
        <time>2012-11-03T09:15:53Z</time>
      </trkpt>
      <trkpt lat="45.82211" lon="4.82785">
        <ele>329</ele>
        <time>2012-11-03T09:15:56Z</time>
      </trkpt>
      <trkpt lat="45.82206" lon="4.82784">
        <ele>329</ele>
        <time>2012-11-03T09:15:58Z</time>
      </trkpt>
      <trkpt lat="45.82201" lon="4.82778">
        <ele>329</ele>
        <time>2012-11-03T09:16:01Z</time>
      </trkpt>
      <trkpt lat="45.82197" lon="4.82773">
        <ele>329</ele>
        <time>2012-11-03T09:16:03Z</time>
      </trkpt>
      <trkpt lat="45.82188" lon="4.82761">
        <ele>330</ele>
        <time>2012-11-03T09:16:09Z</time>
      </trkpt>
      <trkpt lat="45.82174" lon="4.82744">
        <ele>337</ele>
        <time>2012-11-03T09:16:18Z</time>
      </trkpt>
      <trkpt lat="45.82172" lon="4.82743">
        <ele>337</ele>
        <time>2012-11-03T09:16:19Z</time>
      </trkpt>
      <trkpt lat="45.82159" lon="4.82734">
        <ele>337</ele>
        <time>2012-11-03T09:16:26Z</time>
      </trkpt>
      <trkpt lat="45.82142" lon="4.82727">
        <ele>337</ele>
        <time>2012-11-03T09:16:33Z</time>
      </trkpt>
      <trkpt lat="45.82138" lon="4.82724">
        <ele>337</ele>
        <time>2012-11-03T09:16:35Z</time>
      </trkpt>
      <trkpt lat="45.82127" lon="4.82716">
        <ele>338</ele>
        <time>2012-11-03T09:16:41Z</time>
      </trkpt>
      <trkpt lat="45.82111" lon="4.82704">
        <ele>338</ele>
        <time>2012-11-03T09:16:49Z</time>
      </trkpt>
      <trkpt lat="45.82105" lon="4.82701">
        <ele>338</ele>
        <time>2012-11-03T09:16:51Z</time>
      </trkpt>
      <trkpt lat="45.82093" lon="4.82695">
        <ele>339</ele>
        <time>2012-11-03T09:16:55Z</time>
      </trkpt>
      <trkpt lat="45.82075" lon="4.82682">
        <ele>336</ele>
        <time>2012-11-03T09:17:01Z</time>
      </trkpt>
      <trkpt lat="45.82072" lon="4.8268">
        <ele>336</ele>
        <time>2012-11-03T09:17:02Z</time>
      </trkpt>
      <trkpt lat="45.82056" lon="4.82668">
        <ele>334</ele>
        <time>2012-11-03T09:17:07Z</time>
      </trkpt>
      <trkpt lat="45.82039" lon="4.82652">
        <ele>343</ele>
        <time>2012-11-03T09:17:13Z</time>
      </trkpt>
      <trkpt lat="45.82036" lon="4.8265">
        <ele>343</ele>
        <time>2012-11-03T09:17:14Z</time>
      </trkpt>
      <trkpt lat="45.82024" lon="4.82637">
        <ele>343</ele>
        <time>2012-11-03T09:17:19Z</time>
      </trkpt>
      <trkpt lat="45.82016" lon="4.82629">
        <ele>343</ele>
        <time>2012-11-03T09:17:24Z</time>
      </trkpt>
      <trkpt lat="45.8201" lon="4.82622">
        <ele>344</ele>
        <time>2012-11-03T09:17:28Z</time>
      </trkpt>
      <trkpt lat="45.82008" lon="4.8262">
        <ele>344</ele>
        <time>2012-11-03T09:17:30Z</time>
      </trkpt>
      <trkpt lat="45.82003" lon="4.82617">
        <ele>344</ele>
        <time>2012-11-03T09:17:42Z</time>
      </trkpt>
      <trkpt lat="45.82004" lon="4.82615">
        <ele>344</ele>
        <time>2012-11-03T09:17:57Z</time>
      </trkpt>
      <trkpt lat="45.82002" lon="4.82612">
        <ele>345</ele>
        <time>2012-11-03T09:19:00Z</time>
      </trkpt>
      <trkpt lat="45.81997" lon="4.82609">
        <ele>337</ele>
        <time>2012-11-03T09:19:03Z</time>
      </trkpt>
      <trkpt lat="45.81994" lon="4.82606">
        <ele>337</ele>
        <time>2012-11-03T09:19:05Z</time>
      </trkpt>
      <trkpt lat="45.81987" lon="4.82601">
        <ele>338</ele>
        <time>2012-11-03T09:19:08Z</time>
      </trkpt>
      <trkpt lat="45.8198" lon="4.82597">
        <ele>337</ele>
        <time>2012-11-03T09:19:10Z</time>
      </trkpt>
      <trkpt lat="45.81969" lon="4.8259">
        <ele>336</ele>
        <time>2012-11-03T09:19:13Z</time>
      </trkpt>
      <trkpt lat="45.81959" lon="4.82581">
        <ele>344</ele>
        <time>2012-11-03T09:19:17Z</time>
      </trkpt>
      <trkpt lat="45.8195" lon="4.8257">
        <ele>343</ele>
        <time>2012-11-03T09:19:22Z</time>
      </trkpt>
      <trkpt lat="45.8195" lon="4.82568">
        <ele>343</ele>
        <time>2012-11-03T09:19:23Z</time>
      </trkpt>
      <trkpt lat="45.81954" lon="4.82562">
        <ele>344</ele>
        <time>2012-11-03T09:19:26Z</time>
      </trkpt>
      <trkpt lat="45.8196" lon="4.82555">
        <ele>345</ele>
        <time>2012-11-03T09:19:29Z</time>
      </trkpt>
      <trkpt lat="45.81965" lon="4.8255">
        <ele>345</ele>
        <time>2012-11-03T09:19:32Z</time>
      </trkpt>
      <trkpt lat="45.81973" lon="4.82537">
        <ele>347</ele>
        <time>2012-11-03T09:19:39Z</time>
      </trkpt>
      <trkpt lat="45.81975" lon="4.82536">
        <ele>347</ele>
        <time>2012-11-03T09:19:40Z</time>
      </trkpt>
      <trkpt lat="45.81978" lon="4.82534">
        <ele>347</ele>
        <time>2012-11-03T09:19:42Z</time>
      </trkpt>
      <trkpt lat="45.8198" lon="4.82531">
        <ele>348</ele>
        <time>2012-11-03T09:19:44Z</time>
      </trkpt>
      <trkpt lat="45.81988" lon="4.82521">
        <ele>350</ele>
        <time>2012-11-03T09:19:51Z</time>
      </trkpt>
      <trkpt lat="45.81996" lon="4.8251">
        <ele>352</ele>
        <time>2012-11-03T09:19:58Z</time>
      </trkpt>
      <trkpt lat="45.82004" lon="4.82499">
        <ele>357</ele>
        <time>2012-11-03T09:20:05Z</time>
      </trkpt>
      <trkpt lat="45.82005" lon="4.82498">
        <ele>358</ele>
        <time>2012-11-03T09:20:06Z</time>
      </trkpt>
      <trkpt lat="45.82008" lon="4.82495">
        <ele>359</ele>
        <time>2012-11-03T09:20:08Z</time>
      </trkpt>
      <trkpt lat="45.82005" lon="4.8249">
        <ele>359</ele>
        <time>2012-11-03T09:20:11Z</time>
      </trkpt>
      <trkpt lat="45.81996" lon="4.8248">
        <ele>355</ele>
        <time>2012-11-03T09:20:16Z</time>
      </trkpt>
      <trkpt lat="45.81994" lon="4.82477">
        <ele>355</ele>
        <time>2012-11-03T09:20:17Z</time>
      </trkpt>
      <trkpt lat="45.81983" lon="4.82465">
        <ele>354</ele>
        <time>2012-11-03T09:20:21Z</time>
      </trkpt>
      <trkpt lat="45.81975" lon="4.82455">
        <ele>354</ele>
        <time>2012-11-03T09:20:24Z</time>
      </trkpt>
      <trkpt lat="45.81955" lon="4.82431">
        <ele>353</ele>
        <time>2012-11-03T09:20:31Z</time>
      </trkpt>
      <trkpt lat="45.81953" lon="4.82428">
        <ele>353</ele>
        <time>2012-11-03T09:20:32Z</time>
      </trkpt>
      <trkpt lat="45.81946" lon="4.82411">
        <ele>356</ele>
        <time>2012-11-03T09:20:38Z</time>
      </trkpt>
      <trkpt lat="45.8194" lon="4.82396">
        <ele>356</ele>
        <time>2012-11-03T09:20:43Z</time>
      </trkpt>
      <trkpt lat="45.81937" lon="4.82385">
        <ele>356</ele>
        <time>2012-11-03T09:20:47Z</time>
      </trkpt>
      <trkpt lat="45.81936" lon="4.82378">
        <ele>357</ele>
        <time>2012-11-03T09:20:49Z</time>
      </trkpt>
      <trkpt lat="45.81937" lon="4.82373">
        <ele>357</ele>
        <time>2012-11-03T09:20:51Z</time>
      </trkpt>
      <trkpt lat="45.8194" lon="4.82368">
        <ele>357</ele>
        <time>2012-11-03T09:20:54Z</time>
      </trkpt>
      <trkpt lat="45.81946" lon="4.82359">
        <ele>358</ele>
        <time>2012-11-03T09:20:59Z</time>
      </trkpt>
      <trkpt lat="45.81946" lon="4.82357">
        <ele>358</ele>
        <time>2012-11-03T09:21:00Z</time>
      </trkpt>
      <trkpt lat="45.81956" lon="4.82344">
        <ele>359</ele>
        <time>2012-11-03T09:21:09Z</time>
      </trkpt>
      <trkpt lat="45.81964" lon="4.82335">
        <ele>361</ele>
        <time>2012-11-03T09:21:15Z</time>
      </trkpt>
      <trkpt lat="45.81972" lon="4.82326">
        <ele>366</ele>
        <time>2012-11-03T09:21:21Z</time>
      </trkpt>
      <trkpt lat="45.81982" lon="4.8232">
        <ele>367</ele>
        <time>2012-11-03T09:21:27Z</time>
      </trkpt>
      <trkpt lat="45.81983" lon="4.82321">
        <ele>367</ele>
        <time>2012-11-03T09:21:28Z</time>
      </trkpt>
      <trkpt lat="45.81987" lon="4.82323">
        <ele>367</ele>
        <time>2012-11-03T09:21:32Z</time>
      </trkpt>
      <trkpt lat="45.8199" lon="4.82325">
        <ele>367</ele>
        <time>2012-11-03T09:21:34Z</time>
      </trkpt>
      <trkpt lat="45.81992" lon="4.82326">
        <ele>368</ele>
        <time>2012-11-03T09:21:36Z</time>
      </trkpt>
      <trkpt lat="45.81995" lon="4.82329">
        <ele>368</ele>
        <time>2012-11-03T09:21:39Z</time>
      </trkpt>
      <trkpt lat="45.82004" lon="4.82335">
        <ele>370</ele>
        <time>2012-11-03T09:21:46Z</time>
      </trkpt>
      <trkpt lat="45.82017" lon="4.82342">
        <ele>371</ele>
        <time>2012-11-03T09:21:54Z</time>
      </trkpt>
      <trkpt lat="45.8202" lon="4.82345">
        <ele>371</ele>
        <time>2012-11-03T09:21:56Z</time>
      </trkpt>
      <trkpt lat="45.82029" lon="4.82354">
        <ele>372</ele>
        <time>2012-11-03T09:22:02Z</time>
      </trkpt>
      <trkpt lat="45.82038" lon="4.82365">
        <ele>372</ele>
        <time>2012-11-03T09:22:10Z</time>
      </trkpt>
      <trkpt lat="45.82048" lon="4.82376">
        <ele>373</ele>
        <time>2012-11-03T09:22:18Z</time>
      </trkpt>
      <trkpt lat="45.8205" lon="4.82377">
        <ele>373</ele>
        <time>2012-11-03T09:22:19Z</time>
      </trkpt>
      <trkpt lat="45.82061" lon="4.82388">
        <ele>373</ele>
        <time>2012-11-03T09:22:27Z</time>
      </trkpt>
      <trkpt lat="45.82064" lon="4.82391">
        <ele>373</ele>
        <time>2012-11-03T09:22:29Z</time>
      </trkpt>
      <trkpt lat="45.82068" lon="4.82389">
        <ele>374</ele>
        <time>2012-11-03T09:22:32Z</time>
      </trkpt>
      <trkpt lat="45.82068" lon="4.82383">
        <ele>374</ele>
        <time>2012-11-03T09:22:35Z</time>
      </trkpt>
      <trkpt lat="45.82068" lon="4.82379">
        <ele>374</ele>
        <time>2012-11-03T09:22:37Z</time>
      </trkpt>
      <trkpt lat="45.82064" lon="4.82372">
        <ele>374</ele>
        <time>2012-11-03T09:22:42Z</time>
      </trkpt>
      <trkpt lat="45.82063" lon="4.8237">
        <ele>374</ele>
        <time>2012-11-03T09:22:43Z</time>
      </trkpt>
      <trkpt lat="45.82059" lon="4.82356">
        <ele>375</ele>
        <time>2012-11-03T09:22:49Z</time>
      </trkpt>
      <trkpt lat="45.82053" lon="4.8234">
        <ele>375</ele>
        <time>2012-11-03T09:22:57Z</time>
      </trkpt>
      <trkpt lat="45.82048" lon="4.82322">
        <ele>380</ele>
        <time>2012-11-03T09:23:05Z</time>
      </trkpt>
      <trkpt lat="45.82048" lon="4.82319">
        <ele>380</ele>
        <time>2012-11-03T09:23:06Z</time>
      </trkpt>
      <trkpt lat="45.82044" lon="4.82302">
        <ele>380</ele>
        <time>2012-11-03T09:23:13Z</time>
      </trkpt>
      <trkpt lat="45.82039" lon="4.82284">
        <ele>381</ele>
        <time>2012-11-03T09:23:21Z</time>
      </trkpt>
      <trkpt lat="45.82039" lon="4.82272">
        <ele>381</ele>
        <time>2012-11-03T09:23:27Z</time>
      </trkpt>
      <trkpt lat="45.82039" lon="4.82268">
        <ele>382</ele>
        <time>2012-11-03T09:23:29Z</time>
      </trkpt>
      <trkpt lat="45.82037" lon="4.82254">
        <ele>382</ele>
        <time>2012-11-03T09:23:35Z</time>
      </trkpt>
      <trkpt lat="45.82037" lon="4.82238">
        <ele>389</ele>
        <time>2012-11-03T09:23:42Z</time>
      </trkpt>
      <trkpt lat="45.82036" lon="4.8222">
        <ele>390</ele>
        <time>2012-11-03T09:23:50Z</time>
      </trkpt>
      <trkpt lat="45.82037" lon="4.82205">
        <ele>392</ele>
        <time>2012-11-03T09:23:57Z</time>
      </trkpt>
      <trkpt lat="45.82038" lon="4.82202">
        <ele>392</ele>
        <time>2012-11-03T09:23:59Z</time>
      </trkpt>
      <trkpt lat="45.82037" lon="4.82192">
        <ele>393</ele>
        <time>2012-11-03T09:24:03Z</time>
      </trkpt>
      <trkpt lat="45.82036" lon="4.82177">
        <ele>393</ele>
        <time>2012-11-03T09:24:10Z</time>
      </trkpt>
      <trkpt lat="45.82034" lon="4.82168">
        <ele>393</ele>
        <time>2012-11-03T09:24:15Z</time>
      </trkpt>
      <trkpt lat="45.82034" lon="4.82165">
        <ele>400</ele>
        <time>2012-11-03T09:24:17Z</time>
      </trkpt>
      <trkpt lat="45.82032" lon="4.82161">
        <ele>400</ele>
        <time>2012-11-03T09:24:19Z</time>
      </trkpt>
      <trkpt lat="45.82032" lon="4.82153">
        <ele>400</ele>
        <time>2012-11-03T09:24:23Z</time>
      </trkpt>
      <trkpt lat="45.82032" lon="4.82151">
        <ele>400</ele>
        <time>2012-11-03T09:24:24Z</time>
      </trkpt>
      <trkpt lat="45.82032" lon="4.82143">
        <ele>401</ele>
        <time>2012-11-03T09:24:29Z</time>
      </trkpt>
      <trkpt lat="45.82032" lon="4.82132">
        <ele>402</ele>
        <time>2012-11-03T09:24:35Z</time>
      </trkpt>
      <trkpt lat="45.82032" lon="4.8212">
        <ele>403</ele>
        <time>2012-11-03T09:24:41Z</time>
      </trkpt>
      <trkpt lat="45.82033" lon="4.82116">
        <ele>403</ele>
        <time>2012-11-03T09:24:43Z</time>
      </trkpt>
      <trkpt lat="45.82033" lon="4.82112">
        <ele>403</ele>
        <time>2012-11-03T09:24:45Z</time>
      </trkpt>
      <trkpt lat="45.82032" lon="4.82108">
        <ele>403</ele>
        <time>2012-11-03T09:24:48Z</time>
      </trkpt>
      <trkpt lat="45.82036" lon="4.82094">
        <ele>404</ele>
        <time>2012-11-03T09:24:56Z</time>
      </trkpt>
      <trkpt lat="45.82035" lon="4.82087">
        <ele>404</ele>
        <time>2012-11-03T09:25:00Z</time>
      </trkpt>
      <trkpt lat="45.82038" lon="4.8208">
        <ele>408</ele>
        <time>2012-11-03T09:25:04Z</time>
      </trkpt>
      <trkpt lat="45.82038" lon="4.82074">
        <ele>408</ele>
        <time>2012-11-03T09:25:07Z</time>
      </trkpt>
      <trkpt lat="45.82038" lon="4.82065">
        <ele>408</ele>
        <time>2012-11-03T09:25:12Z</time>
      </trkpt>
      <trkpt lat="45.82041" lon="4.82054">
        <ele>409</ele>
        <time>2012-11-03T09:25:19Z</time>
      </trkpt>
      <trkpt lat="45.82044" lon="4.82038">
        <ele>409</ele>
        <time>2012-11-03T09:25:28Z</time>
      </trkpt>
      <trkpt lat="45.82052" lon="4.8202">
        <ele>411</ele>
        <time>2012-11-03T09:25:39Z</time>
      </trkpt>
      <trkpt lat="45.82053" lon="4.82017">
        <ele>411</ele>
        <time>2012-11-03T09:25:41Z</time>
      </trkpt>
      <trkpt lat="45.82055" lon="4.82009">
        <ele>412</ele>
        <time>2012-11-03T09:25:46Z</time>
      </trkpt>
      <trkpt lat="45.82058" lon="4.81998">
        <ele>411</ele>
        <time>2012-11-03T09:25:53Z</time>
      </trkpt>
      <trkpt lat="45.82059" lon="4.81995">
        <ele>411</ele>
        <time>2012-11-03T09:25:55Z</time>
      </trkpt>
      <trkpt lat="45.82058" lon="4.81989">
        <ele>411</ele>
        <time>2012-11-03T09:25:59Z</time>
      </trkpt>
      <trkpt lat="45.82062" lon="4.8198">
        <ele>411</ele>
        <time>2012-11-03T09:26:04Z</time>
      </trkpt>
      <trkpt lat="45.82069" lon="4.81973">
        <ele>411</ele>
        <time>2012-11-03T09:26:11Z</time>
      </trkpt>
      <trkpt lat="45.82074" lon="4.81968">
        <ele>411</ele>
        <time>2012-11-03T09:26:17Z</time>
      </trkpt>
      <trkpt lat="45.8208" lon="4.81965">
        <ele>411</ele>
        <time>2012-11-03T09:26:22Z</time>
      </trkpt>
      <trkpt lat="45.8209" lon="4.81962">
        <ele>429</ele>
        <time>2012-11-03T09:26:29Z</time>
      </trkpt>
      <trkpt lat="45.821" lon="4.8196">
        <ele>430</ele>
        <time>2012-11-03T09:26:36Z</time>
      </trkpt>
      <trkpt lat="45.82103" lon="4.81956">
        <ele>430</ele>
        <time>2012-11-03T09:26:39Z</time>
      </trkpt>
      <trkpt lat="45.82106" lon="4.81952">
        <ele>430</ele>
        <time>2012-11-03T09:26:43Z</time>
      </trkpt>
      <trkpt lat="45.82116" lon="4.81951">
        <ele>431</ele>
        <time>2012-11-03T09:26:51Z</time>
      </trkpt>
      <trkpt lat="45.8212" lon="4.8195">
        <ele>432</ele>
        <time>2012-11-03T09:26:54Z</time>
      </trkpt>
      <trkpt lat="45.82121" lon="4.8195">
        <ele>432</ele>
        <time>2012-11-03T09:26:55Z</time>
      </trkpt>
      <trkpt lat="45.82129" lon="4.81944">
        <ele>433</ele>
        <time>2012-11-03T09:27:02Z</time>
      </trkpt>
      <trkpt lat="45.82136" lon="4.81938">
        <ele>434</ele>
        <time>2012-11-03T09:27:08Z</time>
      </trkpt>
      <trkpt lat="45.82139" lon="4.81927">
        <ele>434</ele>
        <time>2012-11-03T09:27:15Z</time>
      </trkpt>
      <trkpt lat="45.82142" lon="4.81924">
        <ele>435</ele>
        <time>2012-11-03T09:27:20Z</time>
      </trkpt>
      <trkpt lat="45.82143" lon="4.81924">
        <ele>435</ele>
        <time>2012-11-03T09:27:21Z</time>
      </trkpt>
      <trkpt lat="45.82144" lon="4.81929">
        <ele>435</ele>
        <time>2012-11-03T09:27:27Z</time>
      </trkpt>
      <trkpt lat="45.82141" lon="4.81938">
        <ele>435</ele>
        <time>2012-11-03T09:27:34Z</time>
      </trkpt>
      <trkpt lat="45.82136" lon="4.81947">
        <ele>434</ele>
        <time>2012-11-03T09:27:42Z</time>
      </trkpt>
      <trkpt lat="45.82135" lon="4.81956">
        <ele>435</ele>
        <time>2012-11-03T09:27:48Z</time>
      </trkpt>
      <trkpt lat="45.82134" lon="4.81958">
        <ele>435</ele>
        <time>2012-11-03T09:27:49Z</time>
      </trkpt>
      <trkpt lat="45.82131" lon="4.81966">
        <ele>435</ele>
        <time>2012-11-03T09:27:55Z</time>
      </trkpt>
      <trkpt lat="45.82131" lon="4.81977">
        <ele>436</ele>
        <time>2012-11-03T09:28:02Z</time>
      </trkpt>
      <trkpt lat="45.82129" lon="4.81992">
        <ele>436</ele>
        <time>2012-11-03T09:28:10Z</time>
      </trkpt>
      <trkpt lat="45.82129" lon="4.82006">
        <ele>439</ele>
        <time>2012-11-03T09:28:19Z</time>
      </trkpt>
      <trkpt lat="45.82129" lon="4.82007">
        <ele>439</ele>
        <time>2012-11-03T09:28:20Z</time>
      </trkpt>
      <trkpt lat="45.8213" lon="4.82024">
        <ele>439</ele>
        <time>2012-11-03T09:28:30Z</time>
      </trkpt>
      <trkpt lat="45.82133" lon="4.82042">
        <ele>439</ele>
        <time>2012-11-03T09:28:39Z</time>
      </trkpt>
      <trkpt lat="45.8214" lon="4.82046">
        <ele>440</ele>
        <time>2012-11-03T09:28:44Z</time>
      </trkpt>
      <trkpt lat="45.82143" lon="4.82043">
        <ele>441</ele>
        <time>2012-11-03T09:28:46Z</time>
      </trkpt>
      <trkpt lat="45.82143" lon="4.82037">
        <ele>441</ele>
        <time>2012-11-03T09:28:49Z</time>
      </trkpt>
      <trkpt lat="45.82144" lon="4.8202">
        <ele>442</ele>
        <time>2012-11-03T09:28:58Z</time>
      </trkpt>
      <trkpt lat="45.82145" lon="4.82009">
        <ele>443</ele>
        <time>2012-11-03T09:29:04Z</time>
      </trkpt>
      <trkpt lat="45.82148" lon="4.81994">
        <ele>442</ele>
        <time>2012-11-03T09:29:12Z</time>
      </trkpt>
      <trkpt lat="45.82149" lon="4.81992">
        <ele>442</ele>
        <time>2012-11-03T09:29:13Z</time>
      </trkpt>
      <trkpt lat="45.8215" lon="4.81986">
        <ele>441</ele>
        <time>2012-11-03T09:29:17Z</time>
      </trkpt>
      <trkpt lat="45.82149" lon="4.81976">
        <ele>439</ele>
        <time>2012-11-03T09:29:24Z</time>
      </trkpt>
      <trkpt lat="45.8215" lon="4.81975">
        <ele>439</ele>
        <time>2012-11-03T09:29:25Z</time>
      </trkpt>
      <trkpt lat="45.82154" lon="4.8197">
        <ele>439</ele>
        <time>2012-11-03T09:29:30Z</time>
      </trkpt>
      <trkpt lat="45.82156" lon="4.81968">
        <ele>439</ele>
        <time>2012-11-03T09:29:32Z</time>
      </trkpt>
      <trkpt lat="45.82161" lon="4.81964">
        <ele>439</ele>
        <time>2012-11-03T09:29:37Z</time>
      </trkpt>
      <trkpt lat="45.82162" lon="4.81964">
        <ele>439</ele>
        <time>2012-11-03T09:29:38Z</time>
      </trkpt>
      <trkpt lat="45.82169" lon="4.81968">
        <ele>453</ele>
        <time>2012-11-03T09:29:45Z</time>
      </trkpt>
      <trkpt lat="45.82171" lon="4.81969">
        <ele>453</ele>
        <time>2012-11-03T09:29:50Z</time>
      </trkpt>
      <trkpt lat="45.82172" lon="4.81973">
        <ele>453</ele>
        <time>2012-11-03T09:29:53Z</time>
      </trkpt>
      <trkpt lat="45.82173" lon="4.81974">
        <ele>453</ele>
        <time>2012-11-03T09:29:54Z</time>
      </trkpt>
      <trkpt lat="45.8218" lon="4.81974">
        <ele>453</ele>
        <time>2012-11-03T09:29:58Z</time>
      </trkpt>
      <trkpt lat="45.82182" lon="4.81973">
        <ele>453</ele>
        <time>2012-11-03T09:29:59Z</time>
      </trkpt>
      <trkpt lat="45.8219" lon="4.81968">
        <ele>454</ele>
        <time>2012-11-03T09:30:04Z</time>
      </trkpt>
      <trkpt lat="45.82193" lon="4.81966">
        <ele>454</ele>
        <time>2012-11-03T09:30:07Z</time>
      </trkpt>
      <trkpt lat="45.82196" lon="4.81965">
        <ele>454</ele>
        <time>2012-11-03T09:30:09Z</time>
      </trkpt>
      <trkpt lat="45.82204" lon="4.81956">
        <ele>454</ele>
        <time>2012-11-03T09:30:14Z</time>
      </trkpt>
      <trkpt lat="45.82214" lon="4.81955">
        <ele>455</ele>
        <time>2012-11-03T09:30:18Z</time>
      </trkpt>
      <trkpt lat="45.82217" lon="4.81955">
        <ele>455</ele>
        <time>2012-11-03T09:30:19Z</time>
      </trkpt>
      <trkpt lat="45.82235" lon="4.81958">
        <ele>457</ele>
        <time>2012-11-03T09:30:25Z</time>
      </trkpt>
      <trkpt lat="45.82241" lon="4.81956">
        <ele>457</ele>
        <time>2012-11-03T09:30:27Z</time>
      </trkpt>
      <trkpt lat="45.82246" lon="4.81951">
        <ele>457</ele>
        <time>2012-11-03T09:30:31Z</time>
      </trkpt>
      <trkpt lat="45.82247" lon="4.8195">
        <ele>456</ele>
        <time>2012-11-03T09:30:37Z</time>
      </trkpt>
      <trkpt lat="45.82246" lon="4.8195">
        <ele>456</ele>
        <time>2012-11-03T09:30:38Z</time>
      </trkpt>
      <trkpt lat="45.82245" lon="4.81955">
        <ele>457</ele>
        <time>2012-11-03T09:30:41Z</time>
      </trkpt>
      <trkpt lat="45.82245" lon="4.81957">
        <ele>457</ele>
        <time>2012-11-03T09:30:42Z</time>
      </trkpt>
      <trkpt lat="45.82246" lon="4.81962">
        <ele>458</ele>
        <time>2012-11-03T09:30:45Z</time>
      </trkpt>
      <trkpt lat="45.82247" lon="4.81967">
        <ele>458</ele>
        <time>2012-11-03T09:30:47Z</time>
      </trkpt>
      <trkpt lat="45.8225" lon="4.81985">
        <ele>462</ele>
        <time>2012-11-03T09:30:53Z</time>
      </trkpt>
      <trkpt lat="45.8225" lon="4.81989">
        <ele>466</ele>
        <time>2012-11-03T09:30:54Z</time>
      </trkpt>
      <trkpt lat="45.82253" lon="4.82004">
        <ele>468</ele>
        <time>2012-11-03T09:30:58Z</time>
      </trkpt>
      <trkpt lat="45.82261" lon="4.82027">
        <ele>469</ele>
        <time>2012-11-03T09:31:04Z</time>
      </trkpt>
      <trkpt lat="45.82268" lon="4.82032">
        <ele>469</ele>
        <time>2012-11-03T09:31:07Z</time>
      </trkpt>
      <trkpt lat="45.82273" lon="4.82037">
        <ele>469</ele>
        <time>2012-11-03T09:31:09Z</time>
      </trkpt>
      <trkpt lat="45.82287" lon="4.82059">
        <ele>469</ele>
        <time>2012-11-03T09:31:15Z</time>
      </trkpt>
      <trkpt lat="45.82295" lon="4.82069">
        <ele>469</ele>
        <time>2012-11-03T09:31:18Z</time>
      </trkpt>
      <trkpt lat="45.82297" lon="4.82071">
        <ele>469</ele>
        <time>2012-11-03T09:31:19Z</time>
      </trkpt>
      <trkpt lat="45.82304" lon="4.82082">
        <ele>469</ele>
        <time>2012-11-03T09:31:24Z</time>
      </trkpt>
      <trkpt lat="45.82303" lon="4.82083">
        <ele>469</ele>
        <time>2012-11-03T09:31:34Z</time>
      </trkpt>
      <trkpt lat="45.82304" lon="4.8208">
        <ele>469</ele>
        <time>2012-11-03T09:35:28Z</time>
      </trkpt>
      <trkpt lat="45.82307" lon="4.82081">
        <ele>470</ele>
        <time>2012-11-03T09:35:36Z</time>
      </trkpt>
      <trkpt lat="45.82317" lon="4.82093">
        <ele>467</ele>
        <time>2012-11-03T09:35:41Z</time>
      </trkpt>
      <trkpt lat="45.82326" lon="4.82102">
        <ele>467</ele>
        <time>2012-11-03T09:35:44Z</time>
      </trkpt>
      <trkpt lat="45.8233" lon="4.82104">
        <ele>467</ele>
        <time>2012-11-03T09:35:45Z</time>
      </trkpt>
      <trkpt lat="45.8234" lon="4.82112">
        <ele>468</ele>
        <time>2012-11-03T09:35:48Z</time>
      </trkpt>
      <trkpt lat="45.82348" lon="4.82119">
        <ele>467</ele>
        <time>2012-11-03T09:35:50Z</time>
      </trkpt>
      <trkpt lat="45.82359" lon="4.82132">
        <ele>466</ele>
        <time>2012-11-03T09:35:54Z</time>
      </trkpt>
      <trkpt lat="45.82361" lon="4.82133">
        <ele>466</ele>
        <time>2012-11-03T09:35:55Z</time>
      </trkpt>
      <trkpt lat="45.82368" lon="4.82132">
        <ele>467</ele>
        <time>2012-11-03T09:35:57Z</time>
      </trkpt>
      <trkpt lat="45.82384" lon="4.82131">
        <ele>467</ele>
        <time>2012-11-03T09:36:01Z</time>
      </trkpt>
      <trkpt lat="45.82387" lon="4.82132">
        <ele>467</ele>
        <time>2012-11-03T09:36:02Z</time>
      </trkpt>
      <trkpt lat="45.82413" lon="4.82141">
        <ele>467</ele>
        <time>2012-11-03T09:36:09Z</time>
      </trkpt>
      <trkpt lat="45.82422" lon="4.82144">
        <ele>467</ele>
        <time>2012-11-03T09:36:12Z</time>
      </trkpt>
      <trkpt lat="45.82427" lon="4.82147">
        <ele>467</ele>
        <time>2012-11-03T09:36:14Z</time>
      </trkpt>
      <trkpt lat="45.82439" lon="4.82148">
        <ele>467</ele>
        <time>2012-11-03T09:36:18Z</time>
      </trkpt>
      <trkpt lat="45.82456" lon="4.82148">
        <ele>467</ele>
        <time>2012-11-03T09:36:23Z</time>
      </trkpt>
      <trkpt lat="45.82459" lon="4.82148">
        <ele>467</ele>
        <time>2012-11-03T09:36:24Z</time>
      </trkpt>
      <trkpt lat="45.82473" lon="4.82148">
        <ele>467</ele>
        <time>2012-11-03T09:36:29Z</time>
      </trkpt>
      <trkpt lat="45.82488" lon="4.8215">
        <ele>467</ele>
        <time>2012-11-03T09:36:34Z</time>
      </trkpt>
      <trkpt lat="45.82495" lon="4.82153">
        <ele>467</ele>
        <time>2012-11-03T09:36:37Z</time>
      </trkpt>
      <trkpt lat="45.82496" lon="4.82156">
        <ele>467</ele>
        <time>2012-11-03T09:36:38Z</time>
      </trkpt>
      <trkpt lat="45.82498" lon="4.82169">
        <ele>467</ele>
        <time>2012-11-03T09:36:41Z</time>
      </trkpt>
      <trkpt lat="45.82499" lon="4.82174">
        <ele>466</ele>
        <time>2012-11-03T09:36:42Z</time>
      </trkpt>
      <trkpt lat="45.82504" lon="4.82188">
        <ele>465</ele>
        <time>2012-11-03T09:36:45Z</time>
      </trkpt>
      <trkpt lat="45.82507" lon="4.8219">
        <ele>464</ele>
        <time>2012-11-03T09:36:46Z</time>
      </trkpt>
      <trkpt lat="45.82512" lon="4.82196">
        <ele>464</ele>
        <time>2012-11-03T09:36:48Z</time>
      </trkpt>
      <trkpt lat="45.82513" lon="4.82202">
        <ele>464</ele>
        <time>2012-11-03T09:36:49Z</time>
      </trkpt>
      <trkpt lat="45.82517" lon="4.8222">
        <ele>463</ele>
        <time>2012-11-03T09:36:52Z</time>
      </trkpt>
      <trkpt lat="45.82531" lon="4.82226">
        <ele>463</ele>
        <time>2012-11-03T09:36:55Z</time>
      </trkpt>
      <trkpt lat="45.82536" lon="4.82227">
        <ele>463</ele>
        <time>2012-11-03T09:36:56Z</time>
      </trkpt>
      <trkpt lat="45.8254" lon="4.82228">
        <ele>463</ele>
        <time>2012-11-03T09:36:57Z</time>
      </trkpt>
      <trkpt lat="45.82561" lon="4.82229">
        <ele>462</ele>
        <time>2012-11-03T09:37:01Z</time>
      </trkpt>
      <trkpt lat="45.82573" lon="4.8223">
        <ele>462</ele>
        <time>2012-11-03T09:37:03Z</time>
      </trkpt>
      <trkpt lat="45.82578" lon="4.8223">
        <ele>461</ele>
        <time>2012-11-03T09:37:04Z</time>
      </trkpt>
      <trkpt lat="45.82583" lon="4.82229">
        <ele>461</ele>
        <time>2012-11-03T09:37:05Z</time>
      </trkpt>
      <trkpt lat="45.82594" lon="4.82215">
        <ele>458</ele>
        <time>2012-11-03T09:37:08Z</time>
      </trkpt>
      <trkpt lat="45.82609" lon="4.8221">
        <ele>458</ele>
        <time>2012-11-03T09:37:11Z</time>
      </trkpt>
      <trkpt lat="45.82633" lon="4.822">
        <ele>457</ele>
        <time>2012-11-03T09:37:16Z</time>
      </trkpt>
      <trkpt lat="45.82644" lon="4.82196">
        <ele>456</ele>
        <time>2012-11-03T09:37:18Z</time>
      </trkpt>
      <trkpt lat="45.82648" lon="4.82193">
        <ele>456</ele>
        <time>2012-11-03T09:37:19Z</time>
      </trkpt>
      <trkpt lat="45.82653" lon="4.82189">
        <ele>456</ele>
        <time>2012-11-03T09:37:21Z</time>
      </trkpt>
      <trkpt lat="45.82654" lon="4.82185">
        <ele>456</ele>
        <time>2012-11-03T09:37:22Z</time>
      </trkpt>
      <trkpt lat="45.82651" lon="4.82169">
        <ele>455</ele>
        <time>2012-11-03T09:37:26Z</time>
      </trkpt>
      <trkpt lat="45.82645" lon="4.82154">
        <ele>454</ele>
        <time>2012-11-03T09:37:29Z</time>
      </trkpt>
      <trkpt lat="45.82643" lon="4.82149">
        <ele>455</ele>
        <time>2012-11-03T09:37:30Z</time>
      </trkpt>
      <trkpt lat="45.82634" lon="4.82122">
        <ele>455</ele>
        <time>2012-11-03T09:37:35Z</time>
      </trkpt>
      <trkpt lat="45.82632" lon="4.82116">
        <ele>454</ele>
        <time>2012-11-03T09:37:36Z</time>
      </trkpt>
      <trkpt lat="45.82629" lon="4.82107">
        <ele>455</ele>
        <time>2012-11-03T09:37:38Z</time>
      </trkpt>
      <trkpt lat="45.82623" lon="4.82088">
        <ele>455</ele>
        <time>2012-11-03T09:37:42Z</time>
      </trkpt>
      <trkpt lat="45.82619" lon="4.82067">
        <ele>455</ele>
        <time>2012-11-03T09:37:46Z</time>
      </trkpt>
      <trkpt lat="45.82619" lon="4.82061">
        <ele>455</ele>
        <time>2012-11-03T09:37:47Z</time>
      </trkpt>
      <trkpt lat="45.82618" lon="4.82054">
        <ele>455</ele>
        <time>2012-11-03T09:37:48Z</time>
      </trkpt>
      <trkpt lat="45.82618" lon="4.82032">
        <ele>456</ele>
        <time>2012-11-03T09:37:52Z</time>
      </trkpt>
      <trkpt lat="45.8262" lon="4.82026">
        <ele>456</ele>
        <time>2012-11-03T09:37:53Z</time>
      </trkpt>
      <trkpt lat="45.82627" lon="4.82002">
        <ele>455</ele>
        <time>2012-11-03T09:37:57Z</time>
      </trkpt>
      <trkpt lat="45.8263" lon="4.81983">
        <ele>455</ele>
        <time>2012-11-03T09:38:00Z</time>
      </trkpt>
      <trkpt lat="45.82632" lon="4.81973">
        <ele>455</ele>
        <time>2012-11-03T09:38:02Z</time>
      </trkpt>
      <trkpt lat="45.82637" lon="4.8195">
        <ele>455</ele>
        <time>2012-11-03T09:38:06Z</time>
      </trkpt>
      <trkpt lat="45.82638" lon="4.81945">
        <ele>455</ele>
        <time>2012-11-03T09:38:07Z</time>
      </trkpt>
      <trkpt lat="45.82646" lon="4.81919">
        <ele>455</ele>
        <time>2012-11-03T09:38:12Z</time>
      </trkpt>
      <trkpt lat="45.8265" lon="4.81902">
        <ele>454</ele>
        <time>2012-11-03T09:38:15Z</time>
      </trkpt>
      <trkpt lat="45.82653" lon="4.81889">
        <ele>454</ele>
        <time>2012-11-03T09:38:17Z</time>
      </trkpt>
      <trkpt lat="45.82662" lon="4.81863">
        <ele>453</ele>
        <time>2012-11-03T09:38:21Z</time>
      </trkpt>
      <trkpt lat="45.82665" lon="4.81857">
        <ele>453</ele>
        <time>2012-11-03T09:38:22Z</time>
      </trkpt>
      <trkpt lat="45.82667" lon="4.8185">
        <ele>449</ele>
        <time>2012-11-03T09:38:23Z</time>
      </trkpt>
      <trkpt lat="45.8267" lon="4.81834">
        <ele>450</ele>
        <time>2012-11-03T09:38:25Z</time>
      </trkpt>
      <trkpt lat="45.82672" lon="4.81826">
        <ele>449</ele>
        <time>2012-11-03T09:38:26Z</time>
      </trkpt>
      <trkpt lat="45.82676" lon="4.81793">
        <ele>445</ele>
        <time>2012-11-03T09:38:30Z</time>
      </trkpt>
      <trkpt lat="45.82677" lon="4.81785">
        <ele>445</ele>
        <time>2012-11-03T09:38:31Z</time>
      </trkpt>
      <trkpt lat="45.82677" lon="4.81778">
        <ele>445</ele>
        <time>2012-11-03T09:38:32Z</time>
      </trkpt>
      <trkpt lat="45.82679" lon="4.81769">
        <ele>445</ele>
        <time>2012-11-03T09:38:33Z</time>
      </trkpt>
      <trkpt lat="45.82682" lon="4.81744">
        <ele>444</ele>
        <time>2012-11-03T09:38:36Z</time>
      </trkpt>
      <trkpt lat="45.82683" lon="4.81736">
        <ele>443</ele>
        <time>2012-11-03T09:38:37Z</time>
      </trkpt>
      <trkpt lat="45.82683" lon="4.81729">
        <ele>443</ele>
        <time>2012-11-03T09:38:38Z</time>
      </trkpt>
      <trkpt lat="45.82685" lon="4.8171">
        <ele>442</ele>
        <time>2012-11-03T09:38:41Z</time>
      </trkpt>
      <trkpt lat="45.82687" lon="4.81695">
        <ele>441</ele>
        <time>2012-11-03T09:38:43Z</time>
      </trkpt>
      <trkpt lat="45.8269" lon="4.81677">
        <ele>441</ele>
        <time>2012-11-03T09:38:45Z</time>
      </trkpt>
      <trkpt lat="45.82696" lon="4.81637">
        <ele>439</ele>
        <time>2012-11-03T09:38:49Z</time>
      </trkpt>
      <trkpt lat="45.82698" lon="4.81627">
        <ele>439</ele>
        <time>2012-11-03T09:38:50Z</time>
      </trkpt>
      <trkpt lat="45.82708" lon="4.81587">
        <ele>439</ele>
        <time>2012-11-03T09:38:54Z</time>
      </trkpt>
      <trkpt lat="45.82711" lon="4.81577">
        <ele>437</ele>
        <time>2012-11-03T09:38:55Z</time>
      </trkpt>
      <trkpt lat="45.82712" lon="4.81569">
        <ele>437</ele>
        <time>2012-11-03T09:38:56Z</time>
      </trkpt>
      <trkpt lat="45.82713" lon="4.81562">
        <ele>437</ele>
        <time>2012-11-03T09:38:57Z</time>
      </trkpt>
      <trkpt lat="45.82718" lon="4.81534">
        <ele>436</ele>
        <time>2012-11-03T09:39:02Z</time>
      </trkpt>
      <trkpt lat="45.82724" lon="4.81527">
        <ele>435</ele>
        <time>2012-11-03T09:39:04Z</time>
      </trkpt>
      <trkpt lat="45.82731" lon="4.81523">
        <ele>435</ele>
        <time>2012-11-03T09:39:06Z</time>
      </trkpt>
      <trkpt lat="45.82742" lon="4.8152">
        <ele>434</ele>
        <time>2012-11-03T09:39:10Z</time>
      </trkpt>
      <trkpt lat="45.82748" lon="4.81508">
        <ele>432</ele>
        <time>2012-11-03T09:39:14Z</time>
      </trkpt>
      <trkpt lat="45.8275" lon="4.81498">
        <ele>430</ele>
        <time>2012-11-03T09:39:16Z</time>
      </trkpt>
      <trkpt lat="45.82753" lon="4.81486">
        <ele>424</ele>
        <time>2012-11-03T09:39:18Z</time>
      </trkpt>
      <trkpt lat="45.82755" lon="4.81479">
        <ele>422</ele>
        <time>2012-11-03T09:39:19Z</time>
      </trkpt>
      <trkpt lat="45.82758" lon="4.8147">
        <ele>420</ele>
        <time>2012-11-03T09:39:20Z</time>
      </trkpt>
      <trkpt lat="45.82765" lon="4.81443">
        <ele>418</ele>
        <time>2012-11-03T09:39:23Z</time>
      </trkpt>
      <trkpt lat="45.82769" lon="4.81424">
        <ele>419</ele>
        <time>2012-11-03T09:39:25Z</time>
      </trkpt>
      <trkpt lat="45.8277" lon="4.8141">
        <ele>418</ele>
        <time>2012-11-03T09:39:27Z</time>
      </trkpt>
      <trkpt lat="45.8277" lon="4.81404">
        <ele>417</ele>
        <time>2012-11-03T09:39:28Z</time>
      </trkpt>
      <trkpt lat="45.82773" lon="4.81389">
        <ele>416</ele>
        <time>2012-11-03T09:39:30Z</time>
      </trkpt>
      <trkpt lat="45.82775" lon="4.8138">
        <ele>415</ele>
        <time>2012-11-03T09:39:31Z</time>
      </trkpt>
      <trkpt lat="45.82781" lon="4.8136">
        <ele>415</ele>
        <time>2012-11-03T09:39:33Z</time>
      </trkpt>
      <trkpt lat="45.82783" lon="4.81349">
        <ele>415</ele>
        <time>2012-11-03T09:39:34Z</time>
      </trkpt>
      <trkpt lat="45.82785" lon="4.81338">
        <ele>414</ele>
        <time>2012-11-03T09:39:35Z</time>
      </trkpt>
      <trkpt lat="45.8279" lon="4.81281">
        <ele>413</ele>
        <time>2012-11-03T09:39:39Z</time>
      </trkpt>
      <trkpt lat="45.82803" lon="4.8122">
        <ele>411</ele>
        <time>2012-11-03T09:39:43Z</time>
      </trkpt>
      <trkpt lat="45.82822" lon="4.81158">
        <ele>408</ele>
        <time>2012-11-03T09:39:47Z</time>
      </trkpt>
      <trkpt lat="45.82828" lon="4.81145">
        <ele>407</ele>
        <time>2012-11-03T09:39:48Z</time>
      </trkpt>
      <trkpt lat="45.82851" lon="4.81114">
        <ele>407</ele>
        <time>2012-11-03T09:39:51Z</time>
      </trkpt>
      <trkpt lat="45.82887" lon="4.81078">
        <ele>407</ele>
        <time>2012-11-03T09:39:56Z</time>
      </trkpt>
      <trkpt lat="45.82916" lon="4.81047">
        <ele>407</ele>
        <time>2012-11-03T09:40:01Z</time>
      </trkpt>
      <trkpt lat="45.82921" lon="4.81041">
        <ele>409</ele>
        <time>2012-11-03T09:40:02Z</time>
      </trkpt>
      <trkpt lat="45.82945" lon="4.81016">
        <ele>410</ele>
        <time>2012-11-03T09:40:07Z</time>
      </trkpt>
      <trkpt lat="45.82954" lon="4.81007">
        <ele>410</ele>
        <time>2012-11-03T09:40:09Z</time>
      </trkpt>
      <trkpt lat="45.82977" lon="4.80985">
        <ele>413</ele>
        <time>2012-11-03T09:40:15Z</time>
      </trkpt>
      <trkpt lat="45.82997" lon="4.80966">
        <ele>413</ele>
        <time>2012-11-03T09:40:21Z</time>
      </trkpt>
      <trkpt lat="45.83007" lon="4.80954">
        <ele>414</ele>
        <time>2012-11-03T09:40:25Z</time>
      </trkpt>
      <trkpt lat="45.83013" lon="4.80945">
        <ele>414</ele>
        <time>2012-11-03T09:40:28Z</time>
      </trkpt>
      <trkpt lat="45.83027" lon="4.80929">
        <ele>414</ele>
        <time>2012-11-03T09:40:34Z</time>
      </trkpt>
      <trkpt lat="45.83036" lon="4.80919">
        <ele>415</ele>
        <time>2012-11-03T09:40:38Z</time>
      </trkpt>
      <trkpt lat="45.83048" lon="4.8091">
        <ele>418</ele>
        <time>2012-11-03T09:40:42Z</time>
      </trkpt>
      <trkpt lat="45.8307" lon="4.80891">
        <ele>418</ele>
        <time>2012-11-03T09:40:49Z</time>
      </trkpt>
      <trkpt lat="45.83091" lon="4.80868">
        <ele>418</ele>
        <time>2012-11-03T09:40:57Z</time>
      </trkpt>
      <trkpt lat="45.83102" lon="4.80857">
        <ele>419</ele>
        <time>2012-11-03T09:41:01Z</time>
      </trkpt>
      <trkpt lat="45.83107" lon="4.8085">
        <ele>419</ele>
        <time>2012-11-03T09:41:03Z</time>
      </trkpt>
      <trkpt lat="45.83127" lon="4.80819">
        <ele>421</ele>
        <time>2012-11-03T09:41:11Z</time>
      </trkpt>
      <trkpt lat="45.8314" lon="4.80788">
        <ele>422</ele>
        <time>2012-11-03T09:41:18Z</time>
      </trkpt>
      <trkpt lat="45.83146" lon="4.8077">
        <ele>422</ele>
        <time>2012-11-03T09:41:22Z</time>
      </trkpt>
      <trkpt lat="45.83147" lon="4.80755">
        <ele>422</ele>
        <time>2012-11-03T09:41:25Z</time>
      </trkpt>
      <trkpt lat="45.83151" lon="4.80719">
        <ele>424</ele>
        <time>2012-11-03T09:41:32Z</time>
      </trkpt>
      <trkpt lat="45.8315" lon="4.80714">
        <ele>424</ele>
        <time>2012-11-03T09:41:33Z</time>
      </trkpt>
      <trkpt lat="45.83148" lon="4.80689">
        <ele>425</ele>
        <time>2012-11-03T09:41:38Z</time>
      </trkpt>
      <trkpt lat="45.83147" lon="4.80665">
        <ele>427</ele>
        <time>2012-11-03T09:41:43Z</time>
      </trkpt>
      <trkpt lat="45.83148" lon="4.80661">
        <ele>427</ele>
        <time>2012-11-03T09:41:44Z</time>
      </trkpt>
      <trkpt lat="45.83154" lon="4.80647">
        <ele>428</ele>
        <time>2012-11-03T09:41:47Z</time>
      </trkpt>
      <trkpt lat="45.83171" lon="4.80616">
        <ele>426</ele>
        <time>2012-11-03T09:41:53Z</time>
      </trkpt>
      <trkpt lat="45.8318" lon="4.80601">
        <ele>427</ele>
        <time>2012-11-03T09:41:56Z</time>
      </trkpt>
      <trkpt lat="45.83188" lon="4.80592">
        <ele>427</ele>
        <time>2012-11-03T09:41:58Z</time>
      </trkpt>
      <trkpt lat="45.83199" lon="4.80586">
        <ele>426</ele>
        <time>2012-11-03T09:42:00Z</time>
      </trkpt>
      <trkpt lat="45.83204" lon="4.80583">
        <ele>431</ele>
        <time>2012-11-03T09:42:01Z</time>
      </trkpt>
      <trkpt lat="45.8322" lon="4.80575">
        <ele>430</ele>
        <time>2012-11-03T09:42:04Z</time>
      </trkpt>
      <trkpt lat="45.8324" lon="4.80564">
        <ele>430</ele>
        <time>2012-11-03T09:42:08Z</time>
      </trkpt>
      <trkpt lat="45.8325" lon="4.8056">
        <ele>430</ele>
        <time>2012-11-03T09:42:10Z</time>
      </trkpt>
      <trkpt lat="45.83269" lon="4.80549">
        <ele>431</ele>
        <time>2012-11-03T09:42:14Z</time>
      </trkpt>
      <trkpt lat="45.83274" lon="4.80549">
        <ele>432</ele>
        <time>2012-11-03T09:42:15Z</time>
      </trkpt>
      <trkpt lat="45.83279" lon="4.80549">
        <ele>432</ele>
        <time>2012-11-03T09:42:16Z</time>
      </trkpt>
      <trkpt lat="45.83288" lon="4.80551">
        <ele>432</ele>
        <time>2012-11-03T09:42:18Z</time>
      </trkpt>
      <trkpt lat="45.83292" lon="4.80552">
        <ele>432</ele>
        <time>2012-11-03T09:42:19Z</time>
      </trkpt>
      <trkpt lat="45.83301" lon="4.80555">
        <ele>432</ele>
        <time>2012-11-03T09:42:21Z</time>
      </trkpt>
      <trkpt lat="45.83312" lon="4.80561">
        <ele>432</ele>
        <time>2012-11-03T09:42:24Z</time>
      </trkpt>
      <trkpt lat="45.83316" lon="4.80562">
        <ele>432</ele>
        <time>2012-11-03T09:42:25Z</time>
      </trkpt>
      <trkpt lat="45.83335" lon="4.80566">
        <ele>435</ele>
        <time>2012-11-03T09:42:31Z</time>
      </trkpt>
      <trkpt lat="45.83348" lon="4.80565">
        <ele>436</ele>
        <time>2012-11-03T09:42:37Z</time>
      </trkpt>
      <trkpt lat="45.83353" lon="4.80565">
        <ele>437</ele>
        <time>2012-11-03T09:42:40Z</time>
      </trkpt>
      <trkpt lat="45.8336" lon="4.80564">
        <ele>438</ele>
        <time>2012-11-03T09:42:44Z</time>
      </trkpt>
      <trkpt lat="45.83369" lon="4.80562">
        <ele>439</ele>
        <time>2012-11-03T09:42:49Z</time>
      </trkpt>
      <trkpt lat="45.83379" lon="4.80558">
        <ele>440</ele>
        <time>2012-11-03T09:42:57Z</time>
      </trkpt>
      <trkpt lat="45.83389" lon="4.80555">
        <ele>441</ele>
        <time>2012-11-03T09:43:02Z</time>
      </trkpt>
      <trkpt lat="45.83391" lon="4.80555">
        <ele>441</ele>
        <time>2012-11-03T09:43:03Z</time>
      </trkpt>
      <trkpt lat="45.83398" lon="4.80555">
        <ele>441</ele>
        <time>2012-11-03T09:43:07Z</time>
      </trkpt>
      <trkpt lat="45.834" lon="4.80554">
        <ele>441</ele>
        <time>2012-11-03T09:43:09Z</time>
      </trkpt>
      <trkpt lat="45.83408" lon="4.80553">
        <ele>442</ele>
        <time>2012-11-03T09:43:15Z</time>
      </trkpt>
      <trkpt lat="45.8342" lon="4.80542">
        <ele>450</ele>
        <time>2012-11-03T09:43:22Z</time>
      </trkpt>
      <trkpt lat="45.83424" lon="4.80537">
        <ele>450</ele>
        <time>2012-11-03T09:43:25Z</time>
      </trkpt>
      <trkpt lat="45.83428" lon="4.80533">
        <ele>450</ele>
        <time>2012-11-03T09:43:29Z</time>
      </trkpt>
      <trkpt lat="45.83429" lon="4.80532">
        <ele>450</ele>
        <time>2012-11-03T09:43:30Z</time>
      </trkpt>
      <trkpt lat="45.83433" lon="4.80528">
        <ele>451</ele>
        <time>2012-11-03T09:43:35Z</time>
      </trkpt>
      <trkpt lat="45.83442" lon="4.80525">
        <ele>451</ele>
        <time>2012-11-03T09:43:41Z</time>
      </trkpt>
      <trkpt lat="45.83443" lon="4.80525">
        <ele>451</ele>
        <time>2012-11-03T09:43:42Z</time>
      </trkpt>
      <trkpt lat="45.83453" lon="4.80523">
        <ele>452</ele>
        <time>2012-11-03T09:43:50Z</time>
      </trkpt>
      <trkpt lat="45.8346" lon="4.80522">
        <ele>453</ele>
        <time>2012-11-03T09:43:55Z</time>
      </trkpt>
      <trkpt lat="45.83464" lon="4.80522">
        <ele>453</ele>
        <time>2012-11-03T09:43:59Z</time>
      </trkpt>
      <trkpt lat="45.83469" lon="4.80521">
        <ele>453</ele>
        <time>2012-11-03T09:44:04Z</time>
      </trkpt>
      <trkpt lat="45.8347" lon="4.8052">
        <ele>454</ele>
        <time>2012-11-03T09:44:05Z</time>
      </trkpt>
      <trkpt lat="45.83479" lon="4.80515">
        <ele>455</ele>
        <time>2012-11-03T09:44:12Z</time>
      </trkpt>
      <trkpt lat="45.83488" lon="4.80509">
        <ele>456</ele>
        <time>2012-11-03T09:44:19Z</time>
      </trkpt>
      <trkpt lat="45.83491" lon="4.80506">
        <ele>457</ele>
        <time>2012-11-03T09:44:22Z</time>
      </trkpt>
      <trkpt lat="45.83495" lon="4.80504">
        <ele>458</ele>
        <time>2012-11-03T09:44:25Z</time>
      </trkpt>
      <trkpt lat="45.83496" lon="4.80504">
        <ele>459</ele>
        <time>2012-11-03T09:44:26Z</time>
      </trkpt>
      <trkpt lat="45.83498" lon="4.80503">
        <ele>459</ele>
        <time>2012-11-03T09:44:27Z</time>
      </trkpt>
      <trkpt lat="45.83504" lon="4.80498">
        <ele>461</ele>
        <time>2012-11-03T09:44:33Z</time>
      </trkpt>
      <trkpt lat="45.83509" lon="4.8049">
        <ele>462</ele>
        <time>2012-11-03T09:44:40Z</time>
      </trkpt>
      <trkpt lat="45.83514" lon="4.80487">
        <ele>463</ele>
        <time>2012-11-03T09:44:43Z</time>
      </trkpt>
      <trkpt lat="45.83519" lon="4.80484">
        <ele>464</ele>
        <time>2012-11-03T09:44:46Z</time>
      </trkpt>
      <trkpt lat="45.83527" lon="4.80477">
        <ele>464</ele>
        <time>2012-11-03T09:44:53Z</time>
      </trkpt>
      <trkpt lat="45.83529" lon="4.80475">
        <ele>465</ele>
        <time>2012-11-03T09:44:56Z</time>
      </trkpt>
      <trkpt lat="45.83535" lon="4.80473">
        <ele>465</ele>
        <time>2012-11-03T09:44:59Z</time>
      </trkpt>
      <trkpt lat="45.83544" lon="4.80468">
        <ele>465</ele>
        <time>2012-11-03T09:45:05Z</time>
      </trkpt>
      <trkpt lat="45.83552" lon="4.80463">
        <ele>466</ele>
        <time>2012-11-03T09:45:11Z</time>
      </trkpt>
      <trkpt lat="45.83559" lon="4.80458">
        <ele>466</ele>
        <time>2012-11-03T09:45:18Z</time>
      </trkpt>
      <trkpt lat="45.83564" lon="4.80454">
        <ele>466</ele>
        <time>2012-11-03T09:45:21Z</time>
      </trkpt>
      <trkpt lat="45.83571" lon="4.8045">
        <ele>467</ele>
        <time>2012-11-03T09:45:25Z</time>
      </trkpt>
      <trkpt lat="45.83576" lon="4.80449">
        <ele>467</ele>
        <time>2012-11-03T09:45:29Z</time>
      </trkpt>
      <trkpt lat="45.83578" lon="4.80448">
        <ele>467</ele>
        <time>2012-11-03T09:45:31Z</time>
      </trkpt>
      <trkpt lat="45.83587" lon="4.80442">
        <ele>467</ele>
        <time>2012-11-03T09:45:38Z</time>
      </trkpt>
      <trkpt lat="45.83597" lon="4.80439">
        <ele>467</ele>
        <time>2012-11-03T09:45:46Z</time>
      </trkpt>
      <trkpt lat="45.836" lon="4.80437">
        <ele>467</ele>
        <time>2012-11-03T09:45:48Z</time>
      </trkpt>
      <trkpt lat="45.83603" lon="4.80432">
        <ele>467</ele>
        <time>2012-11-03T09:45:51Z</time>
      </trkpt>
      <trkpt lat="45.83604" lon="4.80426">
        <ele>467</ele>
        <time>2012-11-03T09:45:54Z</time>
      </trkpt>
      <trkpt lat="45.83604" lon="4.80424">
        <ele>467</ele>
        <time>2012-11-03T09:45:55Z</time>
      </trkpt>
      <trkpt lat="45.83602" lon="4.80412">
        <ele>470</ele>
        <time>2012-11-03T09:46:02Z</time>
      </trkpt>
      <trkpt lat="45.83603" lon="4.80401">
        <ele>470</ele>
        <time>2012-11-03T09:46:16Z</time>
      </trkpt>
      <trkpt lat="45.836" lon="4.80389">
        <ele>471</ele>
        <time>2012-11-03T09:46:22Z</time>
      </trkpt>
      <trkpt lat="45.83598" lon="4.80386">
        <ele>471</ele>
        <time>2012-11-03T09:46:23Z</time>
      </trkpt>
      <trkpt lat="45.83593" lon="4.80382">
        <ele>471</ele>
        <time>2012-11-03T09:46:27Z</time>
      </trkpt>
      <trkpt lat="45.83591" lon="4.80382">
        <ele>471</ele>
        <time>2012-11-03T09:46:28Z</time>
      </trkpt>
      <trkpt lat="45.83585" lon="4.80378">
        <ele>471</ele>
        <time>2012-11-03T09:46:32Z</time>
      </trkpt>
      <trkpt lat="45.8358" lon="4.80378">
        <ele>471</ele>
        <time>2012-11-03T09:46:34Z</time>
      </trkpt>
      <trkpt lat="45.83574" lon="4.80376">
        <ele>471</ele>
        <time>2012-11-03T09:46:37Z</time>
      </trkpt>
      <trkpt lat="45.83572" lon="4.80375">
        <ele>471</ele>
        <time>2012-11-03T09:46:38Z</time>
      </trkpt>
      <trkpt lat="45.83569" lon="4.80371">
        <ele>471</ele>
        <time>2012-11-03T09:46:40Z</time>
      </trkpt>
      <trkpt lat="45.83564" lon="4.80368">
        <ele>471</ele>
        <time>2012-11-03T09:46:43Z</time>
      </trkpt>
      <trkpt lat="45.83558" lon="4.80363">
        <ele>472</ele>
        <time>2012-11-03T09:46:48Z</time>
      </trkpt>
      <trkpt lat="45.83555" lon="4.80358">
        <ele>472</ele>
        <time>2012-11-03T09:46:52Z</time>
      </trkpt>
      <trkpt lat="45.83552" lon="4.80354">
        <ele>472</ele>
        <time>2012-11-03T09:46:55Z</time>
      </trkpt>
      <trkpt lat="45.83543" lon="4.80335">
        <ele>472</ele>
        <time>2012-11-03T09:47:03Z</time>
      </trkpt>
      <trkpt lat="45.83542" lon="4.80334">
        <ele>472</ele>
        <time>2012-11-03T09:47:04Z</time>
      </trkpt>
      <trkpt lat="45.83539" lon="4.80329">
        <ele>475</ele>
        <time>2012-11-03T09:47:06Z</time>
      </trkpt>
      <trkpt lat="45.83537" lon="4.8032">
        <ele>475</ele>
        <time>2012-11-03T09:47:11Z</time>
      </trkpt>
      <trkpt lat="45.83529" lon="4.8031">
        <ele>475</ele>
        <time>2012-11-03T09:47:16Z</time>
      </trkpt>
      <trkpt lat="45.8352" lon="4.80295">
        <ele>476</ele>
        <time>2012-11-03T09:47:23Z</time>
      </trkpt>
      <trkpt lat="45.83516" lon="4.80287">
        <ele>476</ele>
        <time>2012-11-03T09:47:26Z</time>
      </trkpt>
      <trkpt lat="45.83508" lon="4.80276">
        <ele>476</ele>
        <time>2012-11-03T09:47:31Z</time>
      </trkpt>
      <trkpt lat="45.83505" lon="4.8026">
        <ele>477</ele>
        <time>2012-11-03T09:47:38Z</time>
      </trkpt>
      <trkpt lat="45.83499" lon="4.8024">
        <ele>478</ele>
        <time>2012-11-03T09:47:44Z</time>
      </trkpt>
      <trkpt lat="45.83498" lon="4.80236">
        <ele>478</ele>
        <time>2012-11-03T09:47:45Z</time>
      </trkpt>
      <trkpt lat="45.83497" lon="4.80226">
        <ele>478</ele>
        <time>2012-11-03T09:47:48Z</time>
      </trkpt>
      <trkpt lat="45.83497" lon="4.80219">
        <ele>478</ele>
        <time>2012-11-03T09:47:51Z</time>
      </trkpt>
      <trkpt lat="45.83497" lon="4.80204">
        <ele>479</ele>
        <time>2012-11-03T09:47:57Z</time>
      </trkpt>
      <trkpt lat="45.83501" lon="4.80192">
        <ele>483</ele>
        <time>2012-11-03T09:48:03Z</time>
      </trkpt>
      <trkpt lat="45.83502" lon="4.80189">
        <ele>483</ele>
        <time>2012-11-03T09:48:05Z</time>
      </trkpt>
      <trkpt lat="45.83504" lon="4.80183">
        <ele>483</ele>
        <time>2012-11-03T09:48:09Z</time>
      </trkpt>
      <trkpt lat="45.83505" lon="4.8018">
        <ele>484</ele>
        <time>2012-11-03T09:48:11Z</time>
      </trkpt>
      <trkpt lat="45.83506" lon="4.80175">
        <ele>484</ele>
        <time>2012-11-03T09:48:14Z</time>
      </trkpt>
      <trkpt lat="45.83509" lon="4.80161">
        <ele>486</ele>
        <time>2012-11-03T09:48:22Z</time>
      </trkpt>
      <trkpt lat="45.83512" lon="4.80153">
        <ele>487</ele>
        <time>2012-11-03T09:48:27Z</time>
      </trkpt>
      <trkpt lat="45.83515" lon="4.8015">
        <ele>487</ele>
        <time>2012-11-03T09:48:29Z</time>
      </trkpt>
      <trkpt lat="45.83517" lon="4.80146">
        <ele>488</ele>
        <time>2012-11-03T09:48:31Z</time>
      </trkpt>
      <trkpt lat="45.83519" lon="4.80144">
        <ele>488</ele>
        <time>2012-11-03T09:48:33Z</time>
      </trkpt>
      <trkpt lat="45.83523" lon="4.80141">
        <ele>488</ele>
        <time>2012-11-03T09:48:36Z</time>
      </trkpt>
      <trkpt lat="45.8353" lon="4.80135">
        <ele>489</ele>
        <time>2012-11-03T09:48:42Z</time>
      </trkpt>
      <trkpt lat="45.83531" lon="4.80134">
        <ele>489</ele>
        <time>2012-11-03T09:48:43Z</time>
      </trkpt>
      <trkpt lat="45.83536" lon="4.80125">
        <ele>489</ele>
        <time>2012-11-03T09:48:48Z</time>
      </trkpt>
      <trkpt lat="45.83537" lon="4.80123">
        <ele>489</ele>
        <time>2012-11-03T09:48:49Z</time>
      </trkpt>
      <trkpt lat="45.83544" lon="4.80113">
        <ele>490</ele>
        <time>2012-11-03T09:48:54Z</time>
      </trkpt>
      <trkpt lat="45.83546" lon="4.80109">
        <ele>490</ele>
        <time>2012-11-03T09:48:56Z</time>
      </trkpt>
      <trkpt lat="45.8355" lon="4.80103">
        <ele>491</ele>
        <time>2012-11-03T09:49:00Z</time>
      </trkpt>
      <trkpt lat="45.83558" lon="4.80095">
        <ele>491</ele>
        <time>2012-11-03T09:49:06Z</time>
      </trkpt>
      <trkpt lat="45.83564" lon="4.8008">
        <ele>498</ele>
        <time>2012-11-03T09:49:13Z</time>
      </trkpt>
      <trkpt lat="45.8357" lon="4.80071">
        <ele>498</ele>
        <time>2012-11-03T09:49:18Z</time>
      </trkpt>
      <trkpt lat="45.83573" lon="4.80068">
        <ele>499</ele>
        <time>2012-11-03T09:49:20Z</time>
      </trkpt>
      <trkpt lat="45.83581" lon="4.80061">
        <ele>499</ele>
        <time>2012-11-03T09:49:26Z</time>
      </trkpt>
      <trkpt lat="45.83582" lon="4.8006">
        <ele>499</ele>
        <time>2012-11-03T09:49:27Z</time>
      </trkpt>
      <trkpt lat="45.83586" lon="4.80053">
        <ele>502</ele>
        <time>2012-11-03T09:49:32Z</time>
      </trkpt>
      <trkpt lat="45.8359" lon="4.80048">
        <ele>503</ele>
        <time>2012-11-03T09:49:36Z</time>
      </trkpt>
      <trkpt lat="45.83592" lon="4.80045">
        <ele>503</ele>
        <time>2012-11-03T09:49:38Z</time>
      </trkpt>
      <trkpt lat="45.83598" lon="4.80039">
        <ele>504</ele>
        <time>2012-11-03T09:49:43Z</time>
      </trkpt>
      <trkpt lat="45.83604" lon="4.80027">
        <ele>505</ele>
        <time>2012-11-03T09:49:50Z</time>
      </trkpt>
      <trkpt lat="45.83613" lon="4.80018">
        <ele>506</ele>
        <time>2012-11-03T09:49:58Z</time>
      </trkpt>
      <trkpt lat="45.8362" lon="4.80011">
        <ele>506</ele>
        <time>2012-11-03T09:50:04Z</time>
      </trkpt>
      <trkpt lat="45.83627" lon="4.80006">
        <ele>506</ele>
        <time>2012-11-03T09:50:10Z</time>
      </trkpt>
      <trkpt lat="45.83629" lon="4.80004">
        <ele>506</ele>
        <time>2012-11-03T09:50:12Z</time>
      </trkpt>
      <trkpt lat="45.83636" lon="4.79996">
        <ele>512</ele>
        <time>2012-11-03T09:50:19Z</time>
      </trkpt>
      <trkpt lat="45.83639" lon="4.79994">
        <ele>512</ele>
        <time>2012-11-03T09:50:21Z</time>
      </trkpt>
      <trkpt lat="45.83644" lon="4.79993">
        <ele>512</ele>
        <time>2012-11-03T09:50:24Z</time>
      </trkpt>
      <trkpt lat="45.83647" lon="4.7999">
        <ele>512</ele>
        <time>2012-11-03T09:50:27Z</time>
      </trkpt>
      <trkpt lat="45.83651" lon="4.79988">
        <ele>512</ele>
        <time>2012-11-03T09:50:30Z</time>
      </trkpt>
      <trkpt lat="45.83652" lon="4.79986">
        <ele>512</ele>
        <time>2012-11-03T09:50:31Z</time>
      </trkpt>
      <trkpt lat="45.83659" lon="4.7998">
        <ele>512</ele>
        <time>2012-11-03T09:50:38Z</time>
      </trkpt>
      <trkpt lat="45.83664" lon="4.79977">
        <ele>512</ele>
        <time>2012-11-03T09:50:43Z</time>
      </trkpt>
      <trkpt lat="45.83666" lon="4.79975">
        <ele>512</ele>
        <time>2012-11-03T09:50:45Z</time>
      </trkpt>
      <trkpt lat="45.83674" lon="4.79972">
        <ele>514</ele>
        <time>2012-11-03T09:50:51Z</time>
      </trkpt>
      <trkpt lat="45.83675" lon="4.7997">
        <ele>514</ele>
        <time>2012-11-03T09:50:53Z</time>
      </trkpt>
      <trkpt lat="45.83676" lon="4.79969">
        <ele>514</ele>
        <time>2012-11-03T09:50:54Z</time>
      </trkpt>
      <trkpt lat="45.83679" lon="4.79968">
        <ele>514</ele>
        <time>2012-11-03T09:50:56Z</time>
      </trkpt>
      <trkpt lat="45.83685" lon="4.79963">
        <ele>515</ele>
        <time>2012-11-03T09:51:02Z</time>
      </trkpt>
      <trkpt lat="45.83692" lon="4.7996">
        <ele>515</ele>
        <time>2012-11-03T09:51:08Z</time>
      </trkpt>
      <trkpt lat="45.837" lon="4.79953">
        <ele>515</ele>
        <time>2012-11-03T09:51:15Z</time>
      </trkpt>
      <trkpt lat="45.83705" lon="4.7995">
        <ele>516</ele>
        <time>2012-11-03T09:51:18Z</time>
      </trkpt>
      <trkpt lat="45.83711" lon="4.7995">
        <ele>516</ele>
        <time>2012-11-03T09:51:22Z</time>
      </trkpt>
      <trkpt lat="45.83712" lon="4.7995">
        <ele>516</ele>
        <time>2012-11-03T09:51:23Z</time>
      </trkpt>
      <trkpt lat="45.83716" lon="4.79946">
        <ele>516</ele>
        <time>2012-11-03T09:51:28Z</time>
      </trkpt>
      <trkpt lat="45.83718" lon="4.79946">
        <ele>516</ele>
        <time>2012-11-03T09:51:29Z</time>
      </trkpt>
      <trkpt lat="45.83723" lon="4.79946">
        <ele>517</ele>
        <time>2012-11-03T09:51:33Z</time>
      </trkpt>
      <trkpt lat="45.83728" lon="4.79944">
        <ele>517</ele>
        <time>2012-11-03T09:51:37Z</time>
      </trkpt>
      <trkpt lat="45.83732" lon="4.79943">
        <ele>517</ele>
        <time>2012-11-03T09:51:39Z</time>
      </trkpt>
      <trkpt lat="45.83744" lon="4.79936">
        <ele>519</ele>
        <time>2012-11-03T09:51:47Z</time>
      </trkpt>
      <trkpt lat="45.83752" lon="4.79921">
        <ele>523</ele>
        <time>2012-11-03T09:51:55Z</time>
      </trkpt>
      <trkpt lat="45.83758" lon="4.79919">
        <ele>523</ele>
        <time>2012-11-03T09:51:58Z</time>
      </trkpt>
      <trkpt lat="45.83766" lon="4.79919">
        <ele>523</ele>
        <time>2012-11-03T09:52:02Z</time>
      </trkpt>
      <trkpt lat="45.83781" lon="4.79914">
        <ele>525</ele>
        <time>2012-11-03T09:52:09Z</time>
      </trkpt>
      <trkpt lat="45.83785" lon="4.79914">
        <ele>525</ele>
        <time>2012-11-03T09:52:11Z</time>
      </trkpt>
      <trkpt lat="45.8379" lon="4.79912">
        <ele>525</ele>
        <time>2012-11-03T09:52:14Z</time>
      </trkpt>
      <trkpt lat="45.83794" lon="4.7991">
        <ele>526</ele>
        <time>2012-11-03T09:52:16Z</time>
      </trkpt>
      <trkpt lat="45.83806" lon="4.79905">
        <ele>526</ele>
        <time>2012-11-03T09:52:22Z</time>
      </trkpt>
      <trkpt lat="45.83817" lon="4.799">
        <ele>527</ele>
        <time>2012-11-03T09:52:28Z</time>
      </trkpt>
      <trkpt lat="45.83824" lon="4.79898">
        <ele>527</ele>
        <time>2012-11-03T09:52:32Z</time>
      </trkpt>
      <trkpt lat="45.83829" lon="4.79895">
        <ele>527</ele>
        <time>2012-11-03T09:52:35Z</time>
      </trkpt>
      <trkpt lat="45.8383" lon="4.79894">
        <ele>527</ele>
        <time>2012-11-03T09:52:36Z</time>
      </trkpt>
      <trkpt lat="45.83836" lon="4.79894">
        <ele>535</ele>
        <time>2012-11-03T09:52:40Z</time>
      </trkpt>
      <trkpt lat="45.83845" lon="4.79891">
        <ele>536</ele>
        <time>2012-11-03T09:52:46Z</time>
      </trkpt>
      <trkpt lat="45.83847" lon="4.79891">
        <ele>536</ele>
        <time>2012-11-03T09:52:47Z</time>
      </trkpt>
      <trkpt lat="45.83857" lon="4.79892">
        <ele>537</ele>
        <time>2012-11-03T09:52:54Z</time>
      </trkpt>
      <trkpt lat="45.83867" lon="4.79892">
        <ele>538</ele>
        <time>2012-11-03T09:53:00Z</time>
      </trkpt>
      <trkpt lat="45.83868" lon="4.79892">
        <ele>538</ele>
        <time>2012-11-03T09:53:01Z</time>
      </trkpt>
      <trkpt lat="45.83878" lon="4.79892">
        <ele>539</ele>
        <time>2012-11-03T09:53:07Z</time>
      </trkpt>
      <trkpt lat="45.83887" lon="4.79893">
        <ele>540</ele>
        <time>2012-11-03T09:53:13Z</time>
      </trkpt>
      <trkpt lat="45.83898" lon="4.799">
        <ele>541</ele>
        <time>2012-11-03T09:53:21Z</time>
      </trkpt>
      <trkpt lat="45.83903" lon="4.79902">
        <ele>542</ele>
        <time>2012-11-03T09:53:24Z</time>
      </trkpt>
      <trkpt lat="45.83912" lon="4.79908">
        <ele>543</ele>
        <time>2012-11-03T09:53:30Z</time>
      </trkpt>
      <trkpt lat="45.8392" lon="4.79918">
        <ele>545</ele>
        <time>2012-11-03T09:53:37Z</time>
      </trkpt>
      <trkpt lat="45.8393" lon="4.79928">
        <ele>547</ele>
        <time>2012-11-03T09:53:44Z</time>
      </trkpt>
      <trkpt lat="45.83934" lon="4.79932">
        <ele>548</ele>
        <time>2012-11-03T09:53:47Z</time>
      </trkpt>
      <trkpt lat="45.83939" lon="4.7994">
        <ele>548</ele>
        <time>2012-11-03T09:53:51Z</time>
      </trkpt>
      <trkpt lat="45.83948" lon="4.79955">
        <ele>549</ele>
        <time>2012-11-03T09:53:58Z</time>
      </trkpt>
      <trkpt lat="45.83953" lon="4.7997">
        <ele>549</ele>
        <time>2012-11-03T09:54:04Z</time>
      </trkpt>
      <trkpt lat="45.83955" lon="4.79977">
        <ele>549</ele>
        <time>2012-11-03T09:54:07Z</time>
      </trkpt>
      <trkpt lat="45.83957" lon="4.79984">
        <ele>549</ele>
        <time>2012-11-03T09:54:10Z</time>
      </trkpt>
      <trkpt lat="45.83961" lon="4.79999">
        <ele>549</ele>
        <time>2012-11-03T09:54:16Z</time>
      </trkpt>
      <trkpt lat="45.83966" lon="4.80014">
        <ele>548</ele>
        <time>2012-11-03T09:54:22Z</time>
      </trkpt>
      <trkpt lat="45.83968" lon="4.80027">
        <ele>548</ele>
        <time>2012-11-03T09:54:27Z</time>
      </trkpt>
      <trkpt lat="45.83969" lon="4.80034">
        <ele>548</ele>
        <time>2012-11-03T09:54:29Z</time>
      </trkpt>
      <trkpt lat="45.83978" lon="4.80057">
        <ele>548</ele>
        <time>2012-11-03T09:54:36Z</time>
      </trkpt>
      <trkpt lat="45.83988" lon="4.80072">
        <ele>550</ele>
        <time>2012-11-03T09:54:41Z</time>
      </trkpt>
      <trkpt lat="45.8399" lon="4.80074">
        <ele>550</ele>
        <time>2012-11-03T09:54:42Z</time>
      </trkpt>
      <trkpt lat="45.84007" lon="4.80082">
        <ele>554</ele>
        <time>2012-11-03T09:54:48Z</time>
      </trkpt>
      <trkpt lat="45.84024" lon="4.80084">
        <ele>552</ele>
        <time>2012-11-03T09:54:55Z</time>
      </trkpt>
      <trkpt lat="45.84027" lon="4.80085">
        <ele>552</ele>
        <time>2012-11-03T09:54:56Z</time>
      </trkpt>
      <trkpt lat="45.84038" lon="4.80083">
        <ele>558</ele>
        <time>2012-11-03T09:55:02Z</time>
      </trkpt>
      <trkpt lat="45.84049" lon="4.80082">
        <ele>558</ele>
        <time>2012-11-03T09:55:08Z</time>
      </trkpt>
      <trkpt lat="45.84059" lon="4.80079">
        <ele>559</ele>
        <time>2012-11-03T09:55:14Z</time>
      </trkpt>
      <trkpt lat="45.84061" lon="4.80078">
        <ele>559</ele>
        <time>2012-11-03T09:55:15Z</time>
      </trkpt>
      <trkpt lat="45.84073" lon="4.80073">
        <ele>559</ele>
        <time>2012-11-03T09:55:23Z</time>
      </trkpt>
      <trkpt lat="45.84085" lon="4.80068">
        <ele>561</ele>
        <time>2012-11-03T09:55:29Z</time>
      </trkpt>
      <trkpt lat="45.84093" lon="4.80062">
        <ele>562</ele>
        <time>2012-11-03T09:55:34Z</time>
      </trkpt>
      <trkpt lat="45.84096" lon="4.80061">
        <ele>562</ele>
        <time>2012-11-03T09:55:35Z</time>
      </trkpt>
      <trkpt lat="45.84109" lon="4.80052">
        <ele>563</ele>
        <time>2012-11-03T09:55:42Z</time>
      </trkpt>
      <trkpt lat="45.84122" lon="4.80043">
        <ele>564</ele>
        <time>2012-11-03T09:55:49Z</time>
      </trkpt>
      <trkpt lat="45.84129" lon="4.80038">
        <ele>564</ele>
        <time>2012-11-03T09:55:53Z</time>
      </trkpt>
      <trkpt lat="45.84132" lon="4.80035">
        <ele>564</ele>
        <time>2012-11-03T09:55:55Z</time>
      </trkpt>
      <trkpt lat="45.84142" lon="4.80028">
        <ele>565</ele>
        <time>2012-11-03T09:56:01Z</time>
      </trkpt>
      <trkpt lat="45.84154" lon="4.80021">
        <ele>566</ele>
        <time>2012-11-03T09:56:08Z</time>
      </trkpt>
      <trkpt lat="45.84162" lon="4.80015">
        <ele>567</ele>
        <time>2012-11-03T09:56:13Z</time>
      </trkpt>
      <trkpt lat="45.84164" lon="4.80014">
        <ele>567</ele>
        <time>2012-11-03T09:56:14Z</time>
      </trkpt>
      <trkpt lat="45.84182" lon="4.80002">
        <ele>567</ele>
        <time>2012-11-03T09:56:24Z</time>
      </trkpt>
      <trkpt lat="45.84196" lon="4.79996">
        <ele>572</ele>
        <time>2012-11-03T09:56:32Z</time>
      </trkpt>
      <trkpt lat="45.84211" lon="4.79989">
        <ele>573</ele>
        <time>2012-11-03T09:56:41Z</time>
      </trkpt>
      <trkpt lat="45.84227" lon="4.79982">
        <ele>573</ele>
        <time>2012-11-03T09:56:49Z</time>
      </trkpt>
      <trkpt lat="45.8423" lon="4.79979">
        <ele>573</ele>
        <time>2012-11-03T09:56:51Z</time>
      </trkpt>
      <trkpt lat="45.84232" lon="4.79971">
        <ele>573</ele>
        <time>2012-11-03T09:56:54Z</time>
      </trkpt>
      <trkpt lat="45.84231" lon="4.79952">
        <ele>575</ele>
        <time>2012-11-03T09:57:01Z</time>
      </trkpt>
      <trkpt lat="45.8422" lon="4.79939">
        <ele>575</ele>
        <time>2012-11-03T09:57:07Z</time>
      </trkpt>
      <trkpt lat="45.84218" lon="4.79937">
        <ele>576</ele>
        <time>2012-11-03T09:57:08Z</time>
      </trkpt>
      <trkpt lat="45.84202" lon="4.79923">
        <ele>576</ele>
        <time>2012-11-03T09:57:15Z</time>
      </trkpt>
      <trkpt lat="45.84186" lon="4.79908">
        <ele>583</ele>
        <time>2012-11-03T09:57:23Z</time>
      </trkpt>
      <trkpt lat="45.84178" lon="4.79892">
        <ele>584</ele>
        <time>2012-11-03T09:57:29Z</time>
      </trkpt>
      <trkpt lat="45.84173" lon="4.79871">
        <ele>586</ele>
        <time>2012-11-03T09:57:36Z</time>
      </trkpt>
      <trkpt lat="45.84172" lon="4.7986">
        <ele>587</ele>
        <time>2012-11-03T09:57:39Z</time>
      </trkpt>
      <trkpt lat="45.84171" lon="4.79849">
        <ele>589</ele>
        <time>2012-11-03T09:57:43Z</time>
      </trkpt>
      <trkpt lat="45.84166" lon="4.7983">
        <ele>592</ele>
        <time>2012-11-03T09:57:51Z</time>
      </trkpt>
      <trkpt lat="45.84166" lon="4.79814">
        <ele>593</ele>
        <time>2012-11-03T09:57:57Z</time>
      </trkpt>
      <trkpt lat="45.84164" lon="4.79809">
        <ele>593</ele>
        <time>2012-11-03T09:57:59Z</time>
      </trkpt>
      <trkpt lat="45.84159" lon="4.79798">
        <ele>594</ele>
        <time>2012-11-03T09:58:04Z</time>
      </trkpt>
      <trkpt lat="45.84157" lon="4.79781">
        <ele>595</ele>
        <time>2012-11-03T09:58:10Z</time>
      </trkpt>
      <trkpt lat="45.84158" lon="4.79779">
        <ele>595</ele>
        <time>2012-11-03T09:58:11Z</time>
      </trkpt>
      <trkpt lat="45.84166" lon="4.79764">
        <ele>596</ele>
        <time>2012-11-03T09:58:17Z</time>
      </trkpt>
      <trkpt lat="45.84173" lon="4.7975">
        <ele>596</ele>
        <time>2012-11-03T09:58:24Z</time>
      </trkpt>
      <trkpt lat="45.84182" lon="4.7974">
        <ele>593</ele>
        <time>2012-11-03T09:58:31Z</time>
      </trkpt>
      <trkpt lat="45.84189" lon="4.7973">
        <ele>592</ele>
        <time>2012-11-03T09:58:36Z</time>
      </trkpt>
      <trkpt lat="45.84192" lon="4.7973">
        <ele>591</ele>
        <time>2012-11-03T09:58:37Z</time>
      </trkpt>
      <trkpt lat="45.84204" lon="4.79738">
        <ele>590</ele>
        <time>2012-11-03T09:58:40Z</time>
      </trkpt>
      <trkpt lat="45.84214" lon="4.79757">
        <ele>591</ele>
        <time>2012-11-03T09:58:43Z</time>
      </trkpt>
      <trkpt lat="45.84217" lon="4.79764">
        <ele>591</ele>
        <time>2012-11-03T09:58:44Z</time>
      </trkpt>
      <trkpt lat="45.84222" lon="4.79792">
        <ele>591</ele>
        <time>2012-11-03T09:58:48Z</time>
      </trkpt>
      <trkpt lat="45.84217" lon="4.79805">
        <ele>591</ele>
        <time>2012-11-03T09:58:52Z</time>
      </trkpt>
      <trkpt lat="45.84218" lon="4.7981">
        <ele>591</ele>
        <time>2012-11-03T09:59:02Z</time>
      </trkpt>
      <trkpt lat="45.84218" lon="4.7981">
        <ele>591</ele>
        <time>2012-11-03T09:59:07Z</time>
      </trkpt>
      <trkpt lat="45.84218" lon="4.79812">
        <ele>591</ele>
        <time>2012-11-03T09:59:52Z</time>
      </trkpt>
      <trkpt lat="45.84219" lon="4.79811">
        <ele>591</ele>
        <time>2012-11-03T09:59:56Z</time>
      </trkpt>
      <trkpt lat="45.84219" lon="4.79811">
        <ele>591</ele>
        <time>2012-11-03T10:00:00Z</time>
      </trkpt>
      <trkpt lat="45.84217" lon="4.79811">
        <ele>591</ele>
        <time>2012-11-03T10:01:04Z</time>
      </trkpt>
      <trkpt lat="45.84213" lon="4.79807">
        <ele>591</ele>
        <time>2012-11-03T10:03:21Z</time>
      </trkpt>
      <trkpt lat="45.84212" lon="4.79808">
        <ele>592</ele>
        <time>2012-11-03T10:03:34Z</time>
      </trkpt>
      <trkpt lat="45.84213" lon="4.79807">
        <ele>591</ele>
        <time>2012-11-03T10:03:43Z</time>
      </trkpt>
      <trkpt lat="45.84214" lon="4.79808">
        <ele>591</ele>
        <time>2012-11-03T10:03:59Z</time>
      </trkpt>
      <trkpt lat="45.84215" lon="4.7981">
        <ele>591</ele>
        <time>2012-11-03T10:04:09Z</time>
      </trkpt>
      <trkpt lat="45.84219" lon="4.79817">
        <ele>591</ele>
        <time>2012-11-03T10:04:12Z</time>
      </trkpt>
      <trkpt lat="45.84222" lon="4.79825">
        <ele>591</ele>
        <time>2012-11-03T10:04:14Z</time>
      </trkpt>
      <trkpt lat="45.84225" lon="4.79838">
        <ele>587</ele>
        <time>2012-11-03T10:04:16Z</time>
      </trkpt>
      <trkpt lat="45.84229" lon="4.79853">
        <ele>587</ele>
        <time>2012-11-03T10:04:18Z</time>
      </trkpt>
      <trkpt lat="45.84236" lon="4.79868">
        <ele>586</ele>
        <time>2012-11-03T10:04:20Z</time>
      </trkpt>
      <trkpt lat="45.8424" lon="4.79876">
        <ele>585</ele>
        <time>2012-11-03T10:04:21Z</time>
      </trkpt>
      <trkpt lat="45.84244" lon="4.79886">
        <ele>584</ele>
        <time>2012-11-03T10:04:22Z</time>
      </trkpt>
      <trkpt lat="45.84248" lon="4.79906">
        <ele>581</ele>
        <time>2012-11-03T10:04:24Z</time>
      </trkpt>
      <trkpt lat="45.84248" lon="4.79929">
        <ele>577</ele>
        <time>2012-11-03T10:04:26Z</time>
      </trkpt>
      <trkpt lat="45.84247" lon="4.7994">
        <ele>576</ele>
        <time>2012-11-03T10:04:27Z</time>
      </trkpt>
      <trkpt lat="45.84245" lon="4.79951">
        <ele>575</ele>
        <time>2012-11-03T10:04:28Z</time>
      </trkpt>
      <trkpt lat="45.84244" lon="4.79981">
        <ele>572</ele>
        <time>2012-11-03T10:04:31Z</time>
      </trkpt>
      <trkpt lat="45.84243" lon="4.7999">
        <ele>571</ele>
        <time>2012-11-03T10:04:32Z</time>
      </trkpt>
      <trkpt lat="45.84235" lon="4.80016">
        <ele>566</ele>
        <time>2012-11-03T10:04:35Z</time>
      </trkpt>
      <trkpt lat="45.84232" lon="4.80024">
        <ele>565</ele>
        <time>2012-11-03T10:04:36Z</time>
      </trkpt>
      <trkpt lat="45.84228" lon="4.80032">
        <ele>564</ele>
        <time>2012-11-03T10:04:37Z</time>
      </trkpt>
      <trkpt lat="45.84203" lon="4.80073">
        <ele>562</ele>
        <time>2012-11-03T10:04:43Z</time>
      </trkpt>
      <trkpt lat="45.84197" lon="4.80079">
        <ele>562</ele>
        <time>2012-11-03T10:04:44Z</time>
      </trkpt>
      <trkpt lat="45.84185" lon="4.80086">
        <ele>556</ele>
        <time>2012-11-03T10:04:46Z</time>
      </trkpt>
      <trkpt lat="45.84171" lon="4.80084">
        <ele>559</ele>
        <time>2012-11-03T10:04:49Z</time>
      </trkpt>
      <trkpt lat="45.84166" lon="4.80083">
        <ele>560</ele>
        <time>2012-11-03T10:04:50Z</time>
      </trkpt>
      <trkpt lat="45.84144" lon="4.80079">
        <ele>562</ele>
        <time>2012-11-03T10:04:55Z</time>
      </trkpt>
      <trkpt lat="45.8414" lon="4.8008">
        <ele>562</ele>
        <time>2012-11-03T10:04:56Z</time>
      </trkpt>
      <trkpt lat="45.8413" lon="4.80092">
        <ele>556</ele>
        <time>2012-11-03T10:04:59Z</time>
      </trkpt>
      <trkpt lat="45.84124" lon="4.80101">
        <ele>555</ele>
        <time>2012-11-03T10:05:01Z</time>
      </trkpt>
      <trkpt lat="45.84121" lon="4.80107">
        <ele>555</ele>
        <time>2012-11-03T10:05:02Z</time>
      </trkpt>
      <trkpt lat="45.84119" lon="4.80113">
        <ele>554</ele>
        <time>2012-11-03T10:05:03Z</time>
      </trkpt>
      <trkpt lat="45.84118" lon="4.80129">
        <ele>553</ele>
        <time>2012-11-03T10:05:06Z</time>
      </trkpt>
      <trkpt lat="45.84118" lon="4.80136">
        <ele>553</ele>
        <time>2012-11-03T10:05:07Z</time>
      </trkpt>
      <trkpt lat="45.84118" lon="4.80142">
        <ele>552</ele>
        <time>2012-11-03T10:05:08Z</time>
      </trkpt>
      <trkpt lat="45.84116" lon="4.80157">
        <ele>551</ele>
        <time>2012-11-03T10:05:11Z</time>
      </trkpt>
      <trkpt lat="45.84103" lon="4.80178">
        <ele>544</ele>
        <time>2012-11-03T10:05:16Z</time>
      </trkpt>
      <trkpt lat="45.84099" lon="4.8018">
        <ele>544</ele>
        <time>2012-11-03T10:05:17Z</time>
      </trkpt>
      <trkpt lat="45.84085" lon="4.80185">
        <ele>544</ele>
        <time>2012-11-03T10:05:20Z</time>
      </trkpt>
      <trkpt lat="45.84062" lon="4.80199">
        <ele>541</ele>
        <time>2012-11-03T10:05:25Z</time>
      </trkpt>
      <trkpt lat="45.84048" lon="4.80211">
        <ele>539</ele>
        <time>2012-11-03T10:05:29Z</time>
      </trkpt>
      <trkpt lat="45.8404" lon="4.80232">
        <ele>538</ele>
        <time>2012-11-03T10:05:34Z</time>
      </trkpt>
      <trkpt lat="45.84039" lon="4.80237">
        <ele>538</ele>
        <time>2012-11-03T10:05:35Z</time>
      </trkpt>
      <trkpt lat="45.84033" lon="4.80258">
        <ele>529</ele>
        <time>2012-11-03T10:05:39Z</time>
      </trkpt>
      <trkpt lat="45.84028" lon="4.80281">
        <ele>528</ele>
        <time>2012-11-03T10:05:44Z</time>
      </trkpt>
      <trkpt lat="45.84026" lon="4.80283">
        <ele>528</ele>
        <time>2012-11-03T10:05:45Z</time>
      </trkpt>
      <trkpt lat="45.84017" lon="4.80288">
        <ele>527</ele>
        <time>2012-11-03T10:05:48Z</time>
      </trkpt>
      <trkpt lat="45.8401" lon="4.80292">
        <ele>527</ele>
        <time>2012-11-03T10:05:50Z</time>
      </trkpt>
      <trkpt lat="45.83997" lon="4.80298">
        <ele>522</ele>
        <time>2012-11-03T10:05:53Z</time>
      </trkpt>
      <trkpt lat="45.83988" lon="4.80299">
        <ele>521</ele>
        <time>2012-11-03T10:05:55Z</time>
      </trkpt>
      <trkpt lat="45.83975" lon="4.80306">
        <ele>520</ele>
        <time>2012-11-03T10:05:59Z</time>
      </trkpt>
      <trkpt lat="45.83974" lon="4.80308">
        <ele>520</ele>
        <time>2012-11-03T10:06:00Z</time>
      </trkpt>
      <trkpt lat="45.83974" lon="4.80314">
        <ele>520</ele>
        <time>2012-11-03T10:06:02Z</time>
      </trkpt>
      <trkpt lat="45.83981" lon="4.80332">
        <ele>520</ele>
        <time>2012-11-03T10:06:06Z</time>
      </trkpt>
      <trkpt lat="45.83982" lon="4.80335">
        <ele>514</ele>
        <time>2012-11-03T10:06:07Z</time>
      </trkpt>
      <trkpt lat="45.83986" lon="4.80354">
        <ele>512</ele>
        <time>2012-11-03T10:06:12Z</time>
      </trkpt>
      <trkpt lat="45.83975" lon="4.80361">
        <ele>511</ele>
        <time>2012-11-03T10:06:15Z</time>
      </trkpt>
      <trkpt lat="45.83971" lon="4.80362">
        <ele>510</ele>
        <time>2012-11-03T10:06:16Z</time>
      </trkpt>
      <trkpt lat="45.83966" lon="4.80364">
        <ele>510</ele>
        <time>2012-11-03T10:06:17Z</time>
      </trkpt>
      <trkpt lat="45.83958" lon="4.80369">
        <ele>509</ele>
        <time>2012-11-03T10:06:19Z</time>
      </trkpt>
      <trkpt lat="45.83946" lon="4.80374">
        <ele>508</ele>
        <time>2012-11-03T10:06:24Z</time>
      </trkpt>
      <trkpt lat="45.83933" lon="4.80377">
        <ele>507</ele>
        <time>2012-11-03T10:06:29Z</time>
      </trkpt>
      <trkpt lat="45.8393" lon="4.8038">
        <ele>506</ele>
        <time>2012-11-03T10:06:30Z</time>
      </trkpt>
      <trkpt lat="45.83924" lon="4.80387">
        <ele>505</ele>
        <time>2012-11-03T10:06:32Z</time>
      </trkpt>
      <trkpt lat="45.83922" lon="4.80393">
        <ele>504</ele>
        <time>2012-11-03T10:06:33Z</time>
      </trkpt>
      <trkpt lat="45.83912" lon="4.80418">
        <ele>495</ele>
        <time>2012-11-03T10:06:38Z</time>
      </trkpt>
      <trkpt lat="45.83909" lon="4.80423">
        <ele>493</ele>
        <time>2012-11-03T10:06:39Z</time>
      </trkpt>
      <trkpt lat="45.83903" lon="4.80443">
        <ele>487</ele>
        <time>2012-11-03T10:06:43Z</time>
      </trkpt>
      <trkpt lat="45.839" lon="4.80448">
        <ele>486</ele>
        <time>2012-11-03T10:06:44Z</time>
      </trkpt>
      <trkpt lat="45.83892" lon="4.80459">
        <ele>485</ele>
        <time>2012-11-03T10:06:47Z</time>
      </trkpt>
      <trkpt lat="45.83886" lon="4.80455">
        <ele>484</ele>
        <time>2012-11-03T10:06:49Z</time>
      </trkpt>
      <trkpt lat="45.83882" lon="4.8045">
        <ele>484</ele>
        <time>2012-11-03T10:06:50Z</time>
      </trkpt>
      <trkpt lat="45.83871" lon="4.8044">
        <ele>483</ele>
        <time>2012-11-03T10:06:53Z</time>
      </trkpt>
      <trkpt lat="45.83867" lon="4.80437">
        <ele>482</ele>
        <time>2012-11-03T10:06:54Z</time>
      </trkpt>
      <trkpt lat="45.83858" lon="4.80434">
        <ele>481</ele>
        <time>2012-11-03T10:06:57Z</time>
      </trkpt>
      <trkpt lat="45.83856" lon="4.80437">
        <ele>481</ele>
        <time>2012-11-03T10:06:58Z</time>
      </trkpt>
      <trkpt lat="45.83855" lon="4.80441">
        <ele>481</ele>
        <time>2012-11-03T10:06:59Z</time>
      </trkpt>
      <trkpt lat="45.83852" lon="4.80453">
        <ele>480</ele>
        <time>2012-11-03T10:07:01Z</time>
      </trkpt>
      <trkpt lat="45.8385" lon="4.80465">
        <ele>479</ele>
        <time>2012-11-03T10:07:03Z</time>
      </trkpt>
      <trkpt lat="45.83846" lon="4.80487">
        <ele>475</ele>
        <time>2012-11-03T10:07:06Z</time>
      </trkpt>
      <trkpt lat="45.83844" lon="4.80496">
        <ele>473</ele>
        <time>2012-11-03T10:07:07Z</time>
      </trkpt>
      <trkpt lat="45.83839" lon="4.80534">
        <ele>470</ele>
        <time>2012-11-03T10:07:11Z</time>
      </trkpt>
      <trkpt lat="45.83838" lon="4.80551">
        <ele>468</ele>
        <time>2012-11-03T10:07:13Z</time>
      </trkpt>
      <trkpt lat="45.83837" lon="4.80571">
        <ele>464</ele>
        <time>2012-11-03T10:07:16Z</time>
      </trkpt>
      <trkpt lat="45.8384" lon="4.80592">
        <ele>460</ele>
        <time>2012-11-03T10:07:20Z</time>
      </trkpt>
      <trkpt lat="45.83843" lon="4.80595">
        <ele>460</ele>
        <time>2012-11-03T10:07:22Z</time>
      </trkpt>
      <trkpt lat="45.83845" lon="4.80598">
        <ele>461</ele>
        <time>2012-11-03T10:07:24Z</time>
      </trkpt>
      <trkpt lat="45.83844" lon="4.80596">
        <ele>460</ele>
        <time>2012-11-03T10:07:26Z</time>
      </trkpt>
      <trkpt lat="45.8384" lon="4.80588">
        <ele>460</ele>
        <time>2012-11-03T10:07:28Z</time>
      </trkpt>
      <trkpt lat="45.83824" lon="4.80564">
        <ele>456</ele>
        <time>2012-11-03T10:07:32Z</time>
      </trkpt>
      <trkpt lat="45.83818" lon="4.80556">
        <ele>456</ele>
        <time>2012-11-03T10:07:33Z</time>
      </trkpt>
      <trkpt lat="45.83804" lon="4.8054">
        <ele>455</ele>
        <time>2012-11-03T10:07:35Z</time>
      </trkpt>
      <trkpt lat="45.8378" lon="4.80528">
        <ele>453</ele>
        <time>2012-11-03T10:07:38Z</time>
      </trkpt>
      <trkpt lat="45.8376" lon="4.80534">
        <ele>451</ele>
        <time>2012-11-03T10:07:41Z</time>
      </trkpt>
      <trkpt lat="45.83744" lon="4.8054">
        <ele>446</ele>
        <time>2012-11-03T10:07:44Z</time>
      </trkpt>
      <trkpt lat="45.8374" lon="4.80541">
        <ele>446</ele>
        <time>2012-11-03T10:07:45Z</time>
      </trkpt>
      <trkpt lat="45.83722" lon="4.80544">
        <ele>447</ele>
        <time>2012-11-03T10:07:50Z</time>
      </trkpt>
      <trkpt lat="45.83705" lon="4.8054">
        <ele>447</ele>
        <time>2012-11-03T10:07:55Z</time>
      </trkpt>
      <trkpt lat="45.83702" lon="4.80539">
        <ele>448</ele>
        <time>2012-11-03T10:07:56Z</time>
      </trkpt>
      <trkpt lat="45.837" lon="4.80535">
        <ele>448</ele>
        <time>2012-11-03T10:07:57Z</time>
      </trkpt>
      <trkpt lat="45.83699" lon="4.80529">
        <ele>449</ele>
        <time>2012-11-03T10:07:59Z</time>
      </trkpt>
      <trkpt lat="45.83699" lon="4.80523">
        <ele>449</ele>
        <time>2012-11-03T10:08:01Z</time>
      </trkpt>
      <trkpt lat="45.837" lon="4.80517">
        <ele>450</ele>
        <time>2012-11-03T10:08:04Z</time>
      </trkpt>
      <trkpt lat="45.83699" lon="4.80505">
        <ele>450</ele>
        <time>2012-11-03T10:08:09Z</time>
      </trkpt>
      <trkpt lat="45.83701" lon="4.80492">
        <ele>457</ele>
        <time>2012-11-03T10:08:13Z</time>
      </trkpt>
      <trkpt lat="45.83703" lon="4.80486">
        <ele>457</ele>
        <time>2012-11-03T10:08:15Z</time>
      </trkpt>
      <trkpt lat="45.83703" lon="4.80467">
        <ele>458</ele>
        <time>2012-11-03T10:08:21Z</time>
      </trkpt>
      <trkpt lat="45.83699" lon="4.80449">
        <ele>459</ele>
        <time>2012-11-03T10:08:27Z</time>
      </trkpt>
      <trkpt lat="45.83698" lon="4.80441">
        <ele>460</ele>
        <time>2012-11-03T10:08:29Z</time>
      </trkpt>
      <trkpt lat="45.83698" lon="4.80432">
        <ele>460</ele>
        <time>2012-11-03T10:08:33Z</time>
      </trkpt>
      <trkpt lat="45.83694" lon="4.80413">
        <ele>466</ele>
        <time>2012-11-03T10:08:42Z</time>
      </trkpt>
      <trkpt lat="45.83693" lon="4.80402">
        <ele>466</ele>
        <time>2012-11-03T10:08:48Z</time>
      </trkpt>
      <trkpt lat="45.83692" lon="4.80394">
        <ele>466</ele>
        <time>2012-11-03T10:08:53Z</time>
      </trkpt>
      <trkpt lat="45.83692" lon="4.80392">
        <ele>466</ele>
        <time>2012-11-03T10:08:54Z</time>
      </trkpt>
      <trkpt lat="45.83692" lon="4.8039">
        <ele>466</ele>
        <time>2012-11-03T10:08:55Z</time>
      </trkpt>
      <trkpt lat="45.83692" lon="4.80387">
        <ele>466</ele>
        <time>2012-11-03T10:08:57Z</time>
      </trkpt>
      <trkpt lat="45.83691" lon="4.80384">
        <ele>466</ele>
        <time>2012-11-03T10:08:59Z</time>
      </trkpt>
      <trkpt lat="45.83686" lon="4.80382">
        <ele>466</ele>
        <time>2012-11-03T10:09:03Z</time>
      </trkpt>
      <trkpt lat="45.83679" lon="4.80381">
        <ele>467</ele>
        <time>2012-11-03T10:09:10Z</time>
      </trkpt>
      <trkpt lat="45.83671" lon="4.80382">
        <ele>467</ele>
        <time>2012-11-03T10:09:17Z</time>
      </trkpt>
      <trkpt lat="45.83666" lon="4.80386">
        <ele>469</ele>
        <time>2012-11-03T10:09:27Z</time>
      </trkpt>
      <trkpt lat="45.83666" lon="4.80386">
        <ele>469</ele>
        <time>2012-11-03T10:09:44Z</time>
      </trkpt>
      <trkpt lat="45.83666" lon="4.80387">
        <ele>469</ele>
        <time>2012-11-03T10:09:45Z</time>
      </trkpt>
      <trkpt lat="45.83665" lon="4.80389">
        <ele>469</ele>
        <time>2012-11-03T10:09:49Z</time>
      </trkpt>
      <trkpt lat="45.83664" lon="4.80388">
        <ele>469</ele>
        <time>2012-11-03T10:09:51Z</time>
      </trkpt>
      <trkpt lat="45.83658" lon="4.8039">
        <ele>469</ele>
        <time>2012-11-03T10:09:56Z</time>
      </trkpt>
      <trkpt lat="45.8365" lon="4.80394">
        <ele>469</ele>
        <time>2012-11-03T10:10:02Z</time>
      </trkpt>
      <trkpt lat="45.83649" lon="4.80395">
        <ele>469</ele>
        <time>2012-11-03T10:10:03Z</time>
      </trkpt>
      <trkpt lat="45.83643" lon="4.804">
        <ele>469</ele>
        <time>2012-11-03T10:10:07Z</time>
      </trkpt>
      <trkpt lat="45.83635" lon="4.80406">
        <ele>470</ele>
        <time>2012-11-03T10:10:13Z</time>
      </trkpt>
      <trkpt lat="45.83631" lon="4.8041">
        <ele>470</ele>
        <time>2012-11-03T10:10:17Z</time>
      </trkpt>
      <trkpt lat="45.83627" lon="4.80413">
        <ele>470</ele>
        <time>2012-11-03T10:10:19Z</time>
      </trkpt>
      <trkpt lat="45.83617" lon="4.80421">
        <ele>467</ele>
        <time>2012-11-03T10:10:25Z</time>
      </trkpt>
      <trkpt lat="45.83606" lon="4.80428">
        <ele>467</ele>
        <time>2012-11-03T10:10:30Z</time>
      </trkpt>
      <trkpt lat="45.83596" lon="4.80435">
        <ele>467</ele>
        <time>2012-11-03T10:10:33Z</time>
      </trkpt>
      <trkpt lat="45.83588" lon="4.8044">
        <ele>467</ele>
        <time>2012-11-03T10:10:35Z</time>
      </trkpt>
      <trkpt lat="45.8356" lon="4.80459">
        <ele>466</ele>
        <time>2012-11-03T10:10:41Z</time>
      </trkpt>
      <trkpt lat="45.83556" lon="4.80462">
        <ele>466</ele>
        <time>2012-11-03T10:10:42Z</time>
      </trkpt>
      <trkpt lat="45.83537" lon="4.80476">
        <ele>465</ele>
        <time>2012-11-03T10:10:46Z</time>
      </trkpt>
      <trkpt lat="45.83527" lon="4.80483">
        <ele>464</ele>
        <time>2012-11-03T10:10:48Z</time>
      </trkpt>
      <trkpt lat="45.83521" lon="4.80488">
        <ele>464</ele>
        <time>2012-11-03T10:10:49Z</time>
      </trkpt>
      <trkpt lat="45.83516" lon="4.80493">
        <ele>463</ele>
        <time>2012-11-03T10:10:50Z</time>
      </trkpt>
      <trkpt lat="45.83498" lon="4.80509">
        <ele>458</ele>
        <time>2012-11-03T10:10:53Z</time>
      </trkpt>
      <trkpt lat="45.83492" lon="4.80514">
        <ele>456</ele>
        <time>2012-11-03T10:10:54Z</time>
      </trkpt>
      <trkpt lat="45.83486" lon="4.80518">
        <ele>455</ele>
        <time>2012-11-03T10:10:55Z</time>
      </trkpt>
      <trkpt lat="45.83474" lon="4.80525">
        <ele>454</ele>
        <time>2012-11-03T10:10:57Z</time>
      </trkpt>
      <trkpt lat="45.83458" lon="4.80529">
        <ele>452</ele>
        <time>2012-11-03T10:11:00Z</time>
      </trkpt>
      <trkpt lat="45.83453" lon="4.8053">
        <ele>452</ele>
        <time>2012-11-03T10:11:01Z</time>
      </trkpt>
      <trkpt lat="45.8344" lon="4.80538">
        <ele>451</ele>
        <time>2012-11-03T10:11:04Z</time>
      </trkpt>
      <trkpt lat="45.83425" lon="4.80549">
        <ele>450</ele>
        <time>2012-11-03T10:11:08Z</time>
      </trkpt>
      <trkpt lat="45.83415" lon="4.80554">
        <ele>442</ele>
        <time>2012-11-03T10:11:10Z</time>
      </trkpt>
      <trkpt lat="45.83404" lon="4.80559">
        <ele>441</ele>
        <time>2012-11-03T10:11:12Z</time>
      </trkpt>
      <trkpt lat="45.83398" lon="4.80561">
        <ele>441</ele>
        <time>2012-11-03T10:11:13Z</time>
      </trkpt>
      <trkpt lat="45.83381" lon="4.80567">
        <ele>440</ele>
        <time>2012-11-03T10:11:16Z</time>
      </trkpt>
      <trkpt lat="45.83379" lon="4.80569">
        <ele>440</ele>
        <time>2012-11-03T10:11:17Z</time>
      </trkpt>
      <trkpt lat="45.83378" lon="4.80572">
        <ele>439</ele>
        <time>2012-11-03T10:11:18Z</time>
      </trkpt>
      <trkpt lat="45.83378" lon="4.80576">
        <ele>439</ele>
        <time>2012-11-03T10:11:19Z</time>
      </trkpt>
      <trkpt lat="45.8338" lon="4.80593">
        <ele>436</ele>
        <time>2012-11-03T10:11:22Z</time>
      </trkpt>
      <trkpt lat="45.83382" lon="4.80605">
        <ele>436</ele>
        <time>2012-11-03T10:11:24Z</time>
      </trkpt>
      <trkpt lat="45.83383" lon="4.80618">
        <ele>435</ele>
        <time>2012-11-03T10:11:26Z</time>
      </trkpt>
      <trkpt lat="45.83384" lon="4.80631">
        <ele>435</ele>
        <time>2012-11-03T10:11:28Z</time>
      </trkpt>
      <trkpt lat="45.83384" lon="4.80645">
        <ele>435</ele>
        <time>2012-11-03T10:11:30Z</time>
      </trkpt>
      <trkpt lat="45.83387" lon="4.80661">
        <ele>435</ele>
        <time>2012-11-03T10:11:33Z</time>
      </trkpt>
      <trkpt lat="45.83381" lon="4.80669">
        <ele>431</ele>
        <time>2012-11-03T10:11:36Z</time>
      </trkpt>
      <trkpt lat="45.83369" lon="4.80671">
        <ele>430</ele>
        <time>2012-11-03T10:11:39Z</time>
      </trkpt>
      <trkpt lat="45.83367" lon="4.80671">
        <ele>430</ele>
        <time>2012-11-03T10:11:40Z</time>
      </trkpt>
      <trkpt lat="45.83359" lon="4.80669">
        <ele>430</ele>
        <time>2012-11-03T10:11:43Z</time>
      </trkpt>
      <trkpt lat="45.83356" lon="4.8067">
        <ele>430</ele>
        <time>2012-11-03T10:11:44Z</time>
      </trkpt>
      <trkpt lat="45.83346" lon="4.80681">
        <ele>429</ele>
        <time>2012-11-03T10:11:48Z</time>
      </trkpt>
      <trkpt lat="45.83345" lon="4.80685">
        <ele>429</ele>
        <time>2012-11-03T10:11:49Z</time>
      </trkpt>
      <trkpt lat="45.83334" lon="4.807">
        <ele>429</ele>
        <time>2012-11-03T10:11:53Z</time>
      </trkpt>
      <trkpt lat="45.8332" lon="4.80708">
        <ele>424</ele>
        <time>2012-11-03T10:11:57Z</time>
      </trkpt>
      <trkpt lat="45.83317" lon="4.8071">
        <ele>424</ele>
        <time>2012-11-03T10:11:58Z</time>
      </trkpt>
      <trkpt lat="45.83305" lon="4.80718">
        <ele>423</ele>
        <time>2012-11-03T10:12:02Z</time>
      </trkpt>
      <trkpt lat="45.83301" lon="4.80717">
        <ele>423</ele>
        <time>2012-11-03T10:12:04Z</time>
      </trkpt>
      <trkpt lat="45.83294" lon="4.8072">
        <ele>423</ele>
        <time>2012-11-03T10:12:07Z</time>
      </trkpt>
      <trkpt lat="45.83287" lon="4.80737">
        <ele>423</ele>
        <time>2012-11-03T10:12:11Z</time>
      </trkpt>
      <trkpt lat="45.83282" lon="4.80753">
        <ele>421</ele>
        <time>2012-11-03T10:12:15Z</time>
      </trkpt>
      <trkpt lat="45.83276" lon="4.80763">
        <ele>421</ele>
        <time>2012-11-03T10:12:19Z</time>
      </trkpt>
      <trkpt lat="45.83271" lon="4.80768">
        <ele>420</ele>
        <time>2012-11-03T10:12:21Z</time>
      </trkpt>
      <trkpt lat="45.8326" lon="4.80772">
        <ele>420</ele>
        <time>2012-11-03T10:12:24Z</time>
      </trkpt>
      <trkpt lat="45.83251" lon="4.80783">
        <ele>420</ele>
        <time>2012-11-03T10:12:28Z</time>
      </trkpt>
      <trkpt lat="45.83232" lon="4.80805">
        <ele>418</ele>
        <time>2012-11-03T10:12:33Z</time>
      </trkpt>
      <trkpt lat="45.83215" lon="4.80832">
        <ele>418</ele>
        <time>2012-11-03T10:12:36Z</time>
      </trkpt>
      <trkpt lat="45.83209" lon="4.80834">
        <ele>414</ele>
        <time>2012-11-03T10:12:37Z</time>
      </trkpt>
      <trkpt lat="45.83202" lon="4.80832">
        <ele>418</ele>
        <time>2012-11-03T10:12:39Z</time>
      </trkpt>
      <trkpt lat="45.83191" lon="4.80821">
        <ele>419</ele>
        <time>2012-11-03T10:12:41Z</time>
      </trkpt>
      <trkpt lat="45.83174" lon="4.80813">
        <ele>419</ele>
        <time>2012-11-03T10:12:44Z</time>
      </trkpt>
      <trkpt lat="45.83171" lon="4.80815">
        <ele>419</ele>
        <time>2012-11-03T10:12:45Z</time>
      </trkpt>
      <trkpt lat="45.83167" lon="4.80816">
        <ele>420</ele>
        <time>2012-11-03T10:12:46Z</time>
      </trkpt>
      <trkpt lat="45.83158" lon="4.80828">
        <ele>419</ele>
        <time>2012-11-03T10:12:49Z</time>
      </trkpt>
      <trkpt lat="45.83156" lon="4.80835">
        <ele>417</ele>
        <time>2012-11-03T10:12:51Z</time>
      </trkpt>
      <trkpt lat="45.83157" lon="4.80838">
        <ele>417</ele>
        <time>2012-11-03T10:12:52Z</time>
      </trkpt>
      <trkpt lat="45.83165" lon="4.80861">
        <ele>416</ele>
        <time>2012-11-03T10:12:57Z</time>
      </trkpt>
      <trkpt lat="45.83171" lon="4.80882">
        <ele>411</ele>
        <time>2012-11-03T10:13:01Z</time>
      </trkpt>
      <trkpt lat="45.83172" lon="4.809">
        <ele>409</ele>
        <time>2012-11-03T10:13:03Z</time>
      </trkpt>
      <trkpt lat="45.83171" lon="4.80917">
        <ele>404</ele>
        <time>2012-11-03T10:13:05Z</time>
      </trkpt>
      <trkpt lat="45.83171" lon="4.80926">
        <ele>403</ele>
        <time>2012-11-03T10:13:06Z</time>
      </trkpt>
      <trkpt lat="45.83167" lon="4.80949">
        <ele>403</ele>
        <time>2012-11-03T10:13:09Z</time>
      </trkpt>
      <trkpt lat="45.83164" lon="4.80954">
        <ele>402</ele>
        <time>2012-11-03T10:13:10Z</time>
      </trkpt>
      <trkpt lat="45.83155" lon="4.80967">
        <ele>401</ele>
        <time>2012-11-03T10:13:13Z</time>
      </trkpt>
      <trkpt lat="45.83151" lon="4.80972">
        <ele>400</ele>
        <time>2012-11-03T10:13:14Z</time>
      </trkpt>
      <trkpt lat="45.8313" lon="4.80982">
        <ele>402</ele>
        <time>2012-11-03T10:13:18Z</time>
      </trkpt>
      <trkpt lat="45.83121" lon="4.80984">
        <ele>403</ele>
        <time>2012-11-03T10:13:20Z</time>
      </trkpt>
      <trkpt lat="45.8311" lon="4.80986">
        <ele>404</ele>
        <time>2012-11-03T10:13:23Z</time>
      </trkpt>
      <trkpt lat="45.83098" lon="4.81">
        <ele>404</ele>
        <time>2012-11-03T10:13:28Z</time>
      </trkpt>
      <trkpt lat="45.83091" lon="4.81007">
        <ele>399</ele>
        <time>2012-11-03T10:13:31Z</time>
      </trkpt>
      <trkpt lat="45.83087" lon="4.81014">
        <ele>397</ele>
        <time>2012-11-03T10:13:33Z</time>
      </trkpt>
      <trkpt lat="45.83077" lon="4.81031">
        <ele>401</ele>
        <time>2012-11-03T10:13:38Z</time>
      </trkpt>
      <trkpt lat="45.83067" lon="4.81043">
        <ele>400</ele>
        <time>2012-11-03T10:13:43Z</time>
      </trkpt>
      <trkpt lat="45.83065" lon="4.81045">
        <ele>400</ele>
        <time>2012-11-03T10:13:44Z</time>
      </trkpt>
      <trkpt lat="45.83059" lon="4.81046">
        <ele>401</ele>
        <time>2012-11-03T10:13:48Z</time>
      </trkpt>
      <trkpt lat="45.8305" lon="4.81047">
        <ele>401</ele>
        <time>2012-11-03T10:13:54Z</time>
      </trkpt>
      <trkpt lat="45.83045" lon="4.81048">
        <ele>402</ele>
        <time>2012-11-03T10:13:58Z</time>
      </trkpt>
      <trkpt lat="45.83043" lon="4.81049">
        <ele>402</ele>
        <time>2012-11-03T10:14:01Z</time>
      </trkpt>
      <trkpt lat="45.83036" lon="4.81054">
        <ele>402</ele>
        <time>2012-11-03T10:14:08Z</time>
      </trkpt>
      <trkpt lat="45.83035" lon="4.81055">
        <ele>402</ele>
        <time>2012-11-03T10:14:09Z</time>
      </trkpt>
      <trkpt lat="45.8303" lon="4.81056">
        <ele>402</ele>
        <time>2012-11-03T10:14:13Z</time>
      </trkpt>
      <trkpt lat="45.83029" lon="4.81057">
        <ele>402</ele>
        <time>2012-11-03T10:14:15Z</time>
      </trkpt>
      <trkpt lat="45.83025" lon="4.81059">
        <ele>403</ele>
        <time>2012-11-03T10:14:18Z</time>
      </trkpt>
      <trkpt lat="45.83021" lon="4.81059">
        <ele>403</ele>
        <time>2012-11-03T10:14:21Z</time>
      </trkpt>
      <trkpt lat="45.83012" lon="4.81065">
        <ele>403</ele>
        <time>2012-11-03T10:14:28Z</time>
      </trkpt>
      <trkpt lat="45.83011" lon="4.81065">
        <ele>403</ele>
        <time>2012-11-03T10:14:29Z</time>
      </trkpt>
      <trkpt lat="45.83006" lon="4.81068">
        <ele>403</ele>
        <time>2012-11-03T10:14:33Z</time>
      </trkpt>
      <trkpt lat="45.82996" lon="4.81071">
        <ele>406</ele>
        <time>2012-11-03T10:14:40Z</time>
      </trkpt>
      <trkpt lat="45.82995" lon="4.81072">
        <ele>406</ele>
        <time>2012-11-03T10:14:41Z</time>
      </trkpt>
      <trkpt lat="45.82985" lon="4.81074">
        <ele>407</ele>
        <time>2012-11-03T10:14:47Z</time>
      </trkpt>
      <trkpt lat="45.82976" lon="4.81079">
        <ele>407</ele>
        <time>2012-11-03T10:14:55Z</time>
      </trkpt>
      <trkpt lat="45.82968" lon="4.81085">
        <ele>402</ele>
        <time>2012-11-03T10:15:02Z</time>
      </trkpt>
      <trkpt lat="45.82962" lon="4.81091">
        <ele>402</ele>
        <time>2012-11-03T10:15:09Z</time>
      </trkpt>
      <trkpt lat="45.8295" lon="4.81094">
        <ele>402</ele>
        <time>2012-11-03T10:15:16Z</time>
      </trkpt>
      <trkpt lat="45.82942" lon="4.81097">
        <ele>403</ele>
        <time>2012-11-03T10:15:21Z</time>
      </trkpt>
      <trkpt lat="45.82931" lon="4.81099">
        <ele>404</ele>
        <time>2012-11-03T10:15:28Z</time>
      </trkpt>
      <trkpt lat="45.82927" lon="4.81101">
        <ele>404</ele>
        <time>2012-11-03T10:15:31Z</time>
      </trkpt>
      <trkpt lat="45.8292" lon="4.81101">
        <ele>405</ele>
        <time>2012-11-03T10:15:35Z</time>
      </trkpt>
      <trkpt lat="45.82911" lon="4.81102">
        <ele>408</ele>
        <time>2012-11-03T10:15:41Z</time>
      </trkpt>
      <trkpt lat="45.82901" lon="4.81106">
        <ele>408</ele>
        <time>2012-11-03T10:15:48Z</time>
      </trkpt>
      <trkpt lat="45.82891" lon="4.81107">
        <ele>408</ele>
        <time>2012-11-03T10:15:54Z</time>
      </trkpt>
      <trkpt lat="45.82888" lon="4.81109">
        <ele>408</ele>
        <time>2012-11-03T10:15:56Z</time>
      </trkpt>
      <trkpt lat="45.82878" lon="4.81114">
        <ele>408</ele>
        <time>2012-11-03T10:16:00Z</time>
      </trkpt>
      <trkpt lat="45.82876" lon="4.81112">
        <ele>408</ele>
        <time>2012-11-03T10:16:01Z</time>
      </trkpt>
      <trkpt lat="45.82867" lon="4.81107">
        <ele>407</ele>
        <time>2012-11-03T10:16:06Z</time>
      </trkpt>
      <trkpt lat="45.82862" lon="4.81111">
        <ele>407</ele>
        <time>2012-11-03T10:16:08Z</time>
      </trkpt>
      <trkpt lat="45.82859" lon="4.81114">
        <ele>407</ele>
        <time>2012-11-03T10:16:09Z</time>
      </trkpt>
      <trkpt lat="45.82856" lon="4.81117">
        <ele>407</ele>
        <time>2012-11-03T10:16:10Z</time>
      </trkpt>
      <trkpt lat="45.82839" lon="4.81129">
        <ele>408</ele>
        <time>2012-11-03T10:16:15Z</time>
      </trkpt>
      <trkpt lat="45.82832" lon="4.81136">
        <ele>407</ele>
        <time>2012-11-03T10:16:17Z</time>
      </trkpt>
      <trkpt lat="45.82829" lon="4.8114">
        <ele>407</ele>
        <time>2012-11-03T10:16:18Z</time>
      </trkpt>
      <trkpt lat="45.82826" lon="4.81145">
        <ele>407</ele>
        <time>2012-11-03T10:16:19Z</time>
      </trkpt>
      <trkpt lat="45.82821" lon="4.81155">
        <ele>408</ele>
        <time>2012-11-03T10:16:21Z</time>
      </trkpt>
      <trkpt lat="45.8281" lon="4.81186">
        <ele>410</ele>
        <time>2012-11-03T10:16:27Z</time>
      </trkpt>
      <trkpt lat="45.82808" lon="4.81191">
        <ele>410</ele>
        <time>2012-11-03T10:16:28Z</time>
      </trkpt>
      <trkpt lat="45.82796" lon="4.81239">
        <ele>411</ele>
        <time>2012-11-03T10:16:37Z</time>
      </trkpt>
      <trkpt lat="45.8279" lon="4.8128">
        <ele>413</ele>
        <time>2012-11-03T10:16:46Z</time>
      </trkpt>
      <trkpt lat="45.82788" lon="4.81292">
        <ele>413</ele>
        <time>2012-11-03T10:16:49Z</time>
      </trkpt>
      <trkpt lat="45.82786" lon="4.81312">
        <ele>413</ele>
        <time>2012-11-03T10:16:54Z</time>
      </trkpt>
      <trkpt lat="45.82781" lon="4.81346">
        <ele>415</ele>
        <time>2012-11-03T10:17:03Z</time>
      </trkpt>
      <trkpt lat="45.82779" lon="4.81353">
        <ele>415</ele>
        <time>2012-11-03T10:17:05Z</time>
      </trkpt>
      <trkpt lat="45.82778" lon="4.81375">
        <ele>415</ele>
        <time>2012-11-03T10:17:11Z</time>
      </trkpt>
      <trkpt lat="45.82774" lon="4.8139">
        <ele>416</ele>
        <time>2012-11-03T10:17:17Z</time>
      </trkpt>
      <trkpt lat="45.82773" lon="4.81396">
        <ele>416</ele>
        <time>2012-11-03T10:17:19Z</time>
      </trkpt>
      <trkpt lat="45.82774" lon="4.81409">
        <ele>417</ele>
        <time>2012-11-03T10:17:23Z</time>
      </trkpt>
      <trkpt lat="45.82772" lon="4.81425">
        <ele>418</ele>
        <time>2012-11-03T10:17:30Z</time>
      </trkpt>
      <trkpt lat="45.8277" lon="4.81436">
        <ele>418</ele>
        <time>2012-11-03T10:17:35Z</time>
      </trkpt>
      <trkpt lat="45.8277" lon="4.81438">
        <ele>418</ele>
        <time>2012-11-03T10:17:36Z</time>
      </trkpt>
      <trkpt lat="45.82768" lon="4.81446">
        <ele>418</ele>
        <time>2012-11-03T10:17:40Z</time>
      </trkpt>
      <trkpt lat="45.82768" lon="4.81449">
        <ele>418</ele>
        <time>2012-11-03T10:17:41Z</time>
      </trkpt>
      <trkpt lat="45.82766" lon="4.81453">
        <ele>418</ele>
        <time>2012-11-03T10:17:43Z</time>
      </trkpt>
      <trkpt lat="45.82761" lon="4.81465">
        <ele>419</ele>
        <time>2012-11-03T10:17:49Z</time>
      </trkpt>
      <trkpt lat="45.82758" lon="4.81475">
        <ele>421</ele>
        <time>2012-11-03T10:17:53Z</time>
      </trkpt>
      <trkpt lat="45.82757" lon="4.81481">
        <ele>422</ele>
        <time>2012-11-03T10:17:55Z</time>
      </trkpt>
      <trkpt lat="45.82755" lon="4.81497">
        <ele>427</ele>
        <time>2012-11-03T10:18:01Z</time>
      </trkpt>
      <trkpt lat="45.82755" lon="4.81499">
        <ele>428</ele>
        <time>2012-11-03T10:18:02Z</time>
      </trkpt>
      <trkpt lat="45.82756" lon="4.81516">
        <ele>425</ele>
        <time>2012-11-03T10:18:09Z</time>
      </trkpt>
      <trkpt lat="45.82755" lon="4.81518">
        <ele>425</ele>
        <time>2012-11-03T10:18:10Z</time>
      </trkpt>
      <trkpt lat="45.8275" lon="4.8152">
        <ele>425</ele>
        <time>2012-11-03T10:18:13Z</time>
      </trkpt>
      <trkpt lat="45.82738" lon="4.81525">
        <ele>435</ele>
        <time>2012-11-03T10:18:21Z</time>
      </trkpt>
      <trkpt lat="45.82735" lon="4.81527">
        <ele>435</ele>
        <time>2012-11-03T10:18:24Z</time>
      </trkpt>
      <trkpt lat="45.82728" lon="4.81531">
        <ele>435</ele>
        <time>2012-11-03T10:18:29Z</time>
      </trkpt>
      <trkpt lat="45.82725" lon="4.81536">
        <ele>436</ele>
        <time>2012-11-03T10:18:32Z</time>
      </trkpt>
      <trkpt lat="45.82724" lon="4.81543">
        <ele>436</ele>
        <time>2012-11-03T10:18:35Z</time>
      </trkpt>
      <trkpt lat="45.82724" lon="4.81545">
        <ele>436</ele>
        <time>2012-11-03T10:18:36Z</time>
      </trkpt>
      <trkpt lat="45.82722" lon="4.81554">
        <ele>436</ele>
        <time>2012-11-03T10:18:41Z</time>
      </trkpt>
      <trkpt lat="45.8272" lon="4.81565">
        <ele>436</ele>
        <time>2012-11-03T10:18:48Z</time>
      </trkpt>
      <trkpt lat="45.8272" lon="4.81569">
        <ele>436</ele>
        <time>2012-11-03T10:18:50Z</time>
      </trkpt>
      <trkpt lat="45.82719" lon="4.81572">
        <ele>437</ele>
        <time>2012-11-03T10:18:52Z</time>
      </trkpt>
      <trkpt lat="45.82718" lon="4.81578">
        <ele>437</ele>
        <time>2012-11-03T10:18:55Z</time>
      </trkpt>
      <trkpt lat="45.82717" lon="4.8158">
        <ele>437</ele>
        <time>2012-11-03T10:18:56Z</time>
      </trkpt>
      <trkpt lat="45.82713" lon="4.81593">
        <ele>439</ele>
        <time>2012-11-03T10:19:03Z</time>
      </trkpt>
      <trkpt lat="45.8271" lon="4.81604">
        <ele>439</ele>
        <time>2012-11-03T10:19:09Z</time>
      </trkpt>
      <trkpt lat="45.82708" lon="4.81618">
        <ele>439</ele>
        <time>2012-11-03T10:19:16Z</time>
      </trkpt>
      <trkpt lat="45.82707" lon="4.81627">
        <ele>439</ele>
        <time>2012-11-03T10:19:20Z</time>
      </trkpt>
      <trkpt lat="45.82706" lon="4.81635">
        <ele>439</ele>
        <time>2012-11-03T10:19:23Z</time>
      </trkpt>
      <trkpt lat="45.82702" lon="4.81658">
        <ele>439</ele>
        <time>2012-11-03T10:19:31Z</time>
      </trkpt>
      <trkpt lat="45.827" lon="4.81671">
        <ele>441</ele>
        <time>2012-11-03T10:19:35Z</time>
      </trkpt>
      <trkpt lat="45.827" lon="4.81676">
        <ele>441</ele>
        <time>2012-11-03T10:19:37Z</time>
      </trkpt>
      <trkpt lat="45.82699" lon="4.81694">
        <ele>441</ele>
        <time>2012-11-03T10:19:43Z</time>
      </trkpt>
      <trkpt lat="45.82696" lon="4.81709">
        <ele>441</ele>
        <time>2012-11-03T10:19:49Z</time>
      </trkpt>
      <trkpt lat="45.82694" lon="4.81723">
        <ele>442</ele>
        <time>2012-11-03T10:19:54Z</time>
      </trkpt>
      <trkpt lat="45.82694" lon="4.81726">
        <ele>442</ele>
        <time>2012-11-03T10:19:55Z</time>
      </trkpt>
      <trkpt lat="45.82691" lon="4.81746">
        <ele>443</ele>
        <time>2012-11-03T10:20:02Z</time>
      </trkpt>
      <trkpt lat="45.82687" lon="4.81765">
        <ele>445</ele>
        <time>2012-11-03T10:20:09Z</time>
      </trkpt>
      <trkpt lat="45.82686" lon="4.81774">
        <ele>445</ele>
        <time>2012-11-03T10:20:12Z</time>
      </trkpt>
      <trkpt lat="45.82685" lon="4.81787">
        <ele>445</ele>
        <time>2012-11-03T10:20:17Z</time>
      </trkpt>
      <trkpt lat="45.82682" lon="4.8181">
        <ele>446</ele>
        <time>2012-11-03T10:20:25Z</time>
      </trkpt>
      <trkpt lat="45.82679" lon="4.81827">
        <ele>448</ele>
        <time>2012-11-03T10:20:31Z</time>
      </trkpt>
      <trkpt lat="45.82678" lon="4.8183">
        <ele>448</ele>
        <time>2012-11-03T10:20:32Z</time>
      </trkpt>
      <trkpt lat="45.82673" lon="4.81851">
        <ele>449</ele>
        <time>2012-11-03T10:20:40Z</time>
      </trkpt>
      <trkpt lat="45.82666" lon="4.81867">
        <ele>453</ele>
        <time>2012-11-03T10:20:46Z</time>
      </trkpt>
      <trkpt lat="45.82663" lon="4.81875">
        <ele>453</ele>
        <time>2012-11-03T10:20:49Z</time>
      </trkpt>
      <trkpt lat="45.82659" lon="4.81886">
        <ele>454</ele>
        <time>2012-11-03T10:20:53Z</time>
      </trkpt>
      <trkpt lat="45.82657" lon="4.819">
        <ele>454</ele>
        <time>2012-11-03T10:20:58Z</time>
      </trkpt>
      <trkpt lat="45.8265" lon="4.81923">
        <ele>455</ele>
        <time>2012-11-03T10:21:05Z</time>
      </trkpt>
      <trkpt lat="45.82642" lon="4.81945">
        <ele>455</ele>
        <time>2012-11-03T10:21:12Z</time>
      </trkpt>
      <trkpt lat="45.82637" lon="4.81973">
        <ele>455</ele>
        <time>2012-11-03T10:21:17Z</time>
      </trkpt>
      <trkpt lat="45.82636" lon="4.81979">
        <ele>455</ele>
        <time>2012-11-03T10:21:18Z</time>
      </trkpt>
      <trkpt lat="45.8263" lon="4.82009">
        <ele>455</ele>
        <time>2012-11-03T10:21:24Z</time>
      </trkpt>
      <trkpt lat="45.82629" lon="4.82015">
        <ele>455</ele>
        <time>2012-11-03T10:21:28Z</time>
      </trkpt>
      <trkpt lat="45.82627" lon="4.8202">
        <ele>455</ele>
        <time>2012-11-03T10:21:50Z</time>
      </trkpt>
      <trkpt lat="45.82628" lon="4.8202">
        <ele>455</ele>
        <time>2012-11-03T10:21:51Z</time>
      </trkpt>
      <trkpt lat="45.82632" lon="4.8202">
        <ele>455</ele>
        <time>2012-11-03T10:21:53Z</time>
      </trkpt>
      <trkpt lat="45.82634" lon="4.82021">
        <ele>455</ele>
        <time>2012-11-03T10:21:54Z</time>
      </trkpt>
      <trkpt lat="45.82641" lon="4.82028">
        <ele>454</ele>
        <time>2012-11-03T10:21:57Z</time>
      </trkpt>
      <trkpt lat="45.82651" lon="4.82027">
        <ele>454</ele>
        <time>2012-11-03T10:22:01Z</time>
      </trkpt>
      <trkpt lat="45.82658" lon="4.82028">
        <ele>453</ele>
        <time>2012-11-03T10:22:03Z</time>
      </trkpt>
      <trkpt lat="45.82664" lon="4.82024">
        <ele>453</ele>
        <time>2012-11-03T10:22:05Z</time>
      </trkpt>
      <trkpt lat="45.82678" lon="4.82014">
        <ele>446</ele>
        <time>2012-11-03T10:22:09Z</time>
      </trkpt>
      <trkpt lat="45.82688" lon="4.82002">
        <ele>445</ele>
        <time>2012-11-03T10:22:12Z</time>
      </trkpt>
      <trkpt lat="45.82696" lon="4.81997">
        <ele>446</ele>
        <time>2012-11-03T10:22:15Z</time>
      </trkpt>
      <trkpt lat="45.82698" lon="4.81997">
        <ele>445</ele>
        <time>2012-11-03T10:22:16Z</time>
      </trkpt>
      <trkpt lat="45.8271" lon="4.81998">
        <ele>443</ele>
        <time>2012-11-03T10:22:20Z</time>
      </trkpt>
      <trkpt lat="45.82713" lon="4.81995">
        <ele>443</ele>
        <time>2012-11-03T10:22:21Z</time>
      </trkpt>
      <trkpt lat="45.82729" lon="4.81991">
        <ele>440</ele>
        <time>2012-11-03T10:22:25Z</time>
      </trkpt>
      <trkpt lat="45.82732" lon="4.81991">
        <ele>439</ele>
        <time>2012-11-03T10:22:26Z</time>
      </trkpt>
      <trkpt lat="45.82736" lon="4.81991">
        <ele>438</ele>
        <time>2012-11-03T10:22:28Z</time>
      </trkpt>
      <trkpt lat="45.82737" lon="4.81991">
        <ele>438</ele>
        <time>2012-11-03T10:22:29Z</time>
      </trkpt>
      <trkpt lat="45.82741" lon="4.8199">
        <ele>438</ele>
        <time>2012-11-03T10:22:31Z</time>
      </trkpt>
      <trkpt lat="45.82743" lon="4.8199">
        <ele>437</ele>
        <time>2012-11-03T10:22:32Z</time>
      </trkpt>
      <trkpt lat="45.8276" lon="4.81992">
        <ele>431</ele>
        <time>2012-11-03T10:22:37Z</time>
      </trkpt>
      <trkpt lat="45.82763" lon="4.81993">
        <ele>430</ele>
        <time>2012-11-03T10:22:39Z</time>
      </trkpt>
      <trkpt lat="45.82768" lon="4.81996">
        <ele>430</ele>
        <time>2012-11-03T10:22:41Z</time>
      </trkpt>
      <trkpt lat="45.8277" lon="4.81998">
        <ele>430</ele>
        <time>2012-11-03T10:22:42Z</time>
      </trkpt>
      <trkpt lat="45.82777" lon="4.81999">
        <ele>429</ele>
        <time>2012-11-03T10:22:45Z</time>
      </trkpt>
      <trkpt lat="45.82787" lon="4.82">
        <ele>427</ele>
        <time>2012-11-03T10:22:49Z</time>
      </trkpt>
      <trkpt lat="45.82799" lon="4.81999">
        <ele>426</ele>
        <time>2012-11-03T10:22:53Z</time>
      </trkpt>
      <trkpt lat="45.82801" lon="4.82001">
        <ele>422</ele>
        <time>2012-11-03T10:22:54Z</time>
      </trkpt>
      <trkpt lat="45.82807" lon="4.82004">
        <ele>422</ele>
        <time>2012-11-03T10:22:56Z</time>
      </trkpt>
      <trkpt lat="45.82817" lon="4.82008">
        <ele>420</ele>
        <time>2012-11-03T10:22:59Z</time>
      </trkpt>
      <trkpt lat="45.82832" lon="4.8201">
        <ele>418</ele>
        <time>2012-11-03T10:23:03Z</time>
      </trkpt>
      <trkpt lat="45.82836" lon="4.82011">
        <ele>413</ele>
        <time>2012-11-03T10:23:07Z</time>
      </trkpt>
      <trkpt lat="45.82841" lon="4.82011">
        <ele>413</ele>
        <time>2012-11-03T10:23:14Z</time>
      </trkpt>
      <trkpt lat="45.82844" lon="4.82013">
        <ele>412</ele>
        <time>2012-11-03T10:23:16Z</time>
      </trkpt>
      <trkpt lat="45.82845" lon="4.82012">
        <ele>412</ele>
        <time>2012-11-03T10:23:17Z</time>
      </trkpt>
      <trkpt lat="45.82855" lon="4.8201">
        <ele>411</ele>
        <time>2012-11-03T10:23:22Z</time>
      </trkpt>
      <trkpt lat="45.8287" lon="4.82011">
        <ele>409</ele>
        <time>2012-11-03T10:23:27Z</time>
      </trkpt>
      <trkpt lat="45.82873" lon="4.82011">
        <ele>409</ele>
        <time>2012-11-03T10:23:28Z</time>
      </trkpt>
      <trkpt lat="45.82882" lon="4.82009">
        <ele>407</ele>
        <time>2012-11-03T10:23:31Z</time>
      </trkpt>
      <trkpt lat="45.82896" lon="4.82006">
        <ele>405</ele>
        <time>2012-11-03T10:23:35Z</time>
      </trkpt>
      <trkpt lat="45.82906" lon="4.82002">
        <ele>402</ele>
        <time>2012-11-03T10:23:39Z</time>
      </trkpt>
      <trkpt lat="45.82908" lon="4.82003">
        <ele>402</ele>
        <time>2012-11-03T10:23:40Z</time>
      </trkpt>
      <trkpt lat="45.82919" lon="4.82005">
        <ele>398</ele>
        <time>2012-11-03T10:23:44Z</time>
      </trkpt>
      <trkpt lat="45.82922" lon="4.82004">
        <ele>398</ele>
        <time>2012-11-03T10:23:45Z</time>
      </trkpt>
      <trkpt lat="45.82939" lon="4.81996">
        <ele>396</ele>
        <time>2012-11-03T10:23:50Z</time>
      </trkpt>
      <trkpt lat="45.82945" lon="4.81994">
        <ele>396</ele>
        <time>2012-11-03T10:23:54Z</time>
      </trkpt>
      <trkpt lat="45.82955" lon="4.81998">
        <ele>394</ele>
        <time>2012-11-03T10:24:18Z</time>
      </trkpt>
      <trkpt lat="45.82961" lon="4.81996">
        <ele>394</ele>
        <time>2012-11-03T10:24:23Z</time>
      </trkpt>
      <trkpt lat="45.82963" lon="4.81997">
        <ele>394</ele>
        <time>2012-11-03T10:24:29Z</time>
      </trkpt>
      <trkpt lat="45.82961" lon="4.81999">
        <ele>394</ele>
        <time>2012-11-03T10:24:32Z</time>
      </trkpt>
      <trkpt lat="45.8296" lon="4.82002">
        <ele>394</ele>
        <time>2012-11-03T10:24:34Z</time>
      </trkpt>
      <trkpt lat="45.82961" lon="4.81999">
        <ele>394</ele>
        <time>2012-11-03T10:24:36Z</time>
      </trkpt>
      <trkpt lat="45.82964" lon="4.81995">
        <ele>393</ele>
        <time>2012-11-03T10:24:38Z</time>
      </trkpt>
      <trkpt lat="45.82974" lon="4.81996">
        <ele>392</ele>
        <time>2012-11-03T10:24:42Z</time>
      </trkpt>
      <trkpt lat="45.82979" lon="4.82002">
        <ele>392</ele>
        <time>2012-11-03T10:24:44Z</time>
      </trkpt>
      <trkpt lat="45.82982" lon="4.82005">
        <ele>392</ele>
        <time>2012-11-03T10:24:45Z</time>
      </trkpt>
      <trkpt lat="45.82989" lon="4.82014">
        <ele>391</ele>
        <time>2012-11-03T10:24:48Z</time>
      </trkpt>
      <trkpt lat="45.83001" lon="4.82033">
        <ele>377</ele>
        <time>2012-11-03T10:24:55Z</time>
      </trkpt>
      <trkpt lat="45.83006" lon="4.82038">
        <ele>376</ele>
        <time>2012-11-03T10:24:58Z</time>
      </trkpt>
      <trkpt lat="45.83009" lon="4.82042">
        <ele>376</ele>
        <time>2012-11-03T10:25:00Z</time>
      </trkpt>
      <trkpt lat="45.83018" lon="4.82053">
        <ele>375</ele>
        <time>2012-11-03T10:25:04Z</time>
      </trkpt>
      <trkpt lat="45.83022" lon="4.82056">
        <ele>375</ele>
        <time>2012-11-03T10:25:05Z</time>
      </trkpt>
      <trkpt lat="45.83031" lon="4.82067">
        <ele>374</ele>
        <time>2012-11-03T10:25:07Z</time>
      </trkpt>
      <trkpt lat="45.83036" lon="4.82073">
        <ele>373</ele>
        <time>2012-11-03T10:25:08Z</time>
      </trkpt>
      <trkpt lat="45.83052" lon="4.82093">
        <ele>375</ele>
        <time>2012-11-03T10:25:11Z</time>
      </trkpt>
      <trkpt lat="45.83057" lon="4.82101">
        <ele>375</ele>
        <time>2012-11-03T10:25:12Z</time>
      </trkpt>
      <trkpt lat="45.83064" lon="4.82109">
        <ele>375</ele>
        <time>2012-11-03T10:25:13Z</time>
      </trkpt>
      <trkpt lat="45.83095" lon="4.82152">
        <ele>358</ele>
        <time>2012-11-03T10:25:18Z</time>
      </trkpt>
      <trkpt lat="45.83115" lon="4.82198">
        <ele>360</ele>
        <time>2012-11-03T10:25:22Z</time>
      </trkpt>
      <trkpt lat="45.83119" lon="4.82209">
        <ele>359</ele>
        <time>2012-11-03T10:25:23Z</time>
      </trkpt>
      <trkpt lat="45.83126" lon="4.82246">
        <ele>358</ele>
        <time>2012-11-03T10:25:26Z</time>
      </trkpt>
      <trkpt lat="45.83135" lon="4.82305">
        <ele>361</ele>
        <time>2012-11-03T10:25:30Z</time>
      </trkpt>
      <trkpt lat="45.83142" lon="4.82343">
        <ele>358</ele>
        <time>2012-11-03T10:25:33Z</time>
      </trkpt>
      <trkpt lat="45.83142" lon="4.82353">
        <ele>359</ele>
        <time>2012-11-03T10:25:34Z</time>
      </trkpt>
      <trkpt lat="45.83142" lon="4.82363">
        <ele>360</ele>
        <time>2012-11-03T10:25:35Z</time>
      </trkpt>
      <trkpt lat="45.83142" lon="4.82384">
        <ele>360</ele>
        <time>2012-11-03T10:25:37Z</time>
      </trkpt>
      <trkpt lat="45.83139" lon="4.82414">
        <ele>359</ele>
        <time>2012-11-03T10:25:40Z</time>
      </trkpt>
      <trkpt lat="45.83139" lon="4.82424">
        <ele>357</ele>
        <time>2012-11-03T10:25:41Z</time>
      </trkpt>
      <trkpt lat="45.83139" lon="4.82473">
        <ele>357</ele>
        <time>2012-11-03T10:25:46Z</time>
      </trkpt>
      <trkpt lat="45.83136" lon="4.82524">
        <ele>351</ele>
        <time>2012-11-03T10:25:50Z</time>
      </trkpt>
      <trkpt lat="45.83123" lon="4.82578">
        <ele>351</ele>
        <time>2012-11-03T10:25:54Z</time>
      </trkpt>
      <trkpt lat="45.83119" lon="4.82588">
        <ele>345</ele>
        <time>2012-11-03T10:25:55Z</time>
      </trkpt>
      <trkpt lat="45.83106" lon="4.82617">
        <ele>345</ele>
        <time>2012-11-03T10:25:58Z</time>
      </trkpt>
      <trkpt lat="45.83102" lon="4.82626">
        <ele>344</ele>
        <time>2012-11-03T10:25:59Z</time>
      </trkpt>
      <trkpt lat="45.83097" lon="4.82634">
        <ele>344</ele>
        <time>2012-11-03T10:26:00Z</time>
      </trkpt>
      <trkpt lat="45.83083" lon="4.82649">
        <ele>361</ele>
        <time>2012-11-03T10:26:03Z</time>
      </trkpt>
      <trkpt lat="45.83068" lon="4.82664">
        <ele>361</ele>
        <time>2012-11-03T10:26:06Z</time>
      </trkpt>
      <trkpt lat="45.83063" lon="4.82668">
        <ele>353</ele>
        <time>2012-11-03T10:26:07Z</time>
      </trkpt>
      <trkpt lat="45.83049" lon="4.82684">
        <ele>356</ele>
        <time>2012-11-03T10:26:10Z</time>
      </trkpt>
      <trkpt lat="45.83044" lon="4.82698">
        <ele>356</ele>
        <time>2012-11-03T10:26:12Z</time>
      </trkpt>
      <trkpt lat="45.83041" lon="4.82706">
        <ele>355</ele>
        <time>2012-11-03T10:26:13Z</time>
      </trkpt>
      <trkpt lat="45.83039" lon="4.82713">
        <ele>355</ele>
        <time>2012-11-03T10:26:14Z</time>
      </trkpt>
      <trkpt lat="45.83033" lon="4.82726">
        <ele>354</ele>
        <time>2012-11-03T10:26:16Z</time>
      </trkpt>
      <trkpt lat="45.8303" lon="4.82731">
        <ele>354</ele>
        <time>2012-11-03T10:26:17Z</time>
      </trkpt>
      <trkpt lat="45.83019" lon="4.8275">
        <ele>346</ele>
        <time>2012-11-03T10:26:20Z</time>
      </trkpt>
      <trkpt lat="45.83011" lon="4.82762">
        <ele>347</ele>
        <time>2012-11-03T10:26:22Z</time>
      </trkpt>
      <trkpt lat="45.83002" lon="4.82772">
        <ele>345</ele>
        <time>2012-11-03T10:26:24Z</time>
      </trkpt>
      <trkpt lat="45.82989" lon="4.82791">
        <ele>357</ele>
        <time>2012-11-03T10:26:27Z</time>
      </trkpt>
      <trkpt lat="45.82982" lon="4.82804">
        <ele>355</ele>
        <time>2012-11-03T10:26:29Z</time>
      </trkpt>
      <trkpt lat="45.82975" lon="4.82817">
        <ele>354</ele>
        <time>2012-11-03T10:26:31Z</time>
      </trkpt>
      <trkpt lat="45.82963" lon="4.82829">
        <ele>356</ele>
        <time>2012-11-03T10:26:34Z</time>
      </trkpt>
      <trkpt lat="45.82959" lon="4.82832">
        <ele>357</ele>
        <time>2012-11-03T10:26:35Z</time>
      </trkpt>
      <trkpt lat="45.82945" lon="4.82846">
        <ele>345</ele>
        <time>2012-11-03T10:26:40Z</time>
      </trkpt>
      <trkpt lat="45.82933" lon="4.82855">
        <ele>346</ele>
        <time>2012-11-03T10:26:45Z</time>
      </trkpt>
      <trkpt lat="45.82931" lon="4.82856">
        <ele>346</ele>
        <time>2012-11-03T10:26:46Z</time>
      </trkpt>
      <trkpt lat="45.82917" lon="4.82863">
        <ele>346</ele>
        <time>2012-11-03T10:26:51Z</time>
      </trkpt>
      <trkpt lat="45.82901" lon="4.82871">
        <ele>354</ele>
        <time>2012-11-03T10:26:57Z</time>
      </trkpt>
      <trkpt lat="45.82896" lon="4.82873">
        <ele>354</ele>
        <time>2012-11-03T10:26:59Z</time>
      </trkpt>
      <trkpt lat="45.82883" lon="4.82879">
        <ele>354</ele>
        <time>2012-11-03T10:27:03Z</time>
      </trkpt>
      <trkpt lat="45.82867" lon="4.8288">
        <ele>355</ele>
        <time>2012-11-03T10:27:08Z</time>
      </trkpt>
      <trkpt lat="45.82861" lon="4.8288">
        <ele>355</ele>
        <time>2012-11-03T10:27:10Z</time>
      </trkpt>
      <trkpt lat="45.82848" lon="4.82883">
        <ele>355</ele>
        <time>2012-11-03T10:27:15Z</time>
      </trkpt>
      <trkpt lat="45.82828" lon="4.82885">
        <ele>358</ele>
        <time>2012-11-03T10:27:22Z</time>
      </trkpt>
      <trkpt lat="45.82825" lon="4.82886">
        <ele>358</ele>
        <time>2012-11-03T10:27:23Z</time>
      </trkpt>
      <trkpt lat="45.82808" lon="4.82888">
        <ele>358</ele>
        <time>2012-11-03T10:27:29Z</time>
      </trkpt>
      <trkpt lat="45.8279" lon="4.82886">
        <ele>358</ele>
        <time>2012-11-03T10:27:35Z</time>
      </trkpt>
      <trkpt lat="45.82787" lon="4.82885">
        <ele>358</ele>
        <time>2012-11-03T10:27:36Z</time>
      </trkpt>
      <trkpt lat="45.8277" lon="4.82884">
        <ele>358</ele>
        <time>2012-11-03T10:27:42Z</time>
      </trkpt>
      <trkpt lat="45.82751" lon="4.8288">
        <ele>358</ele>
        <time>2012-11-03T10:27:48Z</time>
      </trkpt>
      <trkpt lat="45.82747" lon="4.8288">
        <ele>353</ele>
        <time>2012-11-03T10:27:49Z</time>
      </trkpt>
      <trkpt lat="45.82726" lon="4.82873">
        <ele>353</ele>
        <time>2012-11-03T10:27:56Z</time>
      </trkpt>
      <trkpt lat="45.82714" lon="4.82864">
        <ele>353</ele>
        <time>2012-11-03T10:28:00Z</time>
      </trkpt>
      <trkpt lat="45.82712" lon="4.82861">
        <ele>353</ele>
        <time>2012-11-03T10:28:01Z</time>
      </trkpt>
      <trkpt lat="45.82696" lon="4.82839">
        <ele>353</ele>
        <time>2012-11-03T10:28:07Z</time>
      </trkpt>
      <trkpt lat="45.82691" lon="4.8283">
        <ele>361</ele>
        <time>2012-11-03T10:28:09Z</time>
      </trkpt>
      <trkpt lat="45.82688" lon="4.82824">
        <ele>361</ele>
        <time>2012-11-03T10:28:10Z</time>
      </trkpt>
      <trkpt lat="45.82681" lon="4.82809">
        <ele>362</ele>
        <time>2012-11-03T10:28:13Z</time>
      </trkpt>
      <trkpt lat="45.82665" lon="4.82778">
        <ele>354</ele>
        <time>2012-11-03T10:28:19Z</time>
      </trkpt>
      <trkpt lat="45.82644" lon="4.82751">
        <ele>355</ele>
        <time>2012-11-03T10:28:24Z</time>
      </trkpt>
      <trkpt lat="45.82634" lon="4.82739">
        <ele>363</ele>
        <time>2012-11-03T10:28:26Z</time>
      </trkpt>
      <trkpt lat="45.82616" lon="4.82727">
        <ele>362</ele>
        <time>2012-11-03T10:28:29Z</time>
      </trkpt>
      <trkpt lat="45.8261" lon="4.82724">
        <ele>361</ele>
        <time>2012-11-03T10:28:30Z</time>
      </trkpt>
      <trkpt lat="45.82596" lon="4.82721">
        <ele>360</ele>
        <time>2012-11-03T10:28:32Z</time>
      </trkpt>
      <trkpt lat="45.8259" lon="4.8272">
        <ele>360</ele>
        <time>2012-11-03T10:28:33Z</time>
      </trkpt>
      <trkpt lat="45.82572" lon="4.82714">
        <ele>354</ele>
        <time>2012-11-03T10:28:36Z</time>
      </trkpt>
      <trkpt lat="45.82565" lon="4.82713">
        <ele>354</ele>
        <time>2012-11-03T10:28:37Z</time>
      </trkpt>
      <trkpt lat="45.82559" lon="4.82711">
        <ele>355</ele>
        <time>2012-11-03T10:28:38Z</time>
      </trkpt>
      <trkpt lat="45.82541" lon="4.82704">
        <ele>355</ele>
        <time>2012-11-03T10:28:41Z</time>
      </trkpt>
      <trkpt lat="45.82522" lon="4.82715">
        <ele>353</ele>
        <time>2012-11-03T10:28:44Z</time>
      </trkpt>
      <trkpt lat="45.82503" lon="4.82716">
        <ele>353</ele>
        <time>2012-11-03T10:28:47Z</time>
      </trkpt>
      <trkpt lat="45.82496" lon="4.82714">
        <ele>350</ele>
        <time>2012-11-03T10:28:48Z</time>
      </trkpt>
      <trkpt lat="45.82484" lon="4.82711">
        <ele>350</ele>
        <time>2012-11-03T10:28:50Z</time>
      </trkpt>
      <trkpt lat="45.82467" lon="4.82708">
        <ele>350</ele>
        <time>2012-11-03T10:28:53Z</time>
      </trkpt>
      <trkpt lat="45.82455" lon="4.82706">
        <ele>350</ele>
        <time>2012-11-03T10:28:55Z</time>
      </trkpt>
      <trkpt lat="45.82444" lon="4.82706">
        <ele>350</ele>
        <time>2012-11-03T10:28:57Z</time>
      </trkpt>
      <trkpt lat="45.82439" lon="4.82704">
        <ele>350</ele>
        <time>2012-11-03T10:28:58Z</time>
      </trkpt>
      <trkpt lat="45.82416" lon="4.82696">
        <ele>348</ele>
        <time>2012-11-03T10:29:03Z</time>
      </trkpt>
      <trkpt lat="45.82412" lon="4.82695">
        <ele>348</ele>
        <time>2012-11-03T10:29:04Z</time>
      </trkpt>
      <trkpt lat="45.82407" lon="4.82694">
        <ele>348</ele>
        <time>2012-11-03T10:29:05Z</time>
      </trkpt>
      <trkpt lat="45.82397" lon="4.82694">
        <ele>347</ele>
        <time>2012-11-03T10:29:07Z</time>
      </trkpt>
      <trkpt lat="45.82386" lon="4.82693">
        <ele>347</ele>
        <time>2012-11-03T10:29:09Z</time>
      </trkpt>
      <trkpt lat="45.8237" lon="4.82692">
        <ele>347</ele>
        <time>2012-11-03T10:29:12Z</time>
      </trkpt>
      <trkpt lat="45.82349" lon="4.82693">
        <ele>346</ele>
        <time>2012-11-03T10:29:16Z</time>
      </trkpt>
      <trkpt lat="45.82333" lon="4.82693">
        <ele>345</ele>
        <time>2012-11-03T10:29:19Z</time>
      </trkpt>
      <trkpt lat="45.82324" lon="4.82698">
        <ele>344</ele>
        <time>2012-11-03T10:29:21Z</time>
      </trkpt>
      <trkpt lat="45.82309" lon="4.82715">
        <ele>342</ele>
        <time>2012-11-03T10:29:25Z</time>
      </trkpt>
      <trkpt lat="45.82305" lon="4.82731">
        <ele>341</ele>
        <time>2012-11-03T10:29:27Z</time>
      </trkpt>
      <trkpt lat="45.82304" lon="4.82739">
        <ele>340</ele>
        <time>2012-11-03T10:29:28Z</time>
      </trkpt>
      <trkpt lat="45.82302" lon="4.82747">
        <ele>340</ele>
        <time>2012-11-03T10:29:29Z</time>
      </trkpt>
      <trkpt lat="45.82299" lon="4.82753">
        <ele>332</ele>
        <time>2012-11-03T10:29:30Z</time>
      </trkpt>
      <trkpt lat="45.82295" lon="4.82756">
        <ele>332</ele>
        <time>2012-11-03T10:29:31Z</time>
      </trkpt>
      <trkpt lat="45.82278" lon="4.82759">
        <ele>332</ele>
        <time>2012-11-03T10:29:34Z</time>
      </trkpt>
      <trkpt lat="45.82264" lon="4.82762">
        <ele>332</ele>
        <time>2012-11-03T10:29:36Z</time>
      </trkpt>
      <trkpt lat="45.82249" lon="4.82767">
        <ele>332</ele>
        <time>2012-11-03T10:29:38Z</time>
      </trkpt>
      <trkpt lat="45.82241" lon="4.8277">
        <ele>331</ele>
        <time>2012-11-03T10:29:39Z</time>
      </trkpt>
      <trkpt lat="45.82231" lon="4.82779">
        <ele>330</ele>
        <time>2012-11-03T10:29:41Z</time>
      </trkpt>
      <trkpt lat="45.82228" lon="4.82782">
        <ele>329</ele>
        <time>2012-11-03T10:29:42Z</time>
      </trkpt>
      <trkpt lat="45.82226" lon="4.82793">
        <ele>328</ele>
        <time>2012-11-03T10:29:45Z</time>
      </trkpt>
      <trkpt lat="45.82227" lon="4.82798">
        <ele>328</ele>
        <time>2012-11-03T10:29:46Z</time>
      </trkpt>
      <trkpt lat="45.82231" lon="4.82812">
        <ele>327</ele>
        <time>2012-11-03T10:29:48Z</time>
      </trkpt>
      <trkpt lat="45.82232" lon="4.82821">
        <ele>326</ele>
        <time>2012-11-03T10:29:49Z</time>
      </trkpt>
      <trkpt lat="45.82238" lon="4.82861">
        <ele>317</ele>
        <time>2012-11-03T10:29:54Z</time>
      </trkpt>
      <trkpt lat="45.82239" lon="4.82868">
        <ele>316</ele>
        <time>2012-11-03T10:29:55Z</time>
      </trkpt>
      <trkpt lat="45.82239" lon="4.82875">
        <ele>315</ele>
        <time>2012-11-03T10:29:56Z</time>
      </trkpt>
      <trkpt lat="45.82242" lon="4.82899">
        <ele>313</ele>
        <time>2012-11-03T10:30:00Z</time>
      </trkpt>
      <trkpt lat="45.8224" lon="4.82919">
        <ele>306</ele>
        <time>2012-11-03T10:30:04Z</time>
      </trkpt>
      <trkpt lat="45.82237" lon="4.82921">
        <ele>305</ele>
        <time>2012-11-03T10:30:05Z</time>
      </trkpt>
      <trkpt lat="45.82227" lon="4.82916">
        <ele>312</ele>
        <time>2012-11-03T10:30:07Z</time>
      </trkpt>
      <trkpt lat="45.82204" lon="4.82908">
        <ele>312</ele>
        <time>2012-11-03T10:30:11Z</time>
      </trkpt>
      <trkpt lat="45.8217" lon="4.82898">
        <ele>310</ele>
        <time>2012-11-03T10:30:16Z</time>
      </trkpt>
      <trkpt lat="45.82163" lon="4.82896">
        <ele>307</ele>
        <time>2012-11-03T10:30:17Z</time>
      </trkpt>
      <trkpt lat="45.82132" lon="4.8289">
        <ele>307</ele>
        <time>2012-11-03T10:30:21Z</time>
      </trkpt>
      <trkpt lat="45.82125" lon="4.82888">
        <ele>306</ele>
        <time>2012-11-03T10:30:22Z</time>
      </trkpt>
      <trkpt lat="45.821" lon="4.82881">
        <ele>305</ele>
        <time>2012-11-03T10:30:25Z</time>
      </trkpt>
      <trkpt lat="45.8209" lon="4.82876">
        <ele>305</ele>
        <time>2012-11-03T10:30:26Z</time>
      </trkpt>
      <trkpt lat="45.82054" lon="4.82866">
        <ele>299</ele>
        <time>2012-11-03T10:30:30Z</time>
      </trkpt>
      <trkpt lat="45.82044" lon="4.82866">
        <ele>299</ele>
        <time>2012-11-03T10:30:31Z</time>
      </trkpt>
      <trkpt lat="45.82015" lon="4.82867">
        <ele>297</ele>
        <time>2012-11-03T10:30:34Z</time>
      </trkpt>
      <trkpt lat="45.81985" lon="4.82869">
        <ele>292</ele>
        <time>2012-11-03T10:30:37Z</time>
      </trkpt>
      <trkpt lat="45.81975" lon="4.8287">
        <ele>291</ele>
        <time>2012-11-03T10:30:38Z</time>
      </trkpt>
      <trkpt lat="45.81932" lon="4.82871">
        <ele>290</ele>
        <time>2012-11-03T10:30:42Z</time>
      </trkpt>
      <trkpt lat="45.81922" lon="4.82868">
        <ele>289</ele>
        <time>2012-11-03T10:30:43Z</time>
      </trkpt>
      <trkpt lat="45.81894" lon="4.82858">
        <ele>288</ele>
        <time>2012-11-03T10:30:46Z</time>
      </trkpt>
      <trkpt lat="45.81886" lon="4.82854">
        <ele>288</ele>
        <time>2012-11-03T10:30:47Z</time>
      </trkpt>
      <trkpt lat="45.8188" lon="4.82856">
        <ele>288</ele>
        <time>2012-11-03T10:30:48Z</time>
      </trkpt>
      <trkpt lat="45.8187" lon="4.82868">
        <ele>287</ele>
        <time>2012-11-03T10:30:50Z</time>
      </trkpt>
      <trkpt lat="45.81862" lon="4.82887">
        <ele>286</ele>
        <time>2012-11-03T10:30:52Z</time>
      </trkpt>
      <trkpt lat="45.81857" lon="4.82897">
        <ele>286</ele>
        <time>2012-11-03T10:30:53Z</time>
      </trkpt>
      <trkpt lat="45.81841" lon="4.82931">
        <ele>281</ele>
        <time>2012-11-03T10:30:56Z</time>
      </trkpt>
      <trkpt lat="45.81835" lon="4.82942">
        <ele>281</ele>
        <time>2012-11-03T10:30:57Z</time>
      </trkpt>
      <trkpt lat="45.81822" lon="4.82969">
        <ele>277</ele>
        <time>2012-11-03T10:31:00Z</time>
      </trkpt>
      <trkpt lat="45.81819" lon="4.82974">
        <ele>277</ele>
        <time>2012-11-03T10:31:01Z</time>
      </trkpt>
      <trkpt lat="45.81817" lon="4.82977">
        <ele>277</ele>
        <time>2012-11-03T10:31:02Z</time>
      </trkpt>
      <trkpt lat="45.81813" lon="4.82978">
        <ele>276</ele>
        <time>2012-11-03T10:31:03Z</time>
      </trkpt>
      <trkpt lat="45.81804" lon="4.82975">
        <ele>277</ele>
        <time>2012-11-03T10:31:05Z</time>
      </trkpt>
      <trkpt lat="45.81793" lon="4.82971">
        <ele>276</ele>
        <time>2012-11-03T10:31:07Z</time>
      </trkpt>
      <trkpt lat="45.81781" lon="4.82967">
        <ele>276</ele>
        <time>2012-11-03T10:31:09Z</time>
      </trkpt>
      <trkpt lat="45.81753" lon="4.82963">
        <ele>276</ele>
        <time>2012-11-03T10:31:13Z</time>
      </trkpt>
      <trkpt lat="45.81745" lon="4.82962">
        <ele>274</ele>
        <time>2012-11-03T10:31:14Z</time>
      </trkpt>
      <trkpt lat="45.81702" lon="4.8296">
        <ele>274</ele>
        <time>2012-11-03T10:31:19Z</time>
      </trkpt>
      <trkpt lat="45.81672" lon="4.82952">
        <ele>274</ele>
        <time>2012-11-03T10:31:23Z</time>
      </trkpt>
      <trkpt lat="45.81665" lon="4.82948">
        <ele>273</ele>
        <time>2012-11-03T10:31:25Z</time>
      </trkpt>
      <trkpt lat="45.81647" lon="4.8293">
        <ele>273</ele>
        <time>2012-11-03T10:31:27Z</time>
      </trkpt>
      <trkpt lat="45.81642" lon="4.82924">
        <ele>273</ele>
        <time>2012-11-03T10:31:28Z</time>
      </trkpt>
      <trkpt lat="45.81637" lon="4.82919">
        <ele>273</ele>
        <time>2012-11-03T10:31:29Z</time>
      </trkpt>
      <trkpt lat="45.81632" lon="4.82915">
        <ele>274</ele>
        <time>2012-11-03T10:31:30Z</time>
      </trkpt>
      <trkpt lat="45.81626" lon="4.82913">
        <ele>274</ele>
        <time>2012-11-03T10:31:31Z</time>
      </trkpt>
      <trkpt lat="45.81605" lon="4.82921">
        <ele>272</ele>
        <time>2012-11-03T10:31:34Z</time>
      </trkpt>
      <trkpt lat="45.81596" lon="4.82925">
        <ele>272</ele>
        <time>2012-11-03T10:31:35Z</time>
      </trkpt>
      <trkpt lat="45.81561" lon="4.8294">
        <ele>269</ele>
        <time>2012-11-03T10:31:39Z</time>
      </trkpt>
      <trkpt lat="45.81544" lon="4.8295">
        <ele>268</ele>
        <time>2012-11-03T10:31:41Z</time>
      </trkpt>
      <trkpt lat="45.81526" lon="4.82958">
        <ele>267</ele>
        <time>2012-11-03T10:31:43Z</time>
      </trkpt>
      <trkpt lat="45.81518" lon="4.82961">
        <ele>267</ele>
        <time>2012-11-03T10:31:44Z</time>
      </trkpt>
      <trkpt lat="45.81508" lon="4.82962">
        <ele>267</ele>
        <time>2012-11-03T10:31:45Z</time>
      </trkpt>
      <trkpt lat="45.81488" lon="4.82963">
        <ele>265</ele>
        <time>2012-11-03T10:31:47Z</time>
      </trkpt>
      <trkpt lat="45.81451" lon="4.82967">
        <ele>264</ele>
        <time>2012-11-03T10:31:51Z</time>
      </trkpt>
      <trkpt lat="45.81407" lon="4.82973">
        <ele>263</ele>
        <time>2012-11-03T10:31:56Z</time>
      </trkpt>
      <trkpt lat="45.81375" lon="4.82981">
        <ele>263</ele>
        <time>2012-11-03T10:32:00Z</time>
      </trkpt>
      <trkpt lat="45.81367" lon="4.82983">
        <ele>263</ele>
        <time>2012-11-03T10:32:01Z</time>
      </trkpt>
      <trkpt lat="45.81327" lon="4.82994">
        <ele>262</ele>
        <time>2012-11-03T10:32:06Z</time>
      </trkpt>
      <trkpt lat="45.81304" lon="4.83002">
        <ele>262</ele>
        <time>2012-11-03T10:32:09Z</time>
      </trkpt>
      <trkpt lat="45.81291" lon="4.83008">
        <ele>262</ele>
        <time>2012-11-03T10:32:11Z</time>
      </trkpt>
      <trkpt lat="45.81265" lon="4.83017">
        <ele>261</ele>
        <time>2012-11-03T10:32:15Z</time>
      </trkpt>
      <trkpt lat="45.81252" lon="4.83021">
        <ele>261</ele>
        <time>2012-11-03T10:32:17Z</time>
      </trkpt>
      <trkpt lat="45.81219" lon="4.83027">
        <ele>258</ele>
        <time>2012-11-03T10:32:22Z</time>
      </trkpt>
      <trkpt lat="45.81212" lon="4.83028">
        <ele>257</ele>
        <time>2012-11-03T10:32:23Z</time>
      </trkpt>
      <trkpt lat="45.81178" lon="4.83037">
        <ele>256</ele>
        <time>2012-11-03T10:32:28Z</time>
      </trkpt>
      <trkpt lat="45.8117" lon="4.83039">
        <ele>256</ele>
        <time>2012-11-03T10:32:29Z</time>
      </trkpt>
      <trkpt lat="45.81132" lon="4.83047">
        <ele>253</ele>
        <time>2012-11-03T10:32:34Z</time>
      </trkpt>
      <trkpt lat="45.81125" lon="4.83048">
        <ele>253</ele>
        <time>2012-11-03T10:32:35Z</time>
      </trkpt>
      <trkpt lat="45.81093" lon="4.83055">
        <ele>252</ele>
        <time>2012-11-03T10:32:39Z</time>
      </trkpt>
      <trkpt lat="45.8107" lon="4.83059">
        <ele>251</ele>
        <time>2012-11-03T10:32:42Z</time>
      </trkpt>
      <trkpt lat="45.81056" lon="4.83062">
        <ele>251</ele>
        <time>2012-11-03T10:32:45Z</time>
      </trkpt>
      <trkpt lat="45.81036" lon="4.83066">
        <ele>251</ele>
        <time>2012-11-03T10:32:47Z</time>
      </trkpt>
      <trkpt lat="45.8103" lon="4.83062">
        <ele>250</ele>
        <time>2012-11-03T10:32:48Z</time>
      </trkpt>
      <trkpt lat="45.81025" lon="4.83046">
        <ele>250</ele>
        <time>2012-11-03T10:32:50Z</time>
      </trkpt>
      <trkpt lat="45.81026" lon="4.83023">
        <ele>250</ele>
        <time>2012-11-03T10:32:53Z</time>
      </trkpt>
      <trkpt lat="45.81026" lon="4.83015">
        <ele>250</ele>
        <time>2012-11-03T10:32:54Z</time>
      </trkpt>
      <trkpt lat="45.81026" lon="4.83001">
        <ele>250</ele>
        <time>2012-11-03T10:32:56Z</time>
      </trkpt>
      <trkpt lat="45.81025" lon="4.82994">
        <ele>250</ele>
        <time>2012-11-03T10:32:57Z</time>
      </trkpt>
      <trkpt lat="45.81023" lon="4.82987">
        <ele>250</ele>
        <time>2012-11-03T10:32:58Z</time>
      </trkpt>
      <trkpt lat="45.81014" lon="4.82983">
        <ele>250</ele>
        <time>2012-11-03T10:33:00Z</time>
      </trkpt>
      <trkpt lat="45.81009" lon="4.82982">
        <ele>250</ele>
        <time>2012-11-03T10:33:01Z</time>
      </trkpt>
      <trkpt lat="45.80983" lon="4.82979">
        <ele>249</ele>
        <time>2012-11-03T10:33:05Z</time>
      </trkpt>
      <trkpt lat="45.80952" lon="4.8298">
        <ele>249</ele>
        <time>2012-11-03T10:33:09Z</time>
      </trkpt>
      <trkpt lat="45.8093" lon="4.8298">
        <ele>248</ele>
        <time>2012-11-03T10:33:12Z</time>
      </trkpt>
      <trkpt lat="45.80915" lon="4.82979">
        <ele>247</ele>
        <time>2012-11-03T10:33:14Z</time>
      </trkpt>
      <trkpt lat="45.80907" lon="4.82977">
        <ele>247</ele>
        <time>2012-11-03T10:33:15Z</time>
      </trkpt>
      <trkpt lat="45.80892" lon="4.82972">
        <ele>247</ele>
        <time>2012-11-03T10:33:18Z</time>
      </trkpt>
      <trkpt lat="45.80876" lon="4.82968">
        <ele>246</ele>
        <time>2012-11-03T10:33:19Z</time>
      </trkpt>
      <trkpt lat="45.80835" lon="4.82954">
        <ele>245</ele>
        <time>2012-11-03T10:33:25Z</time>
      </trkpt>
      <trkpt lat="45.80796" lon="4.82943">
        <ele>244</ele>
        <time>2012-11-03T10:33:29Z</time>
      </trkpt>
      <trkpt lat="45.80773" lon="4.82932">
        <ele>244</ele>
        <time>2012-11-03T10:33:32Z</time>
      </trkpt>
      <trkpt lat="45.80758" lon="4.82923">
        <ele>243</ele>
        <time>2012-11-03T10:33:34Z</time>
      </trkpt>
      <trkpt lat="45.80738" lon="4.82911">
        <ele>241</ele>
        <time>2012-11-03T10:33:37Z</time>
      </trkpt>
      <trkpt lat="45.80719" lon="4.82901">
        <ele>241</ele>
        <time>2012-11-03T10:33:40Z</time>
      </trkpt>
      <trkpt lat="45.80696" lon="4.82894">
        <ele>241</ele>
        <time>2012-11-03T10:33:43Z</time>
      </trkpt>
      <trkpt lat="45.8068" lon="4.82891">
        <ele>241</ele>
        <time>2012-11-03T10:33:46Z</time>
      </trkpt>
      <trkpt lat="45.80672" lon="4.8289">
        <ele>241</ele>
        <time>2012-11-03T10:33:47Z</time>
      </trkpt>
      <trkpt lat="45.80656" lon="4.82895">
        <ele>239</ele>
        <time>2012-11-03T10:33:48Z</time>
      </trkpt>
      <trkpt lat="45.80642" lon="4.82901">
        <ele>238</ele>
        <time>2012-11-03T10:33:50Z</time>
      </trkpt>
      <trkpt lat="45.80626" lon="4.82911">
        <ele>238</ele>
        <time>2012-11-03T10:33:53Z</time>
      </trkpt>
      <trkpt lat="45.80605" lon="4.82921">
        <ele>241</ele>
        <time>2012-11-03T10:33:58Z</time>
      </trkpt>
      <trkpt lat="45.80594" lon="4.82925">
        <ele>240</ele>
        <time>2012-11-03T10:33:59Z</time>
      </trkpt>
      <trkpt lat="45.80589" lon="4.82926">
        <ele>240</ele>
        <time>2012-11-03T10:34:01Z</time>
      </trkpt>
      <trkpt lat="45.80575" lon="4.82932">
        <ele>239</ele>
        <time>2012-11-03T10:34:04Z</time>
      </trkpt>
      <trkpt lat="45.80566" lon="4.82936">
        <ele>240</ele>
        <time>2012-11-03T10:34:05Z</time>
      </trkpt>
      <trkpt lat="45.8056" lon="4.82938">
        <ele>240</ele>
        <time>2012-11-03T10:34:06Z</time>
      </trkpt>
      <trkpt lat="45.80525" lon="4.82947">
        <ele>240</ele>
        <time>2012-11-03T10:34:12Z</time>
      </trkpt>
      <trkpt lat="45.80487" lon="4.82948">
        <ele>240</ele>
        <time>2012-11-03T10:34:19Z</time>
      </trkpt>
      <trkpt lat="45.80473" lon="4.8295">
        <ele>240</ele>
        <time>2012-11-03T10:34:22Z</time>
      </trkpt>
      <trkpt lat="45.80465" lon="4.82949">
        <ele>240</ele>
        <time>2012-11-03T10:34:25Z</time>
      </trkpt>
      <trkpt lat="45.80451" lon="4.82951">
        <ele>240</ele>
        <time>2012-11-03T10:34:27Z</time>
      </trkpt>
      <trkpt lat="45.80447" lon="4.82953">
        <ele>240</ele>
        <time>2012-11-03T10:34:28Z</time>
      </trkpt>
      <trkpt lat="45.8044" lon="4.82959">
        <ele>241</ele>
        <time>2012-11-03T10:34:30Z</time>
      </trkpt>
      <trkpt lat="45.80431" lon="4.82984">
        <ele>241</ele>
        <time>2012-11-03T10:34:34Z</time>
      </trkpt>
      <trkpt lat="45.80428" lon="4.83">
        <ele>242</ele>
        <time>2012-11-03T10:34:37Z</time>
      </trkpt>
      <trkpt lat="45.80421" lon="4.83027">
        <ele>242</ele>
        <time>2012-11-03T10:34:40Z</time>
      </trkpt>
      <trkpt lat="45.80413" lon="4.83055">
        <ele>240</ele>
        <time>2012-11-03T10:34:43Z</time>
      </trkpt>
      <trkpt lat="45.80403" lon="4.83086">
        <ele>239</ele>
        <time>2012-11-03T10:34:45Z</time>
      </trkpt>
      <trkpt lat="45.80397" lon="4.83103">
        <ele>238</ele>
        <time>2012-11-03T10:34:48Z</time>
      </trkpt>
      <trkpt lat="45.80393" lon="4.83117">
        <ele>238</ele>
        <time>2012-11-03T10:34:50Z</time>
      </trkpt>
    </trkseg>
  </trk>
</gpx>